Darstellungsparameter: Aktuell verwendete Einstellungen:
Skalierung der Graphiken ... ?
xyx+y,   Skalierungsfaktor:      Skalierung: Modus: x, Faktor: 1
Darstellungszeitraum ... ?
Vom - - bis: - -   Zeitraum: 16.02.2009 - 15.05.2009
Min/Max/Avg-Anzeige ... ?
Zeige MMA aktuell
Zeige MMA Monat
Zeige MMA alles
Zeige --A aktuell
Zeige --A Monat
Zeige --A alles
Keine MMA-Anzeige
MMA:
Keine MMA-Graphiken
MMA-Basis: 16.02.2009 - 15.05.2009
Quicknavigation für Darstellung... ?
Tage:      1T, 2T, 3T, 5T -1T -2T -3T -5T +1T +2T +3T +5T
Wochen: 1W, 2W, 3W -1W -2W -3W +1W +2W +3W
Monate: 1M, 3M, 6M -1M -3M -6M +1M +3M +6M
Jahre:    1J, 3J, 5J, 10J -1J -3J -5J -10J +1J +3J +5J +10J
Nutze für die Darstellung ... ?
Originaldaten oder Mittelwerte auf ...
Stundenbasis Tagesbasis Wochenbasis
Monatsbasis Jahresbasis      Datenbasis: Original-Daten
Darstellen als:
Statistik (Auto) Statistik J:M      Darstellung:
Zur Graphik,    zurück zur Übersicht aller Sensoren.
 
Tabellarische Datenbersicht: ?
 
Sensor: Nr:Datum:Temp:Abs-Feuchte:Windchill:Wind:
Aussen-T/F 1 16-02-2009 00:03:51 0.2 C 3.83 g/m*3 0.2 C 0 km/h
2 16-02-2009 00:15:51 0.2 C 3.88 g/m*3 0.2 C 0 km/h
3 16-02-2009 00:27:51 0.1 C 3.9 g/m*3 0.1 C 0 km/h
4 16-02-2009 00:39:51 0.1 C 4 g/m*3 0.1 C 0 km/h
5 16-02-2009 00:51:51 0 C 4.02 g/m*3 0 C 0 km/h
6 16-02-2009 01:03:51 0 C 4.02 g/m*3 0 C 0 km/h
7 16-02-2009 01:15:51 0 C 4.02 g/m*3 0 C 0 km/h
8 16-02-2009 01:27:51 0 C 4.02 g/m*3 0 C 0 km/h
9 16-02-2009 01:39:52 0 C 4.02 g/m*3 0 C 0 km/h
10 16-02-2009 01:51:52 0 C 4.02 g/m*3 0 C 0 km/h
11 16-02-2009 02:03:52 0 C 4.02 g/m*3 0 C 0 km/h
12 16-02-2009 02:15:52 0.1 C 4 g/m*3 0.1 C 0 km/h
13 16-02-2009 02:27:52 0.1 C 3.95 g/m*3 0.1 C 0 km/h
14 16-02-2009 02:39:52 0.2 C 3.98 g/m*3 0.2 C 0 km/h
15 16-02-2009 02:51:52 0.2 C 3.93 g/m*3 0.2 C 0 km/h
16 16-02-2009 03:03:52 0.2 C 3.93 g/m*3 0.2 C 0 km/h
17 16-02-2009 03:15:52 0.2 C 3.93 g/m*3 0.2 C 0 km/h
18 16-02-2009 03:27:52 0.2 C 3.93 g/m*3 0.2 C 0 km/h
19 16-02-2009 03:39:52 0.3 C 3.96 g/m*3 0.3 C 0 km/h
20 16-02-2009 03:51:52 0.3 C 3.91 g/m*3 0.3 C 0 km/h
21 16-02-2009 04:03:52 0.3 C 3.86 g/m*3 0.3 C 0 km/h
22 16-02-2009 04:15:52 0.4 C 3.88 g/m*3 0.4 C 0 km/h
23 16-02-2009 04:27:52 0.4 C 3.88 g/m*3 0.4 C 0 km/h
24 16-02-2009 04:39:52 0.4 C 3.88 g/m*3 0.4 C 0 km/h
25 16-02-2009 04:51:52 0.4 C 3.88 g/m*3 0.4 C 0 km/h
Sensor: Nr:Datum:Temp:Abs-Feuchte:Windchill:Wind:
Aussen-T/F 26 16-02-2009 05:03:52 0.5 C 3.91 g/m*3 0.5 C 0 km/h
27 16-02-2009 05:15:52 0.5 C 3.91 g/m*3 0.5 C 0 km/h
28 16-02-2009 05:27:52 0.5 C 3.91 g/m*3 0.5 C 0 km/h
29 16-02-2009 05:39:53 0.5 C 3.91 g/m*3 0.5 C 0 km/h
30 16-02-2009 05:51:53 0.4 C 3.88 g/m*3 0.4 C 0 km/h
31 16-02-2009 06:03:53 0.4 C 3.93 g/m*3 0.4 C 0 km/h
32 16-02-2009 06:15:53 0.4 C 4.03 g/m*3 0.4 C 0 km/h
33 16-02-2009 06:27:53 0.3 C 4.06 g/m*3 0.3 C 0 km/h
34 16-02-2009 06:39:53 0.4 C 4.13 g/m*3 0.4 C 0 km/h
35 16-02-2009 06:51:53 0.4 C 4.13 g/m*3 0.4 C 0 km/h
36 16-02-2009 07:03:51 0.4 C 4.18 g/m*3 0.4 C 0 km/h
37 16-02-2009 07:15:50 0.4 C 4.23 g/m*3 0.4 C 0 km/h
38 16-02-2009 07:27:50 0.4 C 4.23 g/m*3 0.4 C 0 km/h
39 16-02-2009 07:39:51 0.4 C 4.23 g/m*3 0.4 C 0 km/h
40 16-02-2009 07:51:50 0.5 C 4.26 g/m*3 0.5 C 0 km/h
41 16-02-2009 08:03:50 0.5 C 4.26 g/m*3 0.5 C 0 km/h
42 16-02-2009 08:15:50 0.5 C 4.26 g/m*3 0.5 C 0 km/h
43 16-02-2009 08:27:50 0.5 C 4.26 g/m*3 0.5 C 0 km/h
44 16-02-2009 08:39:50 0.6 C 4.29 g/m*3 0.6 C 0 km/h
45 16-02-2009 08:51:49 0.7 C 4.32 g/m*3 0.7 C 0 km/h
46 16-02-2009 09:03:50 0.8 C 4.35 g/m*3 0.8 C 0 km/h
47 16-02-2009 09:15:50 1 C 4.31 g/m*3 1 C 0 km/h
48 16-02-2009 09:27:50 1.1 C 4.34 g/m*3 1.1 C 0 km/h
49 16-02-2009 09:39:49 1.2 C 4.31 g/m*3 1.2 C 0 km/h
50 16-02-2009 09:51:50 1.3 C 4.29 g/m*3 1.3 C 0 km/h
Sensor: Nr:Datum:Temp:Abs-Feuchte:Windchill:Wind:
Aussen-T/F 51 16-02-2009 10:03:49 1.3 C 4.24 g/m*3 1.3 C 0 km/h
52 16-02-2009 10:15:49 1.3 C 4.24 g/m*3 1.3 C 0 km/h
53 16-02-2009 10:27:49 1.5 C 4.4 g/m*3 1.5 C 0 km/h
54 16-02-2009 10:39:48 1.5 C 4.46 g/m*3 1.5 C 0 km/h
55 16-02-2009 10:51:49 1.4 C 4.48 g/m*3 1.4 C 0 km/h
56 16-02-2009 11:03:48 1.2 C 4.47 g/m*3 1.2 C 0 km/h
57 16-02-2009 11:15:48 1.5 C 4.62 g/m*3 1.5 C 0 km/h
58 16-02-2009 11:27:48 1.6 C 4.7 g/m*3 1.6 C 0 km/h
59 16-02-2009 11:39:48 1.7 C 4.68 g/m*3 1.7 C 0 km/h
60 16-02-2009 11:51:48 1.8 C 4.71 g/m*3 1.8 C 0 km/h
61 16-02-2009 12:03:48 1.9 C 4.8 g/m*3 1.9 C 0 km/h
62 16-02-2009 12:15:47 2.1 C 4.81 g/m*3 2.1 C 0 km/h
63 16-02-2009 12:27:47 2.3 C 4.88 g/m*3 2.3 C 0 km/h
64 16-02-2009 12:39:48 2.6 C 4.86 g/m*3 2.6 C 0 km/h
65 16-02-2009 12:51:47 2.7 C 4.84 g/m*3 2.7 C 0 km/h
66 16-02-2009 13:03:47 2.8 C 4.81 g/m*3 2.8 C 0 km/h
67 16-02-2009 13:15:47 3 C 4.82 g/m*3 3 C 0 km/h
68 16-02-2009 13:27:47 3.4 C 4.89 g/m*3 3.4 C 0 km/h
69 16-02-2009 13:39:47 3.8 C 4.89 g/m*3 3.8 C 0 km/h
70 16-02-2009 13:51:46 3.8 C 4.89 g/m*3 3.8 C 0 km/h
71 16-02-2009 14:03:47 3.9 C 4.86 g/m*3 3.9 C 0 km/h
72 16-02-2009 14:15:47 4 C 4.83 g/m*3 4 C 0 km/h
73 16-02-2009 14:27:47 3.8 C 4.83 g/m*3 3.8 C 0 km/h
74 16-02-2009 14:39:46 3.8 C 4.89 g/m*3 3.8 C 0 km/h
75 16-02-2009 14:51:47 3.6 C 4.83 g/m*3 3.6 C 0 km/h
Sensor: Nr:Datum:Temp:Abs-Feuchte:Windchill:Wind:
Aussen-T/F 76 16-02-2009 15:03:46 3.5 C 4.86 g/m*3 3.5 C 0 km/h
77 16-02-2009 15:15:46 3.4 C 4.95 g/m*3 3.4 C 0 km/h
78 16-02-2009 15:27:46 3.4 C 5.01 g/m*3 3.4 C 0 km/h
79 16-02-2009 15:39:45 3.4 C 5.07 g/m*3 3.4 C 0 km/h
80 16-02-2009 15:51:46 3.4 C 5.13 g/m*3 3.4 C 0 km/h
81 16-02-2009 16:03:45 3.4 C 5.19 g/m*3 3.4 C 0 km/h
82 16-02-2009 16:15:45 3.4 C 5.19 g/m*3 3.4 C 0 km/h
83 16-02-2009 16:27:45 3.4 C 5.25 g/m*3 3.4 C 0 km/h
84 16-02-2009 16:39:46 3.3 C 5.22 g/m*3 3.3 C 0 km/h
85 16-02-2009 16:51:45 3.3 C 5.28 g/m*3 3.3 C 0 km/h
86 16-02-2009 17:03:45 3.3 C 5.28 g/m*3 3.3 C 0 km/h
87 16-02-2009 17:15:45 3.3 C 5.34 g/m*3 3.3 C 0 km/h
88 16-02-2009 17:27:45 3.2 C 5.3 g/m*3 3.2 C 0 km/h
89 16-02-2009 17:39:45 3.2 C 5.3 g/m*3 3.2 C 0 km/h
90 16-02-2009 17:51:44 3.2 C 5.36 g/m*3 3.2 C 0 km/h
91 16-02-2009 18:03:45 3.2 C 5.36 g/m*3 3.2 C 0 km/h
92 16-02-2009 18:15:44 3.3 C 5.46 g/m*3 3.3 C 0 km/h
93 16-02-2009 18:27:44 3.3 C 5.46 g/m*3 3.3 C 0 km/h
94 16-02-2009 18:39:44 3.3 C 5.46 g/m*3 3.3 C 0 km/h
95 16-02-2009 18:51:44 3.3 C 5.46 g/m*3 3.3 C 0 km/h
96 16-02-2009 19:03:44 3.4 C 5.56 g/m*3 3.4 C 0 km/h
97 16-02-2009 19:15:44 3.4 C 5.56 g/m*3 3.4 C 0 km/h
98 16-02-2009 19:27:44 3.5 C 5.6 g/m*3 3.5 C 0 km/h
99 16-02-2009 19:39:43 3.4 C 5.56 g/m*3 3.4 C 0 km/h
100 16-02-2009 19:51:44 3.4 C 5.56 g/m*3 3.4 C 0 km/h
Sensor: Nr:Datum:Temp:Abs-Feuchte:Windchill:Wind:
Aussen-T/F 101 16-02-2009 20:03:43 3.4 C 5.56 g/m*3 3.4 C 0 km/h
102 16-02-2009 20:15:43 3.6 C 5.63 g/m*3 3.6 C 0 km/h
103 16-02-2009 20:27:43 3.6 C 5.63 g/m*3 3.6 C 0 km/h
104 16-02-2009 20:39:43 3.5 C 5.6 g/m*3 3.5 C 0 km/h
105 16-02-2009 20:51:43 3.5 C 5.6 g/m*3 3.5 C 0 km/h
106 16-02-2009 21:03:43 3.5 C 5.6 g/m*3 3.5 C 0 km/h
107 16-02-2009 21:15:43 3.5 C 5.6 g/m*3 3.5 C 0 km/h
108 16-02-2009 21:27:43 3.6 C 5.63 g/m*3 3.6 C 0 km/h
109 16-02-2009 21:39:42 3.4 C 5.56 g/m*3 3.4 C 0 km/h
110 16-02-2009 21:52:59 3.5 C 5.6 g/m*3 3.5 C 0 km/h
111 16-02-2009 22:04:59 3.3 C 5.52 g/m*3 3.3 C 0 km/h
112 16-02-2009 22:16:59 3.3 C 5.58 g/m*3 3.3 C 0 km/h
113 16-02-2009 22:28:59 3.3 C 5.58 g/m*3 3.3 C 0 km/h
114 16-02-2009 22:40:59 3.4 C 5.62 g/m*3 3.4 C 0 km/h
115 16-02-2009 22:52:59 3.4 C 5.68 g/m*3 3.4 C 0 km/h
116 16-02-2009 23:04:59 3.5 C 5.72 g/m*3 3.5 C 0 km/h
117 16-02-2009 23:16:59 3.8 C 5.83 g/m*3 3.8 C 0 km/h
118 16-02-2009 23:28:59 3.9 C 5.87 g/m*3 3.9 C 0 km/h
119 16-02-2009 23:40:59 3.9 C 5.81 g/m*3 3.9 C 0 km/h
120 16-02-2009 23:52:59 4 C 5.79 g/m*3 4 C 0 km/h
121 17-02-2009 00:04:59 4 C 5.79 g/m*3 4 C 0 km/h
122 17-02-2009 00:16:59 4 C 5.79 g/m*3 4 C 0 km/h
123 17-02-2009 00:28:59 3.9 C 5.75 g/m*3 3.9 C 0 km/h
124 17-02-2009 00:40:59 3.9 C 5.81 g/m*3 3.9 C 0 km/h
125 17-02-2009 00:51:59 3.9 C 5.81 g/m*3 3.9 C 0 km/h
Sensor: Nr:Datum:Temp:Abs-Feuchte:Windchill:Wind:
Aussen-T/F 126 17-02-2009 01:04:00 3.9 C 5.81 g/m*3 3.9 C 0 km/h
127 17-02-2009 01:16:00 3.9 C 5.81 g/m*3 3.9 C 0 km/h
128 17-02-2009 01:28:00 3.9 C 5.81 g/m*3 3.9 C 0 km/h
129 17-02-2009 01:40:00 4 C 5.85 g/m*3 4 C 0 km/h
130 17-02-2009 01:52:00 3.9 C 5.87 g/m*3 3.9 C 0 km/h
131 17-02-2009 02:04:00 3.9 C 5.87 g/m*3 3.9 C 0 km/h
132 17-02-2009 02:16:00 3.9 C 5.87 g/m*3 3.9 C 0 km/h
133 17-02-2009 02:28:00 3.9 C 5.87 g/m*3 3.9 C 0 km/h
134 17-02-2009 02:40:00 3.9 C 5.87 g/m*3 3.9 C 0 km/h
135 17-02-2009 02:52:00 3.9 C 5.87 g/m*3 3.9 C 0 km/h
136 17-02-2009 03:04:00 4 C 5.91 g/m*3 4 C 0 km/h
137 17-02-2009 03:16:00 4 C 5.91 g/m*3 4 C 0 km/h
138 17-02-2009 03:28:00 4 C 5.91 g/m*3 4 C 0 km/h
139 17-02-2009 03:40:00 4 C 5.91 g/m*3 4 C 0 km/h
140 17-02-2009 03:52:00 4 C 5.91 g/m*3 4 C 0 km/h
141 17-02-2009 04:04:00 4 C 5.91 g/m*3 4 C 0 km/h
142 17-02-2009 04:16:00 4.1 C 6.02 g/m*3 4.1 C 0 km/h
143 17-02-2009 04:28:00 4.2 C 6.06 g/m*3 4.2 C 0 km/h
144 17-02-2009 04:40:00 4.2 C 6.06 g/m*3 4.2 C 0 km/h
145 17-02-2009 04:52:00 4.3 C 6.1 g/m*3 4.3 C 0 km/h
146 17-02-2009 05:04:00 4.3 C 6.1 g/m*3 4.3 C 0 km/h
147 17-02-2009 05:16:01 4.3 C 6.1 g/m*3 4.3 C 0 km/h
148 17-02-2009 05:28:01 4.4 C 6.14 g/m*3 4.4 C 0 km/h
149 17-02-2009 05:40:01 4.4 C 6.14 g/m*3 4.4 C 0 km/h
150 17-02-2009 05:52:01 4.4 C 6.14 g/m*3 4.4 C 0 km/h
Sensor: Nr:Datum:Temp:Abs-Feuchte:Windchill:Wind:
Aussen-T/F 151 17-02-2009 06:04:01 4.5 C 6.18 g/m*3 4.5 C 0 km/h
152 17-02-2009 06:16:01 4.4 C 6.14 g/m*3 4.4 C 0 km/h
153 17-02-2009 06:28:01 4.4 C 6.14 g/m*3 4.4 C 0 km/h
154 17-02-2009 06:40:01 4.4 C 6.14 g/m*3 4.4 C 0 km/h
155 17-02-2009 06:52:01 4.5 C 6.18 g/m*3 4.5 C 0 km/h
156 17-02-2009 07:04:43 4.5 C 6.18 g/m*3 4.5 C 0 km/h
157 17-02-2009 07:16:43 4.7 C 6.33 g/m*3 4.7 C 0 km/h
158 17-02-2009 07:28:43 4.7 C 6.33 g/m*3 4.7 C 0 km/h
159 17-02-2009 07:40:43 4.6 C 6.29 g/m*3 4.6 C 0 km/h
160 17-02-2009 07:52:43 4.7 C 6.33 g/m*3 4.7 C 0 km/h
161 17-02-2009 08:04:42 4.6 C 6.29 g/m*3 4.6 C 0 km/h
162 17-02-2009 08:16:43 4.6 C 6.29 g/m*3 4.6 C 0 km/h
163 17-02-2009 08:28:44 4.8 C 6.37 g/m*3 4.8 C 0 km/h
164 17-02-2009 08:40:42 5 C 6.46 g/m*3 5 C 0 km/h
165 17-02-2009 08:52:42 5.1 C 6.5 g/m*3 5.1 C 0 km/h
166 17-02-2009 09:04:42 5.3 C 6.58 g/m*3 5.3 C 0 km/h
167 17-02-2009 09:16:42 5.5 C 6.67 g/m*3 5.5 C 0 km/h
168 17-02-2009 09:28:42 5.5 C 6.67 g/m*3 5.5 C 0 km/h
169 17-02-2009 09:40:42 5.6 C 6.72 g/m*3 5.6 C 0 km/h
170 17-02-2009 09:52:42 5.6 C 6.65 g/m*3 5.6 C 0 km/h
171 17-02-2009 10:04:42 5.7 C 6.69 g/m*3 5.7 C 0 km/h
172 17-02-2009 10:16:41 5.7 C 6.69 g/m*3 5.7 C 0 km/h
173 17-02-2009 10:28:41 5.7 C 6.62 g/m*3 5.7 C 0 km/h
174 17-02-2009 10:40:41 6 C 6.68 g/m*3 6 C 0 km/h
175 17-02-2009 10:52:41 6 C 6.68 g/m*3 6 C 0 km/h
Sensor: Nr:Datum:Temp:Abs-Feuchte:Windchill:Wind:
Aussen-T/F 176 17-02-2009 11:04:41 5.9 C 6.71 g/m*3 5.9 C 0 km/h
177 17-02-2009 11:16:40 5.9 C 6.71 g/m*3 5.9 C 0 km/h
178 17-02-2009 11:28:40 6 C 6.68 g/m*3 6 C 0 km/h
179 17-02-2009 11:40:41 6 C 6.68 g/m*3 6 C 0 km/h
180 17-02-2009 11:52:41 6 C 6.68 g/m*3 6 C 0 km/h
181 17-02-2009 12:04:40 6.1 C 6.72 g/m*3 6.1 C 0 km/h
182 17-02-2009 12:16:41 6.3 C 6.88 g/m*3 6.3 C 0 km/h
183 17-02-2009 12:28:41 6.3 C 6.88 g/m*3 6.3 C 0 km/h
184 17-02-2009 12:40:40 6.3 C 6.88 g/m*3 6.3 C 0 km/h
185 17-02-2009 12:52:40 6.6 C 7.02 g/m*3 6.6 C 0 km/h
186 17-02-2009 13:04:39 6.7 C 7.07 g/m*3 6.7 C 0 km/h
187 17-02-2009 13:16:40 6.7 C 6.99 g/m*3 6.7 C 0 km/h
188 17-02-2009 13:28:40 6.5 C 6.9 g/m*3 6.5 C 0 km/h
189 17-02-2009 13:40:39 6.5 C 6.9 g/m*3 6.5 C 0 km/h
190 17-02-2009 13:52:39 6.4 C 6.71 g/m*3 6.4 C 0 km/h
191 17-02-2009 14:04:40 6.4 C 6.71 g/m*3 6.4 C 0 km/h
192 17-02-2009 14:16:39 6.5 C 6.6 g/m*3 6.5 C 0 km/h
193 17-02-2009 14:28:39 6.7 C 6.53 g/m*3 6.7 C 0 km/h
194 17-02-2009 14:40:39 6.8 C 6.35 g/m*3 6.8 C 0 km/h
195 17-02-2009 14:52:39 7 C 6.2 g/m*3 7 C 0 km/h
196 17-02-2009 15:04:39 6.9 C 6.16 g/m*3 6.9 C 0 km/h
197 17-02-2009 15:16:38 6.9 C 6.08 g/m*3 6.9 C 0 km/h
198 17-02-2009 15:28:38 7 C 5.81 g/m*3 7 C 0 km/h
199 17-02-2009 15:40:38 6.9 C 5.93 g/m*3 6.9 C 0 km/h
200 17-02-2009 15:52:38 6.8 C 5.58 g/m*3 6.8 C 0 km/h
Sensor: Nr:Datum:Temp:Abs-Feuchte:Windchill:Wind:
Aussen-T/F 201 17-02-2009 16:04:38 5.9 C 5.19 g/m*3 5.9 C 0 km/h
202 17-02-2009 16:16:38 5.5 C 5.06 g/m*3 5.5 C 0 km/h
203 17-02-2009 16:28:38 5.1 C 4.99 g/m*3 5.1 C 0 km/h
204 17-02-2009 16:40:38 4.9 C 5 g/m*3 4.9 C 0 km/h
205 17-02-2009 16:52:38 4.6 C 4.76 g/m*3 4.6 C 0 km/h
206 17-02-2009 17:04:37 4.4 C 4.7 g/m*3 4.4 C 0 km/h
207 17-02-2009 17:16:38 4 C 4.51 g/m*3 4 C 0 km/h
208 17-02-2009 17:28:38 3.7 C 4.42 g/m*3 3.7 C 0 km/h
209 17-02-2009 17:40:37 3.6 C 4.33 g/m*3 3.6 C 0 km/h
210 17-02-2009 17:52:37 3.4 C 4.15 g/m*3 3.4 C 0 km/h
211 17-02-2009 18:04:37 3.1 C 4.07 g/m*3 3.1 C 0 km/h
212 17-02-2009 18:16:37 2.9 C 4.02 g/m*3 2.9 C 0 km/h
213 17-02-2009 18:28:37 2.8 C 4.05 g/m*3 2.8 C 0 km/h
214 17-02-2009 18:40:37 2.5 C 3.97 g/m*3 2.5 C 0 km/h
215 17-02-2009 18:52:37 2.3 C 3.74 g/m*3 2.3 C 0 km/h
216 17-02-2009 19:04:37 2.1 C 3.41 g/m*3 2.1 C 0 km/h
217 17-02-2009 19:16:36 2.1 C 3.3 g/m*3 2.1 C 0 km/h
218 17-02-2009 19:28:36 1.9 C 3.09 g/m*3 1.9 C 0 km/h
219 17-02-2009 19:40:36 1.6 C 2.97 g/m*3 1.6 C 0 km/h
220 17-02-2009 19:52:36 1.1 C 2.98 g/m*3 1.1 C 0 km/h
221 17-02-2009 20:04:36 0.7 C 2.85 g/m*3 0.7 C 0 km/h
222 17-02-2009 20:16:35 0.3 C 2.67 g/m*3 0.3 C 0 km/h
223 17-02-2009 20:28:35 0 C 2.66 g/m*3 0 C 0 km/h
224 17-02-2009 20:40:36 -0.3 C 2.66 g/m*3 -0.3 C 0 km/h
225 17-02-2009 20:52:35 -0.4 C 2.54 g/m*3 -0.4 C 0 km/h
Sensor: Nr:Datum:Temp:Abs-Feuchte:Windchill:Wind:
Aussen-T/F 226 17-02-2009 21:04:36 -0.5 C 2.57 g/m*3 -0.5 C 0 km/h
227 17-02-2009 21:16:35 -0.7 C 2.45 g/m*3 -0.7 C 0 km/h
228 17-02-2009 21:28:35 -0.9 C 2.46 g/m*3 -0.9 C 0 km/h
229 17-02-2009 21:41:36 -1 C 2.44 g/m*3 -1 C 0 km/h
230 17-02-2009 21:53:36 -1.2 C 2.41 g/m*3 -1.2 C 0 km/h
231 17-02-2009 22:05:36 -1.3 C 2.39 g/m*3 -1.3 C 0 km/h
232 17-02-2009 22:17:36 -1.5 C 2.49 g/m*3 -1.5 C 0 km/h
233 17-02-2009 22:29:36 -1.7 C 2.5 g/m*3 -1.7 C 0 km/h
234 17-02-2009 22:41:36 -1.9 C 2.55 g/m*3 -1.9 C 0 km/h
235 17-02-2009 22:53:36 -2 C 2.49 g/m*3 -2 C 0 km/h
236 17-02-2009 23:05:36 -2.2 C 2.49 g/m*3 -2.2 C 0 km/h
237 17-02-2009 23:17:36 -2.3 C 2.48 g/m*3 -2.3 C 0 km/h
238 17-02-2009 23:29:36 -2.4 C 2.5 g/m*3 -2.4 C 0 km/h
239 17-02-2009 23:41:36 -2.6 C 2.51 g/m*3 -2.6 C 0 km/h
240 17-02-2009 23:53:36 -2.6 C 2.51 g/m*3 -2.6 C 0 km/h
241 18-02-2009 00:05:36 -2.8 C 2.51 g/m*3 -2.8 C 0 km/h
242 18-02-2009 00:17:36 -2.9 C 2.53 g/m*3 -2.9 C 0 km/h
243 18-02-2009 00:29:37 -2.9 C 2.57 g/m*3 -2.9 C 0 km/h
244 18-02-2009 00:41:37 -3 C 2.59 g/m*3 -3 C 0 km/h
245 18-02-2009 00:53:37 -3.2 C 2.52 g/m*3 -3.2 C 0 km/h
246 18-02-2009 01:05:37 -3.3 C 2.5 g/m*3 -3.3 C 0 km/h
247 18-02-2009 01:17:37 -3.4 C 2.48 g/m*3 -3.4 C 0 km/h
248 18-02-2009 01:29:37 -3.5 C 2.5 g/m*3 -3.5 C 0 km/h
249 18-02-2009 01:41:37 -3.5 C 2.5 g/m*3 -3.5 C 0 km/h
250 18-02-2009 01:53:37 -3.6 C 2.48 g/m*3 -3.6 C 0 km/h
Sensor: Nr:Datum:Temp:Abs-Feuchte:Windchill:Wind:
Aussen-T/F 251 18-02-2009 02:05:37 -3.7 C 2.47 g/m*3 -3.7 C 0 km/h
252 18-02-2009 02:17:37 -3.7 C 2.5 g/m*3 -3.7 C 0 km/h
253 18-02-2009 02:29:37 -3.7 C 2.54 g/m*3 -3.7 C 0 km/h
254 18-02-2009 02:41:37 -3.8 C 2.52 g/m*3 -3.8 C 0 km/h
255 18-02-2009 02:53:37 -4 C 2.49 g/m*3 -4 C 0 km/h
256 18-02-2009 03:05:37 -4 C 2.52 g/m*3 -4 C 0 km/h
257 18-02-2009 03:17:37 -4.1 C 2.51 g/m*3 -4.1 C 0 km/h
258 18-02-2009 03:29:37 -4.3 C 2.47 g/m*3 -4.3 C 0 km/h
259 18-02-2009 03:41:37 -4.3 C 2.51 g/m*3 -4.3 C 0 km/h
260 18-02-2009 03:53:37 -4.5 C 2.47 g/m*3 -4.5 C 0 km/h
261 18-02-2009 04:05:37 -4.5 C 2.47 g/m*3 -4.5 C 0 km/h
262 18-02-2009 04:17:37 -4.7 C 2.44 g/m*3 -4.7 C 0 km/h
263 18-02-2009 04:29:37 -4.8 C 2.42 g/m*3 -4.8 C 0 km/h
264 18-02-2009 04:41:38 -4.8 C 2.42 g/m*3 -4.8 C 0 km/h
265 18-02-2009 04:53:38 -4.9 C 2.4 g/m*3 -4.9 C 0 km/h
266 18-02-2009 05:05:38 -4.9 C 2.4 g/m*3 -4.9 C 0 km/h
267 18-02-2009 05:17:38 -5.1 C 2.4 g/m*3 -5.1 C 0 km/h
268 18-02-2009 05:29:38 -5 C 2.45 g/m*3 -5 C 0 km/h
269 18-02-2009 05:41:38 -5.1 C 2.43 g/m*3 -5.1 C 0 km/h
270 18-02-2009 05:53:38 -5.4 C 2.38 g/m*3 -5.4 C 0 km/h
271 18-02-2009 06:05:38 -5.5 C 2.36 g/m*3 -5.5 C 0 km/h
272 18-02-2009 06:17:38 -5.6 C 2.35 g/m*3 -5.6 C 0 km/h
273 18-02-2009 06:29:38 -5.7 C 2.36 g/m*3 -5.7 C 0 km/h
274 18-02-2009 06:41:38 -5.5 C 2.4 g/m*3 -5.5 C 0 km/h
275 18-02-2009 06:53:38 -5.5 C 2.43 g/m*3 -5.5 C 0 km/h
Sensor: Nr:Datum:Temp:Abs-Feuchte:Windchill:Wind:
Aussen-T/F 276 18-02-2009 07:05:36 -5.7 C 2.4 g/m*3 -5.7 C 0 km/h
277 18-02-2009 07:17:35 -6.1 C 2.3 g/m*3 -6.1 C 0 km/h
278 18-02-2009 07:29:36 -6.2 C 2.28 g/m*3 -6.2 C 0 km/h
279 18-02-2009 07:41:36 -5.9 C 2.36 g/m*3 -5.9 C 0 km/h
280 18-02-2009 07:53:35 -5.8 C 2.41 g/m*3 -5.8 C 0 km/h
281 18-02-2009 08:05:35 -5.7 C 2.43 g/m*3 -5.7 C 0 km/h
282 18-02-2009 08:17:35 -5.6 C 2.48 g/m*3 -5.6 C 0 km/h
283 18-02-2009 08:29:35 -5.8 C 2.44 g/m*3 -5.8 C 0 km/h
284 18-02-2009 08:41:35 -5.9 C 2.42 g/m*3 -5.9 C 0 km/h
285 18-02-2009 08:53:34 -5.7 C 2.46 g/m*3 -5.7 C 0 km/h
286 18-02-2009 09:05:35 -5.7 C 2.46 g/m*3 -5.7 C 0 km/h
287 18-02-2009 09:17:35 -5.5 C 2.53 g/m*3 -5.5 C 0 km/h
288 18-02-2009 09:29:34 -5.4 C 2.55 g/m*3 -5.4 C 0 km/h
289 18-02-2009 09:41:34 -4.9 C 2.64 g/m*3 -4.9 C 0 km/h
290 18-02-2009 09:53:35 -4.7 C 2.68 g/m*3 -4.7 C 0 km/h
291 18-02-2009 10:05:34 -4.2 C 2.78 g/m*3 -4.2 C 0 km/h
292 18-02-2009 10:17:34 -3.5 C 2.84 g/m*3 -3.5 C 0 km/h
293 18-02-2009 10:29:34 -2.4 C 2.87 g/m*3 -2.4 C 0 km/h
294 18-02-2009 10:41:34 -1.7 C 2.67 g/m*3 -1.7 C 0 km/h
295 18-02-2009 10:53:34 -1.3 C 2.52 g/m*3 -1.3 C 0 km/h
296 18-02-2009 11:05:34 -1.5 C 2.36 g/m*3 -1.5 C 0 km/h
297 18-02-2009 11:17:33 -1.3 C 2.39 g/m*3 -1.3 C 0 km/h
298 18-02-2009 11:29:33 -1 C 2.35 g/m*3 -1 C 0 km/h
299 18-02-2009 11:41:33 -0.7 C 2.12 g/m*3 -0.7 C 0 km/h
300 18-02-2009 11:53:33 -0.3 C 2.28 g/m*3 -0.3 C 0 km/h
Sensor: Nr:Datum:Temp:Abs-Feuchte:Windchill:Wind:
Aussen-T/F 301 18-02-2009 12:05:33 0 C 2.33 g/m*3 0 C 0 km/h
302 18-02-2009 12:17:32 0.2 C 2.36 g/m*3 0.2 C 0 km/h
303 18-02-2009 12:29:33 0.5 C 2.31 g/m*3 0.5 C 0 km/h
304 18-02-2009 12:41:33 0.7 C 2.29 g/m*3 0.7 C 0 km/h
305 18-02-2009 12:53:32 1.1 C 2.09 g/m*3 1.1 C 0 km/h
306 18-02-2009 13:05:32 1.9 C 2.1 g/m*3 1.9 C 0 km/h
307 18-02-2009 13:17:33 2.3 C 2.04 g/m*3 2.3 C 0 km/h
308 18-02-2009 13:29:32 2.7 C 2.04 g/m*3 2.7 C 0 km/h
309 18-02-2009 13:41:32 2.8 C 1.82 g/m*3 2.8 C 0 km/h
310 18-02-2009 13:53:32 3.6 C 1.55 g/m*3 3.6 C 0 km/h
311 18-02-2009 14:05:32 3.6 C 1.55 g/m*3 3.6 C 0 km/h
312 18-02-2009 14:17:32 4.4 C 1.31 g/m*3 4.4 C 0 km/h
313 18-02-2009 14:29:31 4.8 C 1.34 g/m*3 4.8 C 0 km/h
314 18-02-2009 14:41:31 5.5 C 1.4 g/m*3 5.5 C 0 km/h
315 18-02-2009 14:53:32 5.7 C 1.42 g/m*3 5.7 C 0 km/h
316 18-02-2009 15:05:31 5.9 C 1.44 g/m*3 5.9 C 0 km/h
317 18-02-2009 15:17:31 5.5 C 1.4 g/m*3 5.5 C 0 km/h
318 18-02-2009 15:29:31 5.7 C 1.42 g/m*3 5.7 C 0 km/h
319 18-02-2009 15:41:31 6 C 1.45 g/m*3 6 C 0 km/h
320 18-02-2009 15:53:31 6 C 1.45 g/m*3 6 C 0 km/h
321 18-02-2009 16:05:31 6.7 C 1.52 g/m*3 6.7 C 0 km/h
322 18-02-2009 16:17:30 6.9 C 1.54 g/m*3 6.9 C 0 km/h
323 18-02-2009 16:29:31 5.1 C 1.37 g/m*3 5.1 C 0 km/h
324 18-02-2009 16:41:31 5.5 C 1.4 g/m*3 5.5 C 0 km/h
325 18-02-2009 16:53:30 5.7 C 1.42 g/m*3 5.7 C 0 km/h
Sensor: Nr:Datum:Temp:Abs-Feuchte:Windchill:Wind:
Aussen-T/F 326 18-02-2009 17:05:30 5.4 C 1.4 g/m*3 5.4 C 0 km/h
327 18-02-2009 17:17:30 4.7 C 1.67 g/m*3 4.7 C 0 km/h
328 18-02-2009 17:29:30 3.2 C 1.81 g/m*3 3.2 C 0 km/h
329 18-02-2009 17:41:30 1.9 C 2.04 g/m*3 1.9 C 0 km/h
330 18-02-2009 17:53:30 1 C 2.13 g/m*3 1 C 0 km/h
331 18-02-2009 18:05:29 0.4 C 2.14 g/m*3 0.4 C 0 km/h
332 18-02-2009 18:17:29 -0.1 C 2.21 g/m*3 -0.1 C 0 km/h
333 18-02-2009 18:29:30 -0.4 C 2.26 g/m*3 -0.4 C 0 km/h
334 18-02-2009 18:41:30 -0.6 C 2.28 g/m*3 -0.6 C 0 km/h
335 18-02-2009 18:53:29 -0.9 C 2.37 g/m*3 -0.9 C 0 km/h
336 18-02-2009 19:05:29 -1 C 2.26 g/m*3 -1 C 0 km/h
337 18-02-2009 19:17:29 -1.2 C 2.27 g/m*3 -1.2 C 0 km/h
338 18-02-2009 19:29:29 -1.3 C 2.26 g/m*3 -1.3 C 0 km/h
339 18-02-2009 19:41:29 -1.4 C 2.33 g/m*3 -1.4 C 0 km/h
340 18-02-2009 19:53:28 -1.6 C 2.3 g/m*3 -1.6 C 0 km/h
341 18-02-2009 20:05:29 -1.7 C 2.32 g/m*3 -1.7 C 0 km/h
342 18-02-2009 20:17:28 -1.8 C 2.35 g/m*3 -1.8 C 0 km/h
343 18-02-2009 20:29:28 -1.9 C 2.33 g/m*3 -1.9 C 0 km/h
344 18-02-2009 20:41:28 -2 C 2.32 g/m*3 -2 C 0 km/h
345 18-02-2009 20:53:28 -2.1 C 2.22 g/m*3 -2.1 C 0 km/h
346 18-02-2009 21:05:28 -2.2 C 2.29 g/m*3 -2.2 C 0 km/h
347 18-02-2009 21:17:28 -2.3 C 2.27 g/m*3 -2.3 C 0 km/h
348 18-02-2009 21:29:27 -2.3 C 2.23 g/m*3 -2.3 C 0 km/h
349 18-02-2009 21:41:27 -2.4 C 2.17 g/m*3 -2.4 C 0 km/h
350 18-02-2009 21:53:28 -2.6 C 2.3 g/m*3 -2.6 C 0 km/h
Sensor: Nr:Datum:Temp:Abs-Feuchte:Windchill:Wind:
Aussen-T/F 351 18-02-2009 22:06:27 -2.7 C 2.33 g/m*3 -2.7 C 0 km/h
352 18-02-2009 22:18:27 -2.9 C 2.33 g/m*3 -2.9 C 0 km/h
353 18-02-2009 22:30:27 -2.9 C 2.37 g/m*3 -2.9 C 0 km/h
354 18-02-2009 22:42:27 -2.9 C 2.41 g/m*3 -2.9 C 0 km/h
355 18-02-2009 22:54:27 -3.1 C 2.38 g/m*3 -3.1 C 0 km/h
356 18-02-2009 23:06:27 -3.3 C 2.35 g/m*3 -3.3 C 0 km/h
357 18-02-2009 23:18:27 -3.2 C 2.4 g/m*3 -3.2 C 0 km/h
358 18-02-2009 23:30:27 -2.9 C 2.45 g/m*3 -2.9 C 0 km/h
359 18-02-2009 23:42:28 -2.7 C 2.45 g/m*3 -2.7 C 0 km/h
360 18-02-2009 23:54:28 -2.5 C 2.48 g/m*3 -2.5 C 0 km/h
361 19-02-2009 00:06:28 -2.5 C 2.56 g/m*3 -2.5 C 0 km/h
362 19-02-2009 00:18:28 -2.4 C 2.58 g/m*3 -2.4 C 0 km/h
363 19-02-2009 00:30:28 -2.3 C 2.6 g/m*3 -2.3 C 0 km/h
364 19-02-2009 00:42:28 -2.3 C 2.56 g/m*3 -2.3 C 0 km/h
365 19-02-2009 00:54:28 -2.2 C 2.58 g/m*3 -2.2 C 0 km/h
366 19-02-2009 01:06:28 -2.1 C 2.6 g/m*3 -2.1 C 0 km/h
367 19-02-2009 01:18:28 -2.1 C 2.6 g/m*3 -2.1 C 0 km/h
368 19-02-2009 01:30:28 -2.1 C 2.55 g/m*3 -2.1 C 0 km/h
369 19-02-2009 01:42:28 -2.1 C 2.55 g/m*3 -2.1 C 0 km/h
370 19-02-2009 01:54:28 -2.3 C 2.52 g/m*3 -2.3 C 0 km/h
371 19-02-2009 02:06:28 -2.1 C 2.6 g/m*3 -2.1 C 0 km/h
372 19-02-2009 02:18:28 -2 C 2.57 g/m*3 -2 C 0 km/h
373 19-02-2009 02:30:28 -2 C 2.57 g/m*3 -2 C 0 km/h
374 19-02-2009 02:42:28 -2 C 2.57 g/m*3 -2 C 0 km/h
375 19-02-2009 02:54:28 -2.1 C 2.55 g/m*3 -2.1 C 0 km/h
Sensor: Nr:Datum:Temp:Abs-Feuchte:Windchill:Wind:
Aussen-T/F 376 19-02-2009 03:06:28 -2.2 C 2.58 g/m*3 -2.2 C 0 km/h
377 19-02-2009 03:18:28 -2.3 C 2.56 g/m*3 -2.3 C 0 km/h
378 19-02-2009 03:30:29 -2.3 C 2.6 g/m*3 -2.3 C 0 km/h
379 19-02-2009 03:42:29 -2.1 C 2.64 g/m*3 -2.1 C 0 km/h
380 19-02-2009 03:54:29 -2.1 C 2.64 g/m*3 -2.1 C 0 km/h
381 19-02-2009 04:06:29 -2.1 C 2.64 g/m*3 -2.1 C 0 km/h
382 19-02-2009 04:18:29 -2.2 C 2.58 g/m*3 -2.2 C 0 km/h
383 19-02-2009 04:30:29 -2.1 C 2.64 g/m*3 -2.1 C 0 km/h
384 19-02-2009 04:42:29 -2.1 C 2.64 g/m*3 -2.1 C 0 km/h
385 19-02-2009 04:54:29 -2.1 C 2.64 g/m*3 -2.1 C 0 km/h
386 19-02-2009 05:06:29 -2.1 C 2.64 g/m*3 -2.1 C 0 km/h
387 19-02-2009 05:18:29 -2.1 C 2.64 g/m*3 -2.1 C 0 km/h
388 19-02-2009 05:30:27 -2.2 C 2.62 g/m*3 -2.2 C 0 km/h
389 19-02-2009 05:42:27 -2.3 C 2.6 g/m*3 -2.3 C 0 km/h
390 19-02-2009 05:54:27 -2.3 C 2.64 g/m*3 -2.3 C 0 km/h
391 19-02-2009 06:06:27 -2.3 C 2.64 g/m*3 -2.3 C 0 km/h
392 19-02-2009 06:18:27 -2.3 C 2.64 g/m*3 -2.3 C 0 km/h
393 19-02-2009 06:30:27 -2.2 C 2.66 g/m*3 -2.2 C 0 km/h
394 19-02-2009 06:42:27 -2.2 C 2.66 g/m*3 -2.2 C 0 km/h
395 19-02-2009 06:54:27 -2.1 C 2.64 g/m*3 -2.1 C 0 km/h
396 19-02-2009 07:06:27 -2.1 C 2.55 g/m*3 -2.1 C 0 km/h
397 19-02-2009 07:18:02 -2 C 2.57 g/m*3 -2 C 0 km/h
398 19-02-2009 07:30:02 -2 C 2.53 g/m*3 -2 C 0 km/h
399 19-02-2009 07:42:02 -2 C 2.57 g/m*3 -2 C 0 km/h
400 19-02-2009 07:54:01 -2 C 2.61 g/m*3 -2 C 0 km/h
Sensor: Nr:Datum:Temp:Abs-Feuchte:Windchill:Wind:
Aussen-T/F 401 19-02-2009 08:06:01 -1.9 C 2.63 g/m*3 -1.9 C 0 km/h
402 19-02-2009 08:18:02 -1.9 C 2.63 g/m*3 -1.9 C 0 km/h
403 19-02-2009 08:30:02 -1.6 C 2.69 g/m*3 -1.6 C 0 km/h
404 19-02-2009 08:42:01 -1.3 C 2.7 g/m*3 -1.3 C 0 km/h
405 19-02-2009 08:54:01 -1 C 2.71 g/m*3 -1 C 0 km/h
406 19-02-2009 09:06:01 -0.8 C 2.61 g/m*3 -0.8 C 0 km/h
407 19-02-2009 09:18:01 -0.9 C 2.55 g/m*3 -0.9 C 0 km/h
408 19-02-2009 09:30:01 -0.7 C 2.58 g/m*3 -0.7 C 0 km/h
409 19-02-2009 09:42:00 -0.7 C 2.54 g/m*3 -0.7 C 0 km/h
410 19-02-2009 09:54:01 -0.6 C 2.56 g/m*3 -0.6 C 0 km/h
411 19-02-2009 10:06:01 -0.4 C 2.59 g/m*3 -0.4 C 0 km/h
412 19-02-2009 10:18:00 -0.1 C 2.55 g/m*3 -0.1 C 0 km/h
413 19-02-2009 10:30:00 0.1 C 2.54 g/m*3 0.1 C 0 km/h
414 19-02-2009 10:42:00 0.5 C 2.56 g/m*3 0.5 C 0 km/h
415 19-02-2009 10:54:00 0.5 C 2.46 g/m*3 0.5 C 0 km/h
416 19-02-2009 11:06:00 0.8 C 2.51 g/m*3 0.8 C 0 km/h
417 19-02-2009 11:18:59 1 C 2.44 g/m*3 1 C 0 km/h
418 19-02-2009 11:29:59 0.9 C 2.47 g/m*3 0.9 C 0 km/h
419 19-02-2009 11:41:59 1 C 2.44 g/m*3 1 C 0 km/h
420 19-02-2009 11:54:59 1.1 C 2.4 g/m*3 1.1 C 0 km/h
421 19-02-2009 12:06:59 1.2 C 2.42 g/m*3 1.2 C 0 km/h
422 19-02-2009 12:29:59 1.6 C 2.38 g/m*3 1.6 C 0 km/h
423 19-02-2009 12:30:59 2 C 2.22 g/m*3 2 C 0 km/h
424 19-02-2009 12:42:59 2.4 C 2.11 g/m*3 2.4 C 0 km/h
425 19-02-2009 12:54:59 3 C 1.96 g/m*3 3 C 0 km/h
Sensor: Nr:Datum:Temp:Abs-Feuchte:Windchill:Wind:
Aussen-T/F 426 19-02-2009 13:06:58 3.5 C 1.91 g/m*3 3.5 C 0 km/h
427 19-02-2009 13:18:59 3.9 C 1.96 g/m*3 3.9 C 0 km/h
428 19-02-2009 13:30:58 4.5 C 1.84 g/m*3 4.5 C 0 km/h
429 19-02-2009 13:42:58 4.2 C 1.8 g/m*3 4.2 C 0 km/h
430 19-02-2009 13:54:58 4.3 C 1.82 g/m*3 4.3 C 0 km/h
431 19-02-2009 14:06:59 4.9 C 1.82 g/m*3 4.9 C 0 km/h
432 19-02-2009 14:18:58 5.7 C 1.78 g/m*3 5.7 C 0 km/h
433 19-02-2009 14:30:58 5.8 C 1.43 g/m*3 5.8 C 0 km/h
434 19-02-2009 14:42:58 6.5 C 1.5 g/m*3 6.5 C 0 km/h
435 19-02-2009 14:54:58 6.8 C 1.53 g/m*3 6.8 C 0 km/h
436 19-02-2009 15:06:58 7.1 C 1.56 g/m*3 7.1 C 0 km/h
437 19-02-2009 15:18:57 6.6 C 1.51 g/m*3 6.6 C 0 km/h
438 19-02-2009 15:30:57 6.3 C 1.48 g/m*3 6.3 C 0 km/h
439 19-02-2009 15:42:57 6.7 C 1.52 g/m*3 6.7 C 0 km/h
440 19-02-2009 15:54:57 7.1 C 1.56 g/m*3 7.1 C 0 km/h
441 19-02-2009 16:06:57 7.1 C 1.56 g/m*3 7.1 C 0 km/h
442 19-02-2009 16:18:57 7.4 C 1.59 g/m*3 7.4 C 0 km/h
443 19-02-2009 16:30:54 7 C 1.55 g/m*3 7 C 0 km/h
444 19-02-2009 16:42:54 6.5 C 1.72 g/m*3 6.5 C 0 km/h
445 19-02-2009 16:54:57 5.8 C 1.79 g/m*3 5.8 C 0 km/h
446 19-02-2009 17:06:02 5.4 C 2.09 g/m*3 5.4 C 0 km/h
447 19-02-2009 17:18:02 4.8 C 2.08 g/m*3 4.8 C 0 km/h
448 19-02-2009 17:30:02 4.4 C 2.15 g/m*3 4.4 C 0 km/h
449 19-02-2009 17:42:02 4 C 2.29 g/m*3 4 C 0 km/h
450 19-02-2009 17:54:02 3.7 C 2.43 g/m*3 3.7 C 0 km/h
Sensor: Nr:Datum:Temp:Abs-Feuchte:Windchill:Wind:
Aussen-T/F 451 19-02-2009 18:06:02 3.5 C 2.46 g/m*3 3.5 C 0 km/h
452 19-02-2009 18:18:02 3.4 C 2.5 g/m*3 3.4 C 0 km/h
453 19-02-2009 18:30:02 3.3 C 2.43 g/m*3 3.3 C 0 km/h
454 19-02-2009 18:42:01 3.2 C 2.47 g/m*3 3.2 C 0 km/h
455 19-02-2009 18:54:01 3.1 C 2.45 g/m*3 3.1 C 0 km/h
456 19-02-2009 19:06:01 2.9 C 2.48 g/m*3 2.9 C 0 km/h
457 19-02-2009 19:18:01 2.9 C 2.6 g/m*3 2.9 C 0 km/h
458 19-02-2009 19:30:01 3 C 2.5 g/m*3 3 C 0 km/h
459 19-02-2009 19:42:01 2.9 C 2.6 g/m*3 2.9 C 0 km/h
460 19-02-2009 19:54:00 2.8 C 2.64 g/m*3 2.8 C 0 km/h
461 19-02-2009 20:06:01 2.7 C 2.68 g/m*3 2.7 C 0 km/h
462 19-02-2009 20:18:01 2.9 C 2.66 g/m*3 2.9 C 0 km/h
463 19-02-2009 20:30:01 2.5 C 2.99 g/m*3 2.5 C 0 km/h
464 19-02-2009 20:42:00 2 C 3.39 g/m*3 2 C 0 km/h
465 19-02-2009 20:54:01 1.9 C 3.59 g/m*3 1.9 C 0 km/h
466 19-02-2009 21:06:00 1.8 C 3.73 g/m*3 1.8 C 0 km/h
467 19-02-2009 21:18:00 1.7 C 3.81 g/m*3 1.7 C 0 km/h
468 19-02-2009 21:30:00 1.6 C 3.89 g/m*3 1.6 C 0 km/h
469 19-02-2009 21:42:00 1.5 C 3.97 g/m*3 1.5 C 0 km/h
470 19-02-2009 21:54:00 1.3 C 3.97 g/m*3 1.3 C 0 km/h
471 19-02-2009 22:06:59 1.3 C 4.03 g/m*3 1.3 C 0 km/h
472 19-02-2009 22:29:59 1.3 C 4.08 g/m*3 1.3 C 0 km/h
473 19-02-2009 22:30:59 1.3 C 4.13 g/m*3 1.3 C 0 km/h
474 19-02-2009 22:42:59 1.3 C 4.13 g/m*3 1.3 C 0 km/h
475 19-02-2009 22:54:59 1.3 C 4.13 g/m*3 1.3 C 0 km/h
Sensor: Nr:Datum:Temp:Abs-Feuchte:Windchill:Wind:
Aussen-T/F 476 19-02-2009 23:06:58 1.2 C 4.1 g/m*3 1.2 C 0 km/h
477 19-02-2009 23:18:59 1.3 C 4.13 g/m*3 1.3 C 0 km/h
478 19-02-2009 23:30:59 1.3 C 4.13 g/m*3 1.3 C 0 km/h
479 19-02-2009 23:42:59 1.3 C 4.08 g/m*3 1.3 C 0 km/h
480 19-02-2009 23:54:58 1.4 C 4.05 g/m*3 1.4 C 0 km/h
481 20-02-2009 00:06:59 1.6 C 4.11 g/m*3 1.6 C 0 km/h
482 20-02-2009 00:18:59 1.6 C 4 g/m*3 1.6 C 0 km/h
483 20-02-2009 00:30:58 1.6 C 4 g/m*3 1.6 C 0 km/h
484 20-02-2009 00:42:58 1.6 C 4 g/m*3 1.6 C 0 km/h
485 20-02-2009 00:54:58 1.7 C 4.03 g/m*3 1.7 C 0 km/h
486 20-02-2009 01:06:58 1.7 C 4.03 g/m*3 1.7 C 0 km/h
487 20-02-2009 01:18:58 1.7 C 4.03 g/m*3 1.7 C 0 km/h
488 20-02-2009 01:30:57 1.7 C 4.03 g/m*3 1.7 C 0 km/h
489 20-02-2009 01:42:57 1.6 C 4.11 g/m*3 1.6 C 0 km/h
490 20-02-2009 01:54:57 1.5 C 4.14 g/m*3 1.5 C 0 km/h
491 20-02-2009 02:06:57 1.5 C 4.19 g/m*3 1.5 C 0 km/h
492 20-02-2009 02:18:57 1.5 C 4.24 g/m*3 1.5 C 0 km/h
493 20-02-2009 02:30:57 1.5 C 4.35 g/m*3 1.5 C 0 km/h
494 20-02-2009 02:42:57 1.5 C 4.3 g/m*3 1.5 C 0 km/h
495 20-02-2009 02:55:01 1.6 C 4.27 g/m*3 1.6 C 0 km/h
496 20-02-2009 03:07:01 1.7 C 4.25 g/m*3 1.7 C 0 km/h
497 20-02-2009 03:19:01 1.8 C 4.28 g/m*3 1.8 C 0 km/h
498 20-02-2009 03:31:01 1.7 C 4.19 g/m*3 1.7 C 0 km/h
499 20-02-2009 03:43:01 1.7 C 4.19 g/m*3 1.7 C 0 km/h
500 20-02-2009 03:55:02 1.8 C 4.28 g/m*3 1.8 C 0 km/h
Sensor: Nr:Datum:Temp:Abs-Feuchte:Windchill:Wind:
Aussen-T/F 501 20-02-2009 04:07:01 1.7 C 4.25 g/m*3 1.7 C 0 km/h
502 20-02-2009 04:19:01 1.7 C 4.25 g/m*3 1.7 C 0 km/h
503 20-02-2009 04:31:02 1.8 C 4.28 g/m*3 1.8 C 0 km/h
504 20-02-2009 04:43:02 1.9 C 4.3 g/m*3 1.9 C 0 km/h
505 20-02-2009 04:55:02 1.9 C 4.25 g/m*3 1.9 C 0 km/h
506 20-02-2009 05:07:01 1.9 C 4.25 g/m*3 1.9 C 0 km/h
507 20-02-2009 05:19:01 1.9 C 4.19 g/m*3 1.9 C 0 km/h
508 20-02-2009 05:31:02 2 C 4.17 g/m*3 2 C 0 km/h
509 20-02-2009 05:43:02 2 C 4.17 g/m*3 2 C 0 km/h
510 20-02-2009 05:55:01 2.1 C 4.2 g/m*3 2.1 C 0 km/h
511 20-02-2009 06:07:01 2.1 C 4.2 g/m*3 2.1 C 0 km/h
512 20-02-2009 06:19:02 2.1 C 4.25 g/m*3 2.1 C 0 km/h
513 20-02-2009 06:31:01 2.1 C 4.25 g/m*3 2.1 C 0 km/h
514 20-02-2009 06:43:01 2 C 4.28 g/m*3 2 C 0 km/h
515 20-02-2009 06:55:02 1.8 C 4.49 g/m*3 1.8 C 0 km/h
516 20-02-2009 07:07:01 1.8 C 4.6 g/m*3 1.8 C 0 km/h
517 20-02-2009 07:19:02 1.8 C 4.66 g/m*3 1.8 C 0 km/h
518 20-02-2009 07:31:01 1.8 C 4.71 g/m*3 1.8 C 0 km/h
519 20-02-2009 07:43:01 1.8 C 4.71 g/m*3 1.8 C 0 km/h
520 20-02-2009 07:55:02 1.9 C 4.75 g/m*3 1.9 C 0 km/h
521 20-02-2009 08:07:01 1.9 C 4.75 g/m*3 1.9 C 0 km/h
522 20-02-2009 08:19:01 2 C 4.67 g/m*3 2 C 0 km/h
523 20-02-2009 08:31:02 2.3 C 4.71 g/m*3 2.3 C 0 km/h
524 20-02-2009 08:43:02 2.4 C 4.68 g/m*3 2.4 C 0 km/h
525 20-02-2009 08:55:01 2.4 C 4.68 g/m*3 2.4 C 0 km/h
Sensor: Nr:Datum:Temp:Abs-Feuchte:Windchill:Wind:
Aussen-T/F 526 20-02-2009 09:07:02 2.3 C 4.71 g/m*3 2.3 C 0 km/h
527 20-02-2009 09:19:01 2.3 C 4.76 g/m*3 2.3 C 0 km/h
528 20-02-2009 09:31:02 2.4 C 4.85 g/m*3 2.4 C 0 km/h
529 20-02-2009 09:43:02 2.5 C 4.94 g/m*3 2.5 C 0 km/h
530 20-02-2009 09:55:01 2.8 C 4.99 g/m*3 2.8 C 0 km/h
531 20-02-2009 10:07:02 2.8 C 4.93 g/m*3 2.8 C 0 km/h
532 20-02-2009 10:19:01 3 C 4.93 g/m*3 3 C 0 km/h
533 20-02-2009 10:31:01 3.2 C 4.94 g/m*3 3.2 C 0 km/h
534 20-02-2009 10:43:01 3.2 C 4.88 g/m*3 3.2 C 0 km/h
535 20-02-2009 10:55:01 3.3 C 4.91 g/m*3 3.3 C 0 km/h
536 20-02-2009 11:07:01 3.4 C 4.89 g/m*3 3.4 C 0 km/h
537 20-02-2009 11:19:02 3.5 C 4.92 g/m*3 3.5 C 0 km/h
538 20-02-2009 11:31:01 3.5 C 4.98 g/m*3 3.5 C 0 km/h
539 20-02-2009 11:43:01 3.4 C 5.01 g/m*3 3.4 C 0 km/h
540 20-02-2009 11:55:02 3.4 C 5.07 g/m*3 3.4 C 0 km/h
541 20-02-2009 12:07:01 3.3 C 5.04 g/m*3 3.3 C 0 km/h
542 20-02-2009 12:19:02 3.3 C 5.1 g/m*3 3.3 C 0 km/h
543 20-02-2009 12:31:01 3.5 C 5.29 g/m*3 3.5 C 0 km/h
544 20-02-2009 12:43:01 3.7 C 5.36 g/m*3 3.7 C 0 km/h
545 20-02-2009 12:55:02 3.8 C 5.4 g/m*3 3.8 C 0 km/h
546 20-02-2009 13:07:01 4.1 C 5.44 g/m*3 4.1 C 0 km/h
547 20-02-2009 13:19:01 4.4 C 5.48 g/m*3 4.4 C 0 km/h
548 20-02-2009 13:31:02 4.5 C 5.46 g/m*3 4.5 C 0 km/h
549 20-02-2009 13:43:02 4.7 C 5.53 g/m*3 4.7 C 0 km/h
550 20-02-2009 13:55:01 4.9 C 5.54 g/m*3 4.9 C 0 km/h
Sensor: Nr:Datum:Temp:Abs-Feuchte:Windchill:Wind:
Aussen-T/F 551 20-02-2009 14:07:02 5.2 C 5.51 g/m*3 5.2 C 0 km/h
552 20-02-2009 14:19:01 5.4 C 5.37 g/m*3 5.4 C 0 km/h
553 20-02-2009 14:31:02 5.5 C 5.34 g/m*3 5.5 C 0 km/h
554 20-02-2009 14:43:02 5.7 C 5.27 g/m*3 5.7 C 0 km/h
555 20-02-2009 14:55:01 5.7 C 5.19 g/m*3 5.7 C 0 km/h
556 20-02-2009 15:07:02 5.8 C 5.23 g/m*3 5.8 C 0 km/h
557 20-02-2009 15:19:01 5.7 C 5.12 g/m*3 5.7 C 0 km/h
558 20-02-2009 15:31:01 5.5 C 4.99 g/m*3 5.5 C 0 km/h
559 20-02-2009 15:43:01 5.4 C 5.09 g/m*3 5.4 C 0 km/h
560 20-02-2009 15:55:01 5.5 C 5.13 g/m*3 5.5 C 0 km/h
561 20-02-2009 16:07:01 5.6 C 5.3 g/m*3 5.6 C 0 km/h
562 20-02-2009 16:19:01 5.6 C 5.3 g/m*3 5.6 C 0 km/h
563 20-02-2009 16:31:01 5.4 C 5.23 g/m*3 5.4 C 0 km/h
564 20-02-2009 16:43:01 5.3 C 5.34 g/m*3 5.3 C 0 km/h
565 20-02-2009 16:55:01 5.1 C 5.4 g/m*3 5.1 C 0 km/h
566 20-02-2009 17:07:01 5 C 5.5 g/m*3 5 C 0 km/h
567 20-02-2009 17:19:01 4.9 C 5.67 g/m*3 4.9 C 0 km/h
568 20-02-2009 17:31:01 4.8 C 5.77 g/m*3 4.8 C 0 km/h
569 20-02-2009 17:43:01 4.7 C 5.8 g/m*3 4.7 C 0 km/h
570 20-02-2009 17:55:01 4.7 C 5.86 g/m*3 4.7 C 0 km/h
571 20-02-2009 18:07:01 4.6 C 5.76 g/m*3 4.6 C 0 km/h
572 20-02-2009 18:19:02 4.6 C 5.76 g/m*3 4.6 C 0 km/h
573 20-02-2009 18:31:01 4.6 C 5.76 g/m*3 4.6 C 0 km/h
574 20-02-2009 18:43:01 4.7 C 5.8 g/m*3 4.7 C 0 km/h
575 20-02-2009 18:55:02 4.6 C 5.82 g/m*3 4.6 C 0 km/h
Sensor: Nr:Datum:Temp:Abs-Feuchte:Windchill:Wind:
Aussen-T/F 576 20-02-2009 19:07:01 4.6 C 5.82 g/m*3 4.6 C 0 km/h
577 20-02-2009 19:19:02 4.5 C 5.85 g/m*3 4.5 C 0 km/h
578 20-02-2009 19:31:01 4.5 C 5.85 g/m*3 4.5 C 0 km/h
579 20-02-2009 19:43:01 4.6 C 5.96 g/m*3 4.6 C 0 km/h
580 20-02-2009 19:54:01 4.5 C 5.92 g/m*3 4.5 C 0 km/h
581 20-02-2009 20:06:02 4.5 C 5.92 g/m*3 4.5 C 0 km/h
582 20-02-2009 20:18:01 4.6 C 6.02 g/m*3 4.6 C 0 km/h
583 20-02-2009 20:30:01 4.6 C 6.02 g/m*3 4.6 C 0 km/h
584 20-02-2009 20:42:02 4.6 C 6.02 g/m*3 4.6 C 0 km/h
585 20-02-2009 20:54:01 4.6 C 6.02 g/m*3 4.6 C 0 km/h
586 20-02-2009 21:06:01 4.7 C 6.06 g/m*3 4.7 C 0 km/h
587 20-02-2009 21:18:01 4.8 C 6.04 g/m*3 4.8 C 0 km/h
588 20-02-2009 21:30:01 4.8 C 6.04 g/m*3 4.8 C 0 km/h
589 20-02-2009 21:42:01 4.8 C 5.97 g/m*3 4.8 C 0 km/h
590 20-02-2009 21:54:01 4.7 C 5.86 g/m*3 4.7 C 0 km/h
591 20-02-2009 22:06:01 4.6 C 5.82 g/m*3 4.6 C 0 km/h
592 20-02-2009 22:19:03 4.6 C 5.82 g/m*3 4.6 C 0 km/h
593 20-02-2009 22:31:03 4.5 C 5.78 g/m*3 4.5 C 0 km/h
594 20-02-2009 22:43:03 4.5 C 5.78 g/m*3 4.5 C 0 km/h
595 20-02-2009 22:55:03 4.5 C 5.78 g/m*3 4.5 C 0 km/h
596 20-02-2009 23:07:03 4.4 C 5.75 g/m*3 4.4 C 0 km/h
597 20-02-2009 23:19:03 4.4 C 5.75 g/m*3 4.4 C 0 km/h
598 20-02-2009 23:31:03 4.3 C 5.71 g/m*3 4.3 C 0 km/h
599 20-02-2009 23:43:03 4.3 C 5.71 g/m*3 4.3 C 0 km/h
600 20-02-2009 23:55:03 4.3 C 5.71 g/m*3 4.3 C 0 km/h
Sensor: Nr:Datum:Temp:Abs-Feuchte:Windchill:Wind:
Aussen-T/F 601 21-02-2009 00:07:03 4.2 C 5.67 g/m*3 4.2 C 0 km/h
602 21-02-2009 00:19:03 4.2 C 5.61 g/m*3 4.2 C 0 km/h
603 21-02-2009 00:31:03 4.1 C 5.57 g/m*3 4.1 C 0 km/h
604 21-02-2009 00:43:03 4.1 C 5.5 g/m*3 4.1 C 0 km/h
605 21-02-2009 00:55:03 4.1 C 5.44 g/m*3 4.1 C 0 km/h
606 21-02-2009 01:07:03 4 C 5.4 g/m*3 4 C 0 km/h
607 21-02-2009 01:19:03 4 C 5.4 g/m*3 4 C 0 km/h
608 21-02-2009 01:31:03 4 C 5.34 g/m*3 4 C 0 km/h
609 21-02-2009 01:43:04 4 C 5.34 g/m*3 4 C 0 km/h
610 21-02-2009 01:55:04 4 C 5.34 g/m*3 4 C 0 km/h
611 21-02-2009 02:07:04 4 C 5.28 g/m*3 4 C 0 km/h
612 21-02-2009 02:19:04 4 C 5.28 g/m*3 4 C 0 km/h
613 21-02-2009 02:31:04 4 C 5.28 g/m*3 4 C 0 km/h
614 21-02-2009 02:43:04 3.9 C 5.31 g/m*3 3.9 C 0 km/h
615 21-02-2009 02:55:04 3.9 C 5.31 g/m*3 3.9 C 0 km/h
616 21-02-2009 03:07:04 3.9 C 5.31 g/m*3 3.9 C 0 km/h
617 21-02-2009 03:19:04 3.8 C 5.27 g/m*3 3.8 C 0 km/h
618 21-02-2009 03:31:04 3.8 C 5.27 g/m*3 3.8 C 0 km/h
619 21-02-2009 03:43:04 3.8 C 5.27 g/m*3 3.8 C 0 km/h
620 21-02-2009 03:55:04 3.8 C 5.27 g/m*3 3.8 C 0 km/h
621 21-02-2009 04:07:04 3.8 C 5.27 g/m*3 3.8 C 0 km/h
622 21-02-2009 04:19:04 3.8 C 5.27 g/m*3 3.8 C 0 km/h
623 21-02-2009 04:31:04 3.7 C 5.23 g/m*3 3.7 C 0 km/h
624 21-02-2009 04:43:04 3.7 C 5.23 g/m*3 3.7 C 0 km/h
625 21-02-2009 04:55:04 3.7 C 5.3 g/m*3 3.7 C 0 km/h
Sensor: Nr:Datum:Temp:Abs-Feuchte:Windchill:Wind:
Aussen-T/F 626 21-02-2009 05:07:04 3.6 C 5.26 g/m*3 3.6 C 0 km/h
627 21-02-2009 05:19:04 3.6 C 5.26 g/m*3 3.6 C 0 km/h
628 21-02-2009 05:31:04 3.7 C 5.36 g/m*3 3.7 C 0 km/h
629 21-02-2009 05:43:05 3.8 C 5.4 g/m*3 3.8 C 0 km/h
630 21-02-2009 05:55:05 3.7 C 5.36 g/m*3 3.7 C 0 km/h
631 21-02-2009 06:07:05 3.7 C 5.36 g/m*3 3.7 C 0 km/h
632 21-02-2009 06:19:05 3.7 C 5.42 g/m*3 3.7 C 0 km/h
633 21-02-2009 06:31:05 3.8 C 5.46 g/m*3 3.8 C 0 km/h
634 21-02-2009 06:43:05 3.8 C 5.46 g/m*3 3.8 C 0 km/h
635 21-02-2009 06:55:05 3.8 C 5.46 g/m*3 3.8 C 0 km/h
636 21-02-2009 07:07:05 3.8 C 5.52 g/m*3 3.8 C 0 km/h
637 21-02-2009 07:19:05 3.7 C 5.48 g/m*3 3.7 C 0 km/h
638 21-02-2009 07:31:05 3.7 C 5.48 g/m*3 3.7 C 0 km/h
639 21-02-2009 07:43:05 3.7 C 5.48 g/m*3 3.7 C 0 km/h
640 21-02-2009 07:55:05 3.6 C 5.45 g/m*3 3.6 C 0 km/h
641 21-02-2009 08:07:03 3.6 C 5.45 g/m*3 3.6 C 0 km/h
642 21-02-2009 08:19:03 3.6 C 5.45 g/m*3 3.6 C 0 km/h
643 21-02-2009 08:31:02 3.6 C 5.45 g/m*3 3.6 C 0 km/h
644 21-02-2009 08:43:02 3.8 C 5.52 g/m*3 3.8 C 0 km/h
645 21-02-2009 08:55:03 3.9 C 5.56 g/m*3 3.9 C 0 km/h
646 21-02-2009 09:07:02 4 C 5.59 g/m*3 4 C 0 km/h
647 21-02-2009 09:19:02 4 C 5.53 g/m*3 4 C 0 km/h
648 21-02-2009 09:31:02 4.1 C 5.57 g/m*3 4.1 C 0 km/h
649 21-02-2009 09:43:02 4.4 C 5.68 g/m*3 4.4 C 0 km/h
650 21-02-2009 09:55:02 4.4 C 5.62 g/m*3 4.4 C 0 km/h
Sensor: Nr:Datum:Temp:Abs-Feuchte:Windchill:Wind:
Aussen-T/F 651 21-02-2009 10:07:01 4.5 C 5.52 g/m*3 4.5 C 0 km/h
652 21-02-2009 10:19:02 4.7 C 5.46 g/m*3 4.7 C 0 km/h
653 21-02-2009 10:31:02 5.1 C 5.47 g/m*3 5.1 C 0 km/h
654 21-02-2009 10:43:02 5.3 C 5.41 g/m*3 5.3 C 0 km/h
655 21-02-2009 10:55:01 5.5 C 5.2 g/m*3 5.5 C 0 km/h
656 21-02-2009 11:07:02 5.5 C 5.13 g/m*3 5.5 C 0 km/h
657 21-02-2009 11:19:01 5.7 C 5.12 g/m*3 5.7 C 0 km/h
658 21-02-2009 11:31:01 6 C 5.01 g/m*3 6 C 0 km/h
659 21-02-2009 11:43:01 6 C 4.94 g/m*3 6 C 0 km/h
660 21-02-2009 11:55:01 6.4 C 4.92 g/m*3 6.4 C 0 km/h
661 21-02-2009 12:07:01 6.7 C 4.86 g/m*3 6.7 C 0 km/h
662 21-02-2009 12:19:00 6.2 C 4.49 g/m*3 6.2 C 0 km/h
663 21-02-2009 12:31:00 6.4 C 4.62 g/m*3 6.4 C 0 km/h
664 21-02-2009 12:43:00 6.4 C 4.62 g/m*3 6.4 C 0 km/h
665 21-02-2009 12:55:00 6.4 C 4.55 g/m*3 6.4 C 0 km/h
666 21-02-2009 13:07:00 6.5 C 4.42 g/m*3 6.5 C 0 km/h
667 21-02-2009 13:19:00 6.6 C 4.23 g/m*3 6.6 C 0 km/h
668 21-02-2009 13:31:00 6.8 C 4.28 g/m*3 6.8 C 0 km/h
669 21-02-2009 13:43:00 6.7 C 4.1 g/m*3 6.7 C 0 km/h
670 21-02-2009 13:55:59 6.5 C 4.05 g/m*3 6.5 C 0 km/h
671 21-02-2009 14:07:00 6.5 C 4.05 g/m*3 6.5 C 0 km/h
672 21-02-2009 14:19:00 6.5 C 4.05 g/m*3 6.5 C 0 km/h
673 21-02-2009 14:31:59 6.8 C 4.05 g/m*3 6.8 C 0 km/h
674 21-02-2009 14:43:59 6.7 C 4.03 g/m*3 6.7 C 0 km/h
675 21-02-2009 14:54:59 6.5 C 3.97 g/m*3 6.5 C 0 km/h
Sensor: Nr:Datum:Temp:Abs-Feuchte:Windchill:Wind:
Aussen-T/F 676 21-02-2009 15:07:59 6.5 C 3.97 g/m*3 6.5 C 0 km/h
677 21-02-2009 15:19:59 6.4 C 3.87 g/m*3 6.4 C 0 km/h
678 21-02-2009 15:31:59 6.3 C 3.78 g/m*3 6.3 C 0 km/h
679 21-02-2009 15:43:59 6.2 C 3.75 g/m*3 6.2 C 0 km/h
680 21-02-2009 15:55:59 6.2 C 3.9 g/m*3 6.2 C 0 km/h
681 21-02-2009 16:07:59 6.1 C 4.02 g/m*3 6.1 C 0 km/h
682 21-02-2009 16:19:58 6 C 4.06 g/m*3 6 C 0 km/h
683 21-02-2009 16:31:58 5.8 C 4.15 g/m*3 5.8 C 0 km/h
684 21-02-2009 16:43:58 5.8 C 4.15 g/m*3 5.8 C 0 km/h
685 21-02-2009 16:55:58 5.7 C 4.2 g/m*3 5.7 C 0 km/h
686 21-02-2009 17:07:58 5.7 C 4.2 g/m*3 5.7 C 0 km/h
687 21-02-2009 17:19:57 5.7 C 4.13 g/m*3 5.7 C 0 km/h
688 21-02-2009 17:31:58 5.6 C 4.24 g/m*3 5.6 C 0 km/h
689 21-02-2009 17:43:58 5.4 C 4.26 g/m*3 5.4 C 0 km/h
690 21-02-2009 17:55:57 5.3 C 4.23 g/m*3 5.3 C 0 km/h
691 21-02-2009 18:07:57 5.1 C 4.24 g/m*3 5.1 C 0 km/h
692 21-02-2009 18:19:58 4.9 C 4.39 g/m*3 4.9 C 0 km/h
693 21-02-2009 18:31:57 4.7 C 4.46 g/m*3 4.7 C 0 km/h
694 21-02-2009 18:43:57 4.6 C 4.43 g/m*3 4.6 C 0 km/h
695 21-02-2009 18:55:57 4.5 C 4.4 g/m*3 4.5 C 0 km/h
696 21-02-2009 19:07:57 4.4 C 4.44 g/m*3 4.4 C 0 km/h
697 21-02-2009 19:19:57 4.2 C 4.32 g/m*3 4.2 C 0 km/h
698 21-02-2009 19:31:56 4.1 C 4.29 g/m*3 4.1 C 0 km/h
699 21-02-2009 19:43:56 4.2 C 4.32 g/m*3 4.2 C 0 km/h
700 21-02-2009 19:55:57 4.3 C 4.35 g/m*3 4.3 C 0 km/h
Sensor: Nr:Datum:Temp:Abs-Feuchte:Windchill:Wind:
Aussen-T/F 701 21-02-2009 20:07:56 4.3 C 4.41 g/m*3 4.3 C 0 km/h
702 21-02-2009 20:19:56 4.3 C 4.41 g/m*3 4.3 C 0 km/h
703 21-02-2009 20:31:56 4.3 C 4.41 g/m*3 4.3 C 0 km/h
704 21-02-2009 20:43:56 4.3 C 4.41 g/m*3 4.3 C 0 km/h
705 21-02-2009 20:55:56 4.2 C 4.38 g/m*3 4.2 C 0 km/h
706 21-02-2009 21:07:55 4.2 C 4.45 g/m*3 4.2 C 0 km/h
707 21-02-2009 21:19:56 4.2 C 4.45 g/m*3 4.2 C 0 km/h
708 21-02-2009 21:31:56 4.3 C 4.48 g/m*3 4.3 C 0 km/h
709 21-02-2009 21:43:56 4.3 C 4.48 g/m*3 4.3 C 0 km/h
710 21-02-2009 21:55:55 4.3 C 4.48 g/m*3 4.3 C 0 km/h
711 21-02-2009 22:07:56 4.3 C 4.48 g/m*3 4.3 C 0 km/h
712 21-02-2009 22:19:55 4.2 C 4.45 g/m*3 4.2 C 0 km/h
713 21-02-2009 22:31:55 4.2 C 4.45 g/m*3 4.2 C 0 km/h
714 21-02-2009 22:43:56 4.2 C 4.45 g/m*3 4.2 C 0 km/h
715 21-02-2009 22:56:57 4.2 C 4.45 g/m*3 4.2 C 0 km/h
716 21-02-2009 23:08:57 4.4 C 4.37 g/m*3 4.4 C 0 km/h
717 21-02-2009 23:20:57 4.5 C 4.4 g/m*3 4.5 C 0 km/h
718 21-02-2009 23:32:57 4.6 C 4.37 g/m*3 4.6 C 0 km/h
719 21-02-2009 23:44:57 4.6 C 4.37 g/m*3 4.6 C 0 km/h
720 21-02-2009 23:56:57 4.6 C 4.37 g/m*3 4.6 C 0 km/h
721 22-02-2009 00:08:57 4.4 C 4.44 g/m*3 4.4 C 0 km/h
722 22-02-2009 00:20:57 4.2 C 4.45 g/m*3 4.2 C 0 km/h
723 22-02-2009 00:32:57 4 C 4.58 g/m*3 4 C 0 km/h
724 22-02-2009 00:44:57 3.7 C 4.74 g/m*3 3.7 C 0 km/h
725 22-02-2009 00:56:57 3.7 C 4.86 g/m*3 3.7 C 0 km/h
Sensor: Nr:Datum:Temp:Abs-Feuchte:Windchill:Wind:
Aussen-T/F 726 22-02-2009 01:08:57 3.7 C 4.86 g/m*3 3.7 C 0 km/h
727 22-02-2009 01:20:57 3.7 C 4.86 g/m*3 3.7 C 0 km/h
728 22-02-2009 01:32:57 3.8 C 4.96 g/m*3 3.8 C 0 km/h
729 22-02-2009 01:44:58 3.6 C 4.95 g/m*3 3.6 C 0 km/h
730 22-02-2009 01:56:58 3.6 C 4.95 g/m*3 3.6 C 0 km/h
731 22-02-2009 02:08:58 3.5 C 5.04 g/m*3 3.5 C 0 km/h
732 22-02-2009 02:20:58 3.4 C 5.01 g/m*3 3.4 C 0 km/h
733 22-02-2009 02:32:58 3.4 C 5.07 g/m*3 3.4 C 0 km/h
734 22-02-2009 02:44:58 3.5 C 5.16 g/m*3 3.5 C 0 km/h
735 22-02-2009 02:56:58 3.5 C 5.16 g/m*3 3.5 C 0 km/h
736 22-02-2009 03:08:58 3.5 C 5.16 g/m*3 3.5 C 0 km/h
737 22-02-2009 03:20:58 3.4 C 5.13 g/m*3 3.4 C 0 km/h
738 22-02-2009 03:32:58 3.3 C 5.16 g/m*3 3.3 C 0 km/h
739 22-02-2009 03:44:58 3.3 C 5.22 g/m*3 3.3 C 0 km/h
740 22-02-2009 03:56:58 3.3 C 5.28 g/m*3 3.3 C 0 km/h
741 22-02-2009 04:08:58 3.2 C 5.24 g/m*3 3.2 C 0 km/h
742 22-02-2009 04:20:58 3.2 C 5.3 g/m*3 3.2 C 0 km/h
743 22-02-2009 04:32:58 3.3 C 5.4 g/m*3 3.3 C 0 km/h
744 22-02-2009 04:44:58 3.3 C 5.4 g/m*3 3.3 C 0 km/h
745 22-02-2009 04:56:58 3.3 C 5.4 g/m*3 3.3 C 0 km/h
746 22-02-2009 05:08:58 3.3 C 5.4 g/m*3 3.3 C 0 km/h
747 22-02-2009 05:20:58 3.4 C 5.44 g/m*3 3.4 C 0 km/h
748 22-02-2009 05:32:59 3.5 C 5.53 g/m*3 3.5 C 0 km/h
749 22-02-2009 05:44:59 3.5 C 5.47 g/m*3 3.5 C 0 km/h
750 22-02-2009 05:56:59 3.6 C 5.51 g/m*3 3.6 C 0 km/h
Sensor: Nr:Datum:Temp:Abs-Feuchte:Windchill:Wind:
Aussen-T/F 751 22-02-2009 06:08:59 3.7 C 5.55 g/m*3 3.7 C 0 km/h
752 22-02-2009 06:20:59 3.7 C 5.55 g/m*3 3.7 C 0 km/h
753 22-02-2009 06:32:59 3.8 C 5.58 g/m*3 3.8 C 0 km/h
754 22-02-2009 06:44:59 3.8 C 5.58 g/m*3 3.8 C 0 km/h
755 22-02-2009 06:56:59 3.8 C 5.58 g/m*3 3.8 C 0 km/h
756 22-02-2009 07:08:56 3.9 C 5.56 g/m*3 3.9 C 0 km/h
757 22-02-2009 07:20:56 4 C 5.59 g/m*3 4 C 0 km/h
758 22-02-2009 07:32:56 4 C 5.59 g/m*3 4 C 0 km/h
759 22-02-2009 07:44:56 4 C 5.59 g/m*3 4 C 0 km/h
760 22-02-2009 07:56:56 4.1 C 5.63 g/m*3 4.1 C 0 km/h
761 22-02-2009 08:08:56 4.1 C 5.63 g/m*3 4.1 C 0 km/h
762 22-02-2009 08:20:55 4.2 C 5.67 g/m*3 4.2 C 0 km/h
763 22-02-2009 08:32:55 4.3 C 5.71 g/m*3 4.3 C 0 km/h
764 22-02-2009 08:44:55 4.3 C 5.64 g/m*3 4.3 C 0 km/h
765 22-02-2009 08:56:55 4.3 C 5.64 g/m*3 4.3 C 0 km/h
766 22-02-2009 09:08:55 4.5 C 5.72 g/m*3 4.5 C 0 km/h
767 22-02-2009 09:20:55 4.5 C 5.72 g/m*3 4.5 C 0 km/h
768 22-02-2009 09:32:55 4.6 C 5.76 g/m*3 4.6 C 0 km/h
769 22-02-2009 09:44:55 4.6 C 5.69 g/m*3 4.6 C 0 km/h
770 22-02-2009 09:56:55 4.6 C 5.76 g/m*3 4.6 C 0 km/h
771 22-02-2009 10:08:54 4.7 C 5.8 g/m*3 4.7 C 0 km/h
772 22-02-2009 10:20:55 4.8 C 5.83 g/m*3 4.8 C 0 km/h
773 22-02-2009 10:32:54 4.9 C 5.87 g/m*3 4.9 C 0 km/h
774 22-02-2009 10:44:55 5 C 5.84 g/m*3 5 C 0 km/h
775 22-02-2009 10:56:55 5.1 C 5.81 g/m*3 5.1 C 0 km/h
Sensor: Nr:Datum:Temp:Abs-Feuchte:Windchill:Wind:
Aussen-T/F 776 22-02-2009 11:08:54 5.2 C 5.85 g/m*3 5.2 C 0 km/h
777 22-02-2009 11:20:55 5.4 C 6 g/m*3 5.4 C 0 km/h
778 22-02-2009 11:32:54 5.4 C 6 g/m*3 5.4 C 0 km/h
779 22-02-2009 11:44:54 5.8 C 6.09 g/m*3 5.8 C 0 km/h
780 22-02-2009 11:56:54 6.1 C 6.14 g/m*3 6.1 C 0 km/h
781 22-02-2009 12:08:54 6.2 C 6.18 g/m*3 6.2 C 0 km/h
782 22-02-2009 12:20:54 6.2 C 6.18 g/m*3 6.2 C 0 km/h
783 22-02-2009 12:32:54 6.3 C 6.22 g/m*3 6.3 C 0 km/h
784 22-02-2009 12:44:54 6.5 C 6.22 g/m*3 6.5 C 0 km/h
785 22-02-2009 12:56:54 6.9 C 6.16 g/m*3 6.9 C 0 km/h
786 22-02-2009 13:08:54 7.1 C 5.93 g/m*3 7.1 C 0 km/h
787 22-02-2009 13:20:53 7.1 C 5.85 g/m*3 7.1 C 0 km/h
788 22-02-2009 13:32:53 7.2 C 5.73 g/m*3 7.2 C 0 km/h
789 22-02-2009 13:44:53 7.2 C 5.73 g/m*3 7.2 C 0 km/h
790 22-02-2009 13:56:53 7.3 C 5.69 g/m*3 7.3 C 0 km/h
791 22-02-2009 14:08:53 7.5 C 5.68 g/m*3 7.5 C 0 km/h
792 22-02-2009 14:20:52 7.6 C 5.64 g/m*3 7.6 C 0 km/h
793 22-02-2009 14:32:53 7.5 C 5.52 g/m*3 7.5 C 0 km/h
794 22-02-2009 14:44:52 7.5 C 5.6 g/m*3 7.5 C 0 km/h
795 22-02-2009 14:56:52 7.4 C 5.65 g/m*3 7.4 C 0 km/h
796 22-02-2009 15:08:52 7.3 C 5.77 g/m*3 7.3 C 0 km/h
797 22-02-2009 15:20:53 7.1 C 6.01 g/m*3 7.1 C 0 km/h
798 22-02-2009 15:32:52 7 C 6.28 g/m*3 7 C 0 km/h
799 22-02-2009 15:44:52 7 C 6.43 g/m*3 7 C 0 km/h
800 22-02-2009 15:56:52 6.9 C 6.54 g/m*3 6.9 C 0 km/h
Sensor: Nr:Datum:Temp:Abs-Feuchte:Windchill:Wind:
Aussen-T/F 801 22-02-2009 16:08:52 6.9 C 6.7 g/m*3 6.9 C 0 km/h
802 22-02-2009 16:20:52 6.8 C 6.65 g/m*3 6.8 C 0 km/h
803 22-02-2009 16:32:52 6.8 C 6.73 g/m*3 6.8 C 0 km/h
804 22-02-2009 16:44:51 6.8 C 6.73 g/m*3 6.8 C 0 km/h
805 22-02-2009 16:56:51 6.7 C 6.69 g/m*3 6.7 C 0 km/h
806 22-02-2009 17:08:51 6.7 C 6.76 g/m*3 6.7 C 0 km/h
807 22-02-2009 17:20:51 6.7 C 6.76 g/m*3 6.7 C 0 km/h
808 22-02-2009 17:32:51 6.6 C 6.64 g/m*3 6.6 C 0 km/h
809 22-02-2009 17:44:51 6.6 C 6.57 g/m*3 6.6 C 0 km/h
810 22-02-2009 17:56:51 6.6 C 6.49 g/m*3 6.6 C 0 km/h
811 22-02-2009 18:08:51 6.6 C 6.49 g/m*3 6.6 C 0 km/h
812 22-02-2009 18:20:50 6.6 C 6.42 g/m*3 6.6 C 0 km/h
813 22-02-2009 18:32:51 6.5 C 6.3 g/m*3 6.5 C 0 km/h
814 22-02-2009 18:44:50 6.6 C 6.27 g/m*3 6.6 C 0 km/h
815 22-02-2009 18:56:50 6.4 C 6.18 g/m*3 6.4 C 0 km/h
816 22-02-2009 19:08:50 6.3 C 6.22 g/m*3 6.3 C 0 km/h
817 22-02-2009 19:20:50 6.2 C 6.32 g/m*3 6.2 C 0 km/h
818 22-02-2009 19:32:50 6.1 C 6.28 g/m*3 6.1 C 0 km/h
819 22-02-2009 19:44:49 6 C 6.24 g/m*3 6 C 0 km/h
820 22-02-2009 19:56:49 5.9 C 6.2 g/m*3 5.9 C 0 km/h
821 22-02-2009 20:08:50 5.9 C 6.13 g/m*3 5.9 C 0 km/h
822 22-02-2009 20:20:50 5.9 C 6.06 g/m*3 5.9 C 0 km/h
823 22-02-2009 20:32:49 5.9 C 6.06 g/m*3 5.9 C 0 km/h
824 22-02-2009 20:44:50 6 C 5.95 g/m*3 6 C 0 km/h
825 22-02-2009 20:56:50 6.2 C 5.88 g/m*3 6.2 C 0 km/h
Sensor: Nr:Datum:Temp:Abs-Feuchte:Windchill:Wind:
Aussen-T/F 826 22-02-2009 21:08:49 6.1 C 5.77 g/m*3 6.1 C 0 km/h
827 22-02-2009 21:20:49 6 C 5.81 g/m*3 6 C 0 km/h
828 22-02-2009 21:32:49 5.9 C 5.84 g/m*3 5.9 C 0 km/h
829 22-02-2009 21:44:49 5.9 C 5.91 g/m*3 5.9 C 0 km/h
830 22-02-2009 21:56:49 5.9 C 5.91 g/m*3 5.9 C 0 km/h
831 22-02-2009 22:08:48 5.9 C 5.98 g/m*3 5.9 C 0 km/h
832 22-02-2009 22:20:49 5.9 C 5.98 g/m*3 5.9 C 0 km/h
833 22-02-2009 22:33:49 5.8 C 6.02 g/m*3 5.8 C 0 km/h
834 22-02-2009 22:45:49 5.7 C 6.05 g/m*3 5.7 C 0 km/h
835 22-02-2009 22:57:49 5.7 C 6.05 g/m*3 5.7 C 0 km/h
836 22-02-2009 23:09:49 5.6 C 6.01 g/m*3 5.6 C 0 km/h
837 22-02-2009 23:21:49 5.6 C 5.94 g/m*3 5.6 C 0 km/h
838 22-02-2009 23:33:50 5.7 C 5.84 g/m*3 5.7 C 0 km/h
839 22-02-2009 23:45:50 5.7 C 5.76 g/m*3 5.7 C 0 km/h
840 22-02-2009 23:57:50 5.8 C 5.73 g/m*3 5.8 C 0 km/h
841 23-02-2009 00:09:50 5.8 C 5.59 g/m*3 5.8 C 0 km/h
842 23-02-2009 00:21:50 5.9 C 5.48 g/m*3 5.9 C 0 km/h
843 23-02-2009 00:33:50 5.8 C 5.37 g/m*3 5.8 C 0 km/h
844 23-02-2009 00:45:50 5.8 C 5.3 g/m*3 5.8 C 0 km/h
845 23-02-2009 00:57:50 5.6 C 5.09 g/m*3 5.6 C 0 km/h
846 23-02-2009 01:09:50 5.2 C 4.96 g/m*3 5.2 C 0 km/h
847 23-02-2009 01:21:50 5 C 4.89 g/m*3 5 C 0 km/h
848 23-02-2009 01:33:50 5.1 C 4.79 g/m*3 5.1 C 0 km/h
849 23-02-2009 01:45:50 5.2 C 4.68 g/m*3 5.2 C 0 km/h
850 23-02-2009 01:57:50 5.2 C 4.61 g/m*3 5.2 C 0 km/h
Sensor: Nr:Datum:Temp:Abs-Feuchte:Windchill:Wind:
Aussen-T/F 851 23-02-2009 02:09:50 5.2 C 4.54 g/m*3 5.2 C 0 km/h
852 23-02-2009 02:21:50 5.2 C 4.48 g/m*3 5.2 C 0 km/h
853 23-02-2009 02:33:50 5.3 C 4.44 g/m*3 5.3 C 0 km/h
854 23-02-2009 02:45:50 5.3 C 4.37 g/m*3 5.3 C 0 km/h
855 23-02-2009 02:57:50 5.3 C 4.3 g/m*3 5.3 C 0 km/h
856 23-02-2009 03:09:50 5.4 C 4.26 g/m*3 5.4 C 0 km/h
857 23-02-2009 03:21:51 5.6 C 4.03 g/m*3 5.6 C 0 km/h
858 23-02-2009 03:33:51 5.4 C 3.98 g/m*3 5.4 C 0 km/h
859 23-02-2009 03:45:51 5.3 C 4.02 g/m*3 5.3 C 0 km/h
860 23-02-2009 03:57:51 5.3 C 4.02 g/m*3 5.3 C 0 km/h
861 23-02-2009 04:09:51 5.3 C 3.95 g/m*3 5.3 C 0 km/h
862 23-02-2009 04:21:51 5.2 C 3.86 g/m*3 5.2 C 0 km/h
863 23-02-2009 04:33:51 5.2 C 3.86 g/m*3 5.2 C 0 km/h
864 23-02-2009 04:45:51 5.2 C 3.92 g/m*3 5.2 C 0 km/h
865 23-02-2009 04:57:51 5.3 C 3.88 g/m*3 5.3 C 0 km/h
866 23-02-2009 05:09:51 5.4 C 4.05 g/m*3 5.4 C 0 km/h
867 23-02-2009 05:21:51 5.4 C 4.12 g/m*3 5.4 C 0 km/h
868 23-02-2009 05:33:51 5.4 C 4.12 g/m*3 5.4 C 0 km/h
869 23-02-2009 05:45:51 5.3 C 4.09 g/m*3 5.3 C 0 km/h
870 23-02-2009 05:57:51 5 C 4.21 g/m*3 5 C 0 km/h
871 23-02-2009 06:09:51 4.2 C 4.64 g/m*3 4.2 C 0 km/h
872 23-02-2009 06:21:51 4.2 C 4.9 g/m*3 4.2 C 0 km/h
873 23-02-2009 06:33:51 4 C 5.02 g/m*3 4 C 0 km/h
874 23-02-2009 06:45:51 3.9 C 5.18 g/m*3 3.9 C 0 km/h
875 23-02-2009 06:57:51 3.8 C 5.21 g/m*3 3.8 C 0 km/h
Sensor: Nr:Datum:Temp:Abs-Feuchte:Windchill:Wind:
Aussen-T/F 876 23-02-2009 07:09:52 3.9 C 5.31 g/m*3 3.9 C 0 km/h
877 23-02-2009 07:21:52 4 C 5.28 g/m*3 4 C 0 km/h
878 23-02-2009 07:33:52 4 C 5.28 g/m*3 4 C 0 km/h
879 23-02-2009 07:45:52 4.3 C 5.25 g/m*3 4.3 C 0 km/h
880 23-02-2009 07:57:52 4.7 C 5.13 g/m*3 4.7 C 0 km/h
881 23-02-2009 08:09:52 4.8 C 4.96 g/m*3 4.8 C 0 km/h
882 23-02-2009 08:21:52 4.9 C 4.93 g/m*3 4.9 C 0 km/h
883 23-02-2009 08:33:52 5 C 4.82 g/m*3 5 C 0 km/h
884 23-02-2009 08:45:52 5.1 C 4.79 g/m*3 5.1 C 0 km/h
885 23-02-2009 08:57:52 5.2 C 4.75 g/m*3 5.2 C 0 km/h
886 23-02-2009 09:09:52 5 C 4.89 g/m*3 5 C 0 km/h
887 23-02-2009 09:21:52 4.9 C 5.06 g/m*3 4.9 C 0 km/h
888 23-02-2009 09:33:49 5 C 5.03 g/m*3 5 C 0 km/h
889 23-02-2009 09:45:48 5.2 C 4.89 g/m*3 5.2 C 0 km/h
890 23-02-2009 09:57:48 5.2 C 4.89 g/m*3 5.2 C 0 km/h
891 23-02-2009 10:09:49 5.3 C 4.85 g/m*3 5.3 C 0 km/h
892 23-02-2009 10:21:49 5.6 C 4.81 g/m*3 5.6 C 0 km/h
893 23-02-2009 10:33:48 5.8 C 4.87 g/m*3 5.8 C 0 km/h
894 23-02-2009 10:45:48 6 C 4.79 g/m*3 6 C 0 km/h
895 23-02-2009 10:57:48 6.3 C 4.81 g/m*3 6.3 C 0 km/h
896 23-02-2009 11:09:48 6.7 C 4.79 g/m*3 6.7 C 0 km/h
897 23-02-2009 11:21:48 6.6 C 4.68 g/m*3 6.6 C 0 km/h
898 23-02-2009 11:33:48 6.6 C 4.68 g/m*3 6.6 C 0 km/h
899 23-02-2009 11:45:47 6.6 C 4.68 g/m*3 6.6 C 0 km/h
900 23-02-2009 11:57:47 6.7 C 4.64 g/m*3 6.7 C 0 km/h
Sensor: Nr:Datum:Temp:Abs-Feuchte:Windchill:Wind:
Aussen-T/F 901 23-02-2009 12:09:48 6.7 C 4.71 g/m*3 6.7 C 0 km/h
902 23-02-2009 12:21:47 6.8 C 4.67 g/m*3 6.8 C 0 km/h
903 23-02-2009 12:33:47 6.9 C 4.62 g/m*3 6.9 C 0 km/h
904 23-02-2009 12:45:47 7 C 4.57 g/m*3 7 C 0 km/h
905 23-02-2009 12:57:47 7.3 C 4.58 g/m*3 7.3 C 0 km/h
906 23-02-2009 13:09:47 7.3 C 4.66 g/m*3 7.3 C 0 km/h
907 23-02-2009 13:21:47 6.4 C 4.92 g/m*3 6.4 C 0 km/h
908 23-02-2009 13:33:47 5.9 C 5.34 g/m*3 5.9 C 0 km/h
909 23-02-2009 13:45:47 5.9 C 5.41 g/m*3 5.9 C 0 km/h
910 23-02-2009 13:57:47 6.1 C 5.48 g/m*3 6.1 C 0 km/h
911 23-02-2009 14:09:46 6.2 C 5.37 g/m*3 6.2 C 0 km/h
912 23-02-2009 14:21:47 6.4 C 5.44 g/m*3 6.4 C 0 km/h
913 23-02-2009 14:33:46 6.3 C 5.18 g/m*3 6.3 C 0 km/h
914 23-02-2009 14:45:46 5.9 C 5.26 g/m*3 5.9 C 0 km/h
915 23-02-2009 14:57:46 5.7 C 5.48 g/m*3 5.7 C 0 km/h
916 23-02-2009 15:09:46 5.8 C 5.59 g/m*3 5.8 C 0 km/h
917 23-02-2009 15:21:46 6 C 5.59 g/m*3 6 C 0 km/h
918 23-02-2009 15:33:46 6.5 C 5.47 g/m*3 6.5 C 0 km/h
919 23-02-2009 15:45:45 6.9 C 5.47 g/m*3 6.9 C 0 km/h
920 23-02-2009 15:57:45 6.8 C 4.89 g/m*3 6.8 C 0 km/h
921 23-02-2009 16:09:46 6.3 C 4.96 g/m*3 6.3 C 0 km/h
922 23-02-2009 16:21:45 6 C 5.08 g/m*3 6 C 0 km/h
923 23-02-2009 16:33:45 5.8 C 5.16 g/m*3 5.8 C 0 km/h
924 23-02-2009 16:45:45 5.9 C 5.19 g/m*3 5.9 C 0 km/h
925 23-02-2009 16:57:45 5.9 C 5.05 g/m*3 5.9 C 0 km/h
Sensor: Nr:Datum:Temp:Abs-Feuchte:Windchill:Wind:
Aussen-T/F 926 23-02-2009 17:09:45 5.9 C 5.05 g/m*3 5.9 C 0 km/h
927 23-02-2009 17:21:44 5.7 C 5.05 g/m*3 5.7 C 0 km/h
928 23-02-2009 17:33:45 5.7 C 4.98 g/m*3 5.7 C 0 km/h
929 23-02-2009 17:45:44 5.7 C 4.91 g/m*3 5.7 C 0 km/h
930 23-02-2009 17:57:44 5.7 C 4.91 g/m*3 5.7 C 0 km/h
931 23-02-2009 18:09:03 5.7 C 4.84 g/m*3 5.7 C 0 km/h
932 23-02-2009 18:21:02 5.6 C 4.88 g/m*3 5.6 C 0 km/h
933 23-02-2009 18:33:02 5.4 C 4.81 g/m*3 5.4 C 0 km/h
934 23-02-2009 18:45:02 5.3 C 4.85 g/m*3 5.3 C 0 km/h
935 23-02-2009 18:57:02 5.3 C 4.85 g/m*3 5.3 C 0 km/h
936 23-02-2009 19:09:02 5.4 C 4.88 g/m*3 5.4 C 0 km/h
937 23-02-2009 19:21:01 5.4 C 4.88 g/m*3 5.4 C 0 km/h
938 23-02-2009 19:33:02 5.4 C 4.6 g/m*3 5.4 C 0 km/h
939 23-02-2009 19:45:01 5.6 C 4.45 g/m*3 5.6 C 0 km/h
940 23-02-2009 19:57:01 5.6 C 4.31 g/m*3 5.6 C 0 km/h
941 23-02-2009 20:09:01 5.6 C 4.31 g/m*3 5.6 C 0 km/h
942 23-02-2009 20:21:01 5.6 C 4.17 g/m*3 5.6 C 0 km/h
943 23-02-2009 20:33:01 5.6 C 4.1 g/m*3 5.6 C 0 km/h
944 23-02-2009 20:45:00 5.6 C 4.1 g/m*3 5.6 C 0 km/h
945 23-02-2009 20:57:00 5.6 C 4.03 g/m*3 5.6 C 0 km/h
946 23-02-2009 21:09:01 5.6 C 4.03 g/m*3 5.6 C 0 km/h
947 23-02-2009 21:21:00 5.7 C 3.99 g/m*3 5.7 C 0 km/h
948 23-02-2009 21:34:01 5.5 C 4 g/m*3 5.5 C 0 km/h
949 23-02-2009 21:46:01 5.6 C 4.03 g/m*3 5.6 C 0 km/h
950 23-02-2009 21:58:01 5.5 C 4 g/m*3 5.5 C 0 km/h
Sensor: Nr:Datum:Temp:Abs-Feuchte:Windchill:Wind:
Aussen-T/F 951 23-02-2009 22:10:01 5.3 C 4.09 g/m*3 5.3 C 0 km/h
952 23-02-2009 22:22:01 5.1 C 4.17 g/m*3 5.1 C 0 km/h
953 23-02-2009 22:34:01 5 C 4.28 g/m*3 5 C 0 km/h
954 23-02-2009 22:46:01 4.9 C 4.39 g/m*3 4.9 C 0 km/h
955 23-02-2009 22:58:01 4.6 C 4.5 g/m*3 4.6 C 0 km/h
956 23-02-2009 23:10:01 4.6 C 4.57 g/m*3 4.6 C 0 km/h
957 23-02-2009 23:22:01 4.6 C 4.57 g/m*3 4.6 C 0 km/h
958 23-02-2009 23:34:01 4.6 C 4.57 g/m*3 4.6 C 0 km/h
959 23-02-2009 23:46:01 4.6 C 4.5 g/m*3 4.6 C 0 km/h
960 23-02-2009 23:58:01 4.7 C 4.53 g/m*3 4.7 C 0 km/h
961 24-02-2009 00:10:01 4.7 C 4.53 g/m*3 4.7 C 0 km/h
962 24-02-2009 00:22:01 4.7 C 4.46 g/m*3 4.7 C 0 km/h
963 24-02-2009 00:34:01 4.7 C 4.53 g/m*3 4.7 C 0 km/h
964 24-02-2009 00:46:01 4.7 C 4.46 g/m*3 4.7 C 0 km/h
965 24-02-2009 00:58:01 4.7 C 4.46 g/m*3 4.7 C 0 km/h
966 24-02-2009 01:10:02 4.6 C 4.43 g/m*3 4.6 C 0 km/h
967 24-02-2009 01:22:02 4.6 C 4.43 g/m*3 4.6 C 0 km/h
968 24-02-2009 01:34:02 4.5 C 4.47 g/m*3 4.5 C 0 km/h
969 24-02-2009 01:46:02 4.5 C 4.47 g/m*3 4.5 C 0 km/h
970 24-02-2009 01:58:02 4.5 C 4.47 g/m*3 4.5 C 0 km/h
971 24-02-2009 02:10:02 4.4 C 4.51 g/m*3 4.4 C 0 km/h
972 24-02-2009 02:22:02 4.3 C 4.61 g/m*3 4.3 C 0 km/h
973 24-02-2009 02:34:02 4.2 C 4.64 g/m*3 4.2 C 0 km/h
974 24-02-2009 02:46:02 4.3 C 4.67 g/m*3 4.3 C 0 km/h
975 24-02-2009 02:58:02 4.3 C 4.61 g/m*3 4.3 C 0 km/h
Sensor: Nr:Datum:Temp:Abs-Feuchte:Windchill:Wind:
Aussen-T/F 976 24-02-2009 03:10:02 4.2 C 4.57 g/m*3 4.2 C 0 km/h
977 24-02-2009 03:22:02 4.2 C 4.57 g/m*3 4.2 C 0 km/h
978 24-02-2009 03:34:02 4.2 C 4.57 g/m*3 4.2 C 0 km/h
979 24-02-2009 03:46:02 4.1 C 4.54 g/m*3 4.1 C 0 km/h
980 24-02-2009 03:58:02 4.1 C 4.54 g/m*3 4.1 C 0 km/h
981 24-02-2009 04:10:02 4.2 C 4.51 g/m*3 4.2 C 0 km/h
982 24-02-2009 04:22:02 4.1 C 4.48 g/m*3 4.1 C 0 km/h
983 24-02-2009 04:34:02 4.1 C 4.42 g/m*3 4.1 C 0 km/h
984 24-02-2009 04:46:02 4.1 C 4.42 g/m*3 4.1 C 0 km/h
985 24-02-2009 04:58:02 4.1 C 4.35 g/m*3 4.1 C 0 km/h
986 24-02-2009 05:10:03 4.1 C 4.35 g/m*3 4.1 C 0 km/h
987 24-02-2009 05:22:03 4.1 C 4.35 g/m*3 4.1 C 0 km/h
988 24-02-2009 05:34:03 4 C 4.32 g/m*3 4 C 0 km/h
989 24-02-2009 05:46:03 4 C 4.32 g/m*3 4 C 0 km/h
990 24-02-2009 05:58:03 4.1 C 4.35 g/m*3 4.1 C 0 km/h
991 24-02-2009 06:10:03 4.1 C 4.35 g/m*3 4.1 C 0 km/h
992 24-02-2009 06:22:03 4.1 C 4.35 g/m*3 4.1 C 0 km/h
993 24-02-2009 06:34:03 4 C 4.32 g/m*3 4 C 0 km/h
994 24-02-2009 06:46:03 4.1 C 4.29 g/m*3 4.1 C 0 km/h
995 24-02-2009 06:58:03 4 C 4.32 g/m*3 4 C 0 km/h
996 24-02-2009 07:10:01 4 C 4.32 g/m*3 4 C 0 km/h
997 24-02-2009 07:22:01 4 C 4.32 g/m*3 4 C 0 km/h
998 24-02-2009 07:34:01 4 C 4.32 g/m*3 4 C 0 km/h
999 24-02-2009 07:46:01 4 C 4.32 g/m*3 4 C 0 km/h
1000 24-02-2009 07:58:01 4 C 4.26 g/m*3 4 C 0 km/h
Sensor: Nr:Datum:Temp:Abs-Feuchte:Windchill:Wind:
Aussen-T/F 1001 24-02-2009 08:10:00 4.1 C 4.29 g/m*3 4.1 C 0 km/h
1002 24-02-2009 08:22:01 4.1 C 4.29 g/m*3 4.1 C 0 km/h
1003 24-02-2009 08:34:00 4.1 C 4.29 g/m*3 4.1 C 0 km/h
1004 24-02-2009 08:46:00 4.2 C 4.32 g/m*3 4.2 C 0 km/h
1005 24-02-2009 08:58:01 4.2 C 4.32 g/m*3 4.2 C 0 km/h
1006 24-02-2009 09:09:59 4.3 C 4.35 g/m*3 4.3 C 0 km/h
1007 24-02-2009 09:22:00 4.4 C 4.31 g/m*3 4.4 C 0 km/h
1008 24-02-2009 09:34:59 4.6 C 4.3 g/m*3 4.6 C 0 km/h
1009 24-02-2009 09:46:00 4.8 C 4.36 g/m*3 4.8 C 0 km/h
1010 24-02-2009 09:58:00 4.7 C 4.26 g/m*3 4.7 C 0 km/h
1011 24-02-2009 10:10:59 4.9 C 4.25 g/m*3 4.9 C 0 km/h
1012 24-02-2009 10:22:59 5 C 4.21 g/m*3 5 C 0 km/h
1013 24-02-2009 10:34:59 5.1 C 4.24 g/m*3 5.1 C 0 km/h
1014 24-02-2009 10:46:59 5.3 C 4.3 g/m*3 5.3 C 0 km/h
1015 24-02-2009 10:59:00 5.1 C 4.24 g/m*3 5.1 C 0 km/h
1016 24-02-2009 11:10:58 5.1 C 4.24 g/m*3 5.1 C 0 km/h
1017 24-02-2009 11:22:59 5.4 C 4.4 g/m*3 5.4 C 0 km/h
1018 24-02-2009 11:34:59 5.4 C 4.26 g/m*3 5.4 C 0 km/h
1019 24-02-2009 11:46:58 5.7 C 4.34 g/m*3 5.7 C 0 km/h
1020 24-02-2009 11:58:58 5.9 C 3.97 g/m*3 5.9 C 0 km/h
1021 24-02-2009 12:10:59 6.1 C 3.8 g/m*3 6.1 C 0 km/h
1022 24-02-2009 12:22:58 6 C 3.7 g/m*3 6 C 0 km/h
1023 24-02-2009 12:34:58 6.1 C 3.8 g/m*3 6.1 C 0 km/h
1024 24-02-2009 12:46:58 6.3 C 4 g/m*3 6.3 C 0 km/h
1025 24-02-2009 12:58:58 6 C 3.85 g/m*3 6 C 0 km/h
Sensor: Nr:Datum:Temp:Abs-Feuchte:Windchill:Wind:
Aussen-T/F 1026 24-02-2009 13:10:58 6.2 C 3.82 g/m*3 6.2 C 0 km/h
1027 24-02-2009 13:22:57 6.3 C 3.78 g/m*3 6.3 C 0 km/h
1028 24-02-2009 13:34:57 6.4 C 3.8 g/m*3 6.4 C 0 km/h
1029 24-02-2009 13:46:57 6.7 C 3.8 g/m*3 6.7 C 0 km/h
1030 24-02-2009 13:58:57 6.8 C 3.67 g/m*3 6.8 C 0 km/h
1031 24-02-2009 14:10:57 6.9 C 3.54 g/m*3 6.9 C 0 km/h
1032 24-02-2009 14:22:57 6.4 C 3.65 g/m*3 6.4 C 0 km/h
1033 24-02-2009 14:34:57 6.7 C 3.72 g/m*3 6.7 C 0 km/h
1034 24-02-2009 14:46:56 6.9 C 3.77 g/m*3 6.9 C 0 km/h
1035 24-02-2009 14:58:56 7.1 C 3.59 g/m*3 7.1 C 0 km/h
1036 24-02-2009 15:10:56 7 C 3.41 g/m*3 7 C 0 km/h
1037 24-02-2009 15:22:57 6.9 C 3.39 g/m*3 6.9 C 0 km/h
1038 24-02-2009 15:34:56 6.9 C 3.31 g/m*3 6.9 C 0 km/h
1039 24-02-2009 15:46:56 7.5 C 3.44 g/m*3 7.5 C 0 km/h
1040 24-02-2009 15:58:56 7.6 C 3.3 g/m*3 7.6 C 0 km/h
1041 24-02-2009 16:10:56 8.1 C 3.25 g/m*3 8.1 C 0 km/h
1042 24-02-2009 16:22:56 8.1 C 3 g/m*3 8.1 C 0 km/h
1043 24-02-2009 16:34:55 7.9 C 3.04 g/m*3 7.9 C 0 km/h
1044 24-02-2009 16:46:56 8.4 C 3.05 g/m*3 8.4 C 0 km/h
1045 24-02-2009 16:58:57 7.8 C 3.1 g/m*3 7.8 C 0 km/h
1046 24-02-2009 17:10:55 7.2 C 3.14 g/m*3 7.2 C 0 km/h
1047 24-02-2009 17:22:55 6.6 C 3.17 g/m*3 6.6 C 0 km/h
1048 24-02-2009 17:34:55 6.5 C 3.15 g/m*3 6.5 C 0 km/h
1049 24-02-2009 17:46:55 6.5 C 3.37 g/m*3 6.5 C 0 km/h
1050 24-02-2009 17:58:55 6.3 C 3.41 g/m*3 6.3 C 0 km/h
Sensor: Nr:Datum:Temp:Abs-Feuchte:Windchill:Wind:
Aussen-T/F 1051 24-02-2009 18:10:55 6.2 C 3.24 g/m*3 6.2 C 0 km/h
1052 24-02-2009 18:22:54 6.1 C 3.29 g/m*3 6.1 C 0 km/h
1053 24-02-2009 18:34:55 5.9 C 3.53 g/m*3 5.9 C 0 km/h
1054 24-02-2009 18:46:54 5.8 C 3.58 g/m*3 5.8 C 0 km/h
1055 24-02-2009 18:58:54 5.6 C 3.68 g/m*3 5.6 C 0 km/h
1056 24-02-2009 19:10:54 5.4 C 3.77 g/m*3 5.4 C 0 km/h
1057 24-02-2009 19:22:54 5 C 3.67 g/m*3 5 C 0 km/h
1058 24-02-2009 19:34:54 4.4 C 3.72 g/m*3 4.4 C 0 km/h
1059 24-02-2009 19:46:53 3.9 C 3.6 g/m*3 3.9 C 0 km/h
1060 24-02-2009 19:58:53 3.5 C 3.63 g/m*3 3.5 C 0 km/h
1061 24-02-2009 20:10:54 3.4 C 3.6 g/m*3 3.4 C 0 km/h
1062 24-02-2009 20:22:54 3.4 C 3.73 g/m*3 3.4 C 0 km/h
1063 24-02-2009 20:34:53 3.5 C 3.94 g/m*3 3.5 C 0 km/h
1064 24-02-2009 20:46:54 3.4 C 4.09 g/m*3 3.4 C 0 km/h
1065 24-02-2009 20:58:54 3.3 C 4.13 g/m*3 3.3 C 0 km/h
1066 24-02-2009 21:10:53 3.1 C 4.13 g/m*3 3.1 C 0 km/h
1067 24-02-2009 21:22:53 2.8 C 4.16 g/m*3 2.8 C 0 km/h
1068 24-02-2009 21:34:52 2.7 C 4.2 g/m*3 2.7 C 0 km/h
1069 24-02-2009 21:46:53 2.8 C 4.28 g/m*3 2.8 C 0 km/h
1070 24-02-2009 21:58:53 2.7 C 4.2 g/m*3 2.7 C 0 km/h
1071 24-02-2009 22:10:52 3 C 4.34 g/m*3 3 C 0 km/h
1072 24-02-2009 22:22:52 2.8 C 4.22 g/m*3 2.8 C 0 km/h
1073 24-02-2009 22:34:53 2.6 C 4.22 g/m*3 2.6 C 0 km/h
1074 24-02-2009 22:46:53 2.6 C 4.22 g/m*3 2.6 C 0 km/h
1075 24-02-2009 22:58:53 2.6 C 4.28 g/m*3 2.6 C 0 km/h
Sensor: Nr:Datum:Temp:Abs-Feuchte:Windchill:Wind:
Aussen-T/F 1076 24-02-2009 23:10:53 2.6 C 4.22 g/m*3 2.6 C 0 km/h
1077 24-02-2009 23:22:53 2.4 C 4.23 g/m*3 2.4 C 0 km/h
1078 24-02-2009 23:34:53 2.3 C 4.2 g/m*3 2.3 C 0 km/h
1079 24-02-2009 23:46:53 2 C 4.17 g/m*3 2 C 0 km/h
1080 24-02-2009 23:58:53 1.8 C 4.17 g/m*3 1.8 C 0 km/h
1081 25-02-2009 00:10:53 1.7 C 4.19 g/m*3 1.7 C 0 km/h
1082 25-02-2009 00:22:52 1.7 C 4.19 g/m*3 1.7 C 0 km/h
1083 25-02-2009 00:34:52 1.5 C 4.19 g/m*3 1.5 C 0 km/h
1084 25-02-2009 00:46:51 1.3 C 4.19 g/m*3 1.3 C 0 km/h
1085 25-02-2009 00:58:51 1.1 C 4.13 g/m*3 1.1 C 0 km/h
1086 25-02-2009 01:10:52 1.1 C 4.18 g/m*3 1.1 C 0 km/h
1087 25-02-2009 01:22:52 0.9 C 4.18 g/m*3 0.9 C 0 km/h
1088 25-02-2009 01:34:51 0.7 C 4.17 g/m*3 0.7 C 0 km/h
1089 25-02-2009 01:46:51 0.7 C 4.17 g/m*3 0.7 C 0 km/h
1090 25-02-2009 01:58:51 0.6 C 4.19 g/m*3 0.6 C 0 km/h
1091 25-02-2009 02:10:51 0.5 C 4.16 g/m*3 0.5 C 0 km/h
1092 25-02-2009 02:22:51 0.2 C 4.08 g/m*3 0.2 C 0 km/h
1093 25-02-2009 02:34:50 0 C 4.02 g/m*3 0 C 0 km/h
1094 25-02-2009 02:47:53 -0.3 C 3.94 g/m*3 -0.3 C 0 km/h
1095 25-02-2009 02:59:53 -0.3 C 3.94 g/m*3 -0.3 C 0 km/h
1096 25-02-2009 03:11:52 -0.4 C 3.96 g/m*3 -0.4 C 0 km/h
1097 25-02-2009 03:23:52 -0.5 C 3.93 g/m*3 -0.5 C 0 km/h
1098 25-02-2009 03:35:52 -0.4 C 3.96 g/m*3 -0.4 C 0 km/h
1099 25-02-2009 03:47:52 -0.7 C 3.88 g/m*3 -0.7 C 0 km/h
1100 25-02-2009 03:59:52 -0.7 C 3.88 g/m*3 -0.7 C 0 km/h
Sensor: Nr:Datum:Temp:Abs-Feuchte:Windchill:Wind:
Aussen-T/F 1101 25-02-2009 04:11:52 -0.8 C 3.85 g/m*3 -0.8 C 0 km/h
1102 25-02-2009 04:23:52 -0.8 C 3.85 g/m*3 -0.8 C 0 km/h
1103 25-02-2009 04:35:51 -0.8 C 3.9 g/m*3 -0.8 C 0 km/h
1104 25-02-2009 04:47:51 -0.9 C 3.91 g/m*3 -0.9 C 0 km/h
1105 25-02-2009 04:59:51 -0.7 C 4.02 g/m*3 -0.7 C 0 km/h
1106 25-02-2009 05:11:51 -0.7 C 4.02 g/m*3 -0.7 C 0 km/h
1107 25-02-2009 05:23:52 -0.6 C 4.09 g/m*3 -0.6 C 0 km/h
1108 25-02-2009 05:35:51 -0.7 C 4.11 g/m*3 -0.7 C 0 km/h
1109 25-02-2009 05:47:51 -0.6 C 4.14 g/m*3 -0.6 C 0 km/h
1110 25-02-2009 05:59:51 -0.6 C 4.14 g/m*3 -0.6 C 0 km/h
1111 25-02-2009 06:11:51 -0.7 C 4.11 g/m*3 -0.7 C 0 km/h
1112 25-02-2009 06:23:50 -0.9 C 4.05 g/m*3 -0.9 C 0 km/h
1113 25-02-2009 06:35:51 -0.8 C 4.13 g/m*3 -0.8 C 0 km/h
1114 25-02-2009 06:47:50 -0.9 C 4.1 g/m*3 -0.9 C 0 km/h
1115 25-02-2009 06:59:50 -0.8 C 4.13 g/m*3 -0.8 C 0 km/h
1116 25-02-2009 07:11:50 -0.7 C 4.15 g/m*3 -0.7 C 0 km/h
1117 25-02-2009 07:23:50 -0.7 C 4.15 g/m*3 -0.7 C 0 km/h
1118 25-02-2009 07:35:50 -0.6 C 4.18 g/m*3 -0.6 C 0 km/h
1119 25-02-2009 07:47:49 -0.7 C 4.15 g/m*3 -0.7 C 0 km/h
1120 25-02-2009 07:59:49 -0.8 C 4.13 g/m*3 -0.8 C 0 km/h
1121 25-02-2009 08:11:50 -0.8 C 4.13 g/m*3 -0.8 C 0 km/h
1122 25-02-2009 08:23:50 -0.9 C 4.05 g/m*3 -0.9 C 0 km/h
1123 25-02-2009 08:35:49 -0.9 C 4.05 g/m*3 -0.9 C 0 km/h
1124 25-02-2009 08:47:49 -0.8 C 4.08 g/m*3 -0.8 C 0 km/h
1125 25-02-2009 08:59:49 -0.3 C 4.22 g/m*3 -0.3 C 0 km/h
Sensor: Nr:Datum:Temp:Abs-Feuchte:Windchill:Wind:
Aussen-T/F 1126 25-02-2009 09:11:49 -0.1 C 4.28 g/m*3 -0.1 C 0 km/h
1127 25-02-2009 09:23:49 -0.2 C 4.21 g/m*3 -0.2 C 0 km/h
1128 25-02-2009 09:35:48 -0.2 C 4.16 g/m*3 -0.2 C 0 km/h
1129 25-02-2009 09:47:49 -0.2 C 4.16 g/m*3 -0.2 C 0 km/h
1130 25-02-2009 09:59:49 -0.1 C 4.19 g/m*3 -0.1 C 0 km/h
1131 25-02-2009 10:11:48 0.1 C 4.24 g/m*3 0.1 C 0 km/h
1132 25-02-2009 10:23:48 0.3 C 4.3 g/m*3 0.3 C 0 km/h
1133 25-02-2009 10:35:49 1 C 4.46 g/m*3 1 C 0 km/h
1134 25-02-2009 10:47:48 1.1 C 4.34 g/m*3 1.1 C 0 km/h
1135 25-02-2009 10:59:48 1.4 C 4.37 g/m*3 1.4 C 0 km/h
1136 25-02-2009 11:11:48 2 C 4.45 g/m*3 2 C 0 km/h
1137 25-02-2009 11:23:48 1.7 C 4.25 g/m*3 1.7 C 0 km/h
1138 25-02-2009 11:35:48 2.3 C 4.37 g/m*3 2.3 C 0 km/h
1139 25-02-2009 11:47:47 3.2 C 4.46 g/m*3 3.2 C 0 km/h
1140 25-02-2009 11:59:47 3.5 C 4.49 g/m*3 3.5 C 0 km/h
1141 25-02-2009 12:11:48 3.9 C 4.55 g/m*3 3.9 C 0 km/h
1142 25-02-2009 12:23:47 4.8 C 4.69 g/m*3 4.8 C 0 km/h
1143 25-02-2009 12:35:47 5.8 C 4.51 g/m*3 5.8 C 0 km/h
1144 25-02-2009 12:47:47 6.4 C 3.95 g/m*3 6.4 C 0 km/h
1145 25-02-2009 12:59:47 6.9 C 3.46 g/m*3 6.9 C 0 km/h
1146 25-02-2009 13:11:47 7.4 C 3.18 g/m*3 7.4 C 0 km/h
1147 25-02-2009 13:23:46 7.5 C 3.2 g/m*3 7.5 C 0 km/h
1148 25-02-2009 13:35:46 7.6 C 3.22 g/m*3 7.6 C 0 km/h
1149 25-02-2009 13:47:47 7.8 C 3.1 g/m*3 7.8 C 0 km/h
1150 25-02-2009 13:59:47 7.9 C 3.12 g/m*3 7.9 C 0 km/h
Sensor: Nr:Datum:Temp:Abs-Feuchte:Windchill:Wind:
Aussen-T/F 1151 25-02-2009 14:11:46 8 C 3.14 g/m*3 8 C 0 km/h
1152 25-02-2009 14:23:46 8.1 C 3.16 g/m*3 8.1 C 0 km/h
1153 25-02-2009 14:35:46 8.4 C 3.14 g/m*3 8.4 C 0 km/h
1154 25-02-2009 14:47:46 8.7 C 3.11 g/m*3 8.7 C 0 km/h
1155 25-02-2009 14:59:46 8.6 C 3.01 g/m*3 8.6 C 0 km/h
1156 25-02-2009 15:11:45 8.6 C 3.09 g/m*3 8.6 C 0 km/h
1157 25-02-2009 15:23:46 8.7 C 3.11 g/m*3 8.7 C 0 km/h
1158 25-02-2009 15:35:46 8.9 C 3.07 g/m*3 8.9 C 0 km/h
1159 25-02-2009 15:47:45 8.6 C 3.09 g/m*3 8.6 C 0 km/h
1160 25-02-2009 15:59:45 8.4 C 3.14 g/m*3 8.4 C 0 km/h
1161 25-02-2009 16:11:46 8.5 C 3.24 g/m*3 8.5 C 0 km/h
1162 25-02-2009 16:23:45 8.6 C 3.35 g/m*3 8.6 C 0 km/h
1163 25-02-2009 16:35:45 8.6 C 3.27 g/m*3 8.6 C 0 km/h
1164 25-02-2009 16:47:44 8.4 C 3.39 g/m*3 8.4 C 0 km/h
1165 25-02-2009 16:59:44 8.1 C 3.33 g/m*3 8.1 C 0 km/h
1166 25-02-2009 17:11:45 7.8 C 3.43 g/m*3 7.8 C 0 km/h
1167 25-02-2009 17:23:44 7.5 C 3.6 g/m*3 7.5 C 0 km/h
1168 25-02-2009 17:35:44 7.2 C 3.53 g/m*3 7.2 C 0 km/h
1169 25-02-2009 17:47:44 6.9 C 3.62 g/m*3 6.9 C 0 km/h
1170 25-02-2009 17:59:44 6.6 C 3.55 g/m*3 6.6 C 0 km/h
1171 25-02-2009 18:11:44 6.4 C 3.5 g/m*3 6.4 C 0 km/h
1172 25-02-2009 18:23:44 6.2 C 3.6 g/m*3 6.2 C 0 km/h
1173 25-02-2009 18:35:43 6.2 C 3.68 g/m*3 6.2 C 0 km/h
1174 25-02-2009 18:47:44 6 C 3.63 g/m*3 6 C 0 km/h
1175 25-02-2009 18:59:44 5.8 C 3.65 g/m*3 5.8 C 0 km/h
Sensor: Nr:Datum:Temp:Abs-Feuchte:Windchill:Wind:
Aussen-T/F 1176 25-02-2009 19:11:43 5.6 C 3.61 g/m*3 5.6 C 0 km/h
1177 25-02-2009 19:23:43 5.4 C 3.56 g/m*3 5.4 C 0 km/h
1178 25-02-2009 19:35:43 5.4 C 3.56 g/m*3 5.4 C 0 km/h
1179 25-02-2009 19:47:43 5.4 C 3.56 g/m*3 5.4 C 0 km/h
1180 25-02-2009 19:59:43 5.3 C 3.53 g/m*3 5.3 C 0 km/h
1181 25-02-2009 20:11:42 5.1 C 3.56 g/m*3 5.1 C 0 km/h
1182 25-02-2009 20:23:43 5 C 3.53 g/m*3 5 C 0 km/h
1183 25-02-2009 20:35:43 5.2 C 3.58 g/m*3 5.2 C 0 km/h
1184 25-02-2009 20:47:42 5.3 C 3.53 g/m*3 5.3 C 0 km/h
1185 25-02-2009 20:59:42 5.3 C 3.6 g/m*3 5.3 C 0 km/h
1186 25-02-2009 21:11:42 5.5 C 3.51 g/m*3 5.5 C 0 km/h
1187 25-02-2009 21:23:42 5.6 C 3.53 g/m*3 5.6 C 0 km/h
1188 25-02-2009 21:35:42 5.5 C 3.51 g/m*3 5.5 C 0 km/h
1189 25-02-2009 21:47:42 5.5 C 3.51 g/m*3 5.5 C 0 km/h
1190 25-02-2009 21:59:42 5.6 C 3.53 g/m*3 5.6 C 0 km/h
1191 25-02-2009 22:11:41 5.7 C 3.49 g/m*3 5.7 C 0 km/h
1192 25-02-2009 22:23:42 5.7 C 3.49 g/m*3 5.7 C 0 km/h
1193 25-02-2009 22:36:43 5.7 C 3.49 g/m*3 5.7 C 0 km/h
1194 25-02-2009 22:48:43 5.7 C 3.49 g/m*3 5.7 C 0 km/h
1195 25-02-2009 23:00:43 5.7 C 3.49 g/m*3 5.7 C 0 km/h
1196 25-02-2009 23:12:43 5.7 C 3.49 g/m*3 5.7 C 0 km/h
1197 25-02-2009 23:24:43 5.8 C 3.51 g/m*3 5.8 C 0 km/h
1198 25-02-2009 23:36:43 5.7 C 3.49 g/m*3 5.7 C 0 km/h
1199 25-02-2009 23:48:43 5.6 C 3.53 g/m*3 5.6 C 0 km/h
1200 26-02-2009 00:00:43 5.6 C 3.53 g/m*3 5.6 C 0 km/h
Sensor: Nr:Datum:Temp:Abs-Feuchte:Windchill:Wind:
Aussen-T/F 1201 26-02-2009 00:12:43 5.5 C 3.58 g/m*3 5.5 C 0 km/h
1202 26-02-2009 00:24:43 5.6 C 3.61 g/m*3 5.6 C 0 km/h
1203 26-02-2009 00:36:43 5.6 C 3.68 g/m*3 5.6 C 0 km/h
1204 26-02-2009 00:48:43 5.6 C 3.68 g/m*3 5.6 C 0 km/h
1205 26-02-2009 01:00:43 5.6 C 3.68 g/m*3 5.6 C 0 km/h
1206 26-02-2009 01:12:43 5.4 C 3.7 g/m*3 5.4 C 0 km/h
1207 26-02-2009 01:24:43 5.3 C 3.67 g/m*3 5.3 C 0 km/h
1208 26-02-2009 01:36:43 5.3 C 3.67 g/m*3 5.3 C 0 km/h
1209 26-02-2009 01:48:44 5.2 C 3.72 g/m*3 5.2 C 0 km/h
1210 26-02-2009 02:00:44 5.2 C 3.79 g/m*3 5.2 C 0 km/h
1211 26-02-2009 02:12:44 5.2 C 3.79 g/m*3 5.2 C 0 km/h
1212 26-02-2009 02:24:44 5.2 C 3.86 g/m*3 5.2 C 0 km/h
1213 26-02-2009 02:36:44 5.2 C 3.86 g/m*3 5.2 C 0 km/h
1214 26-02-2009 02:48:44 5.1 C 3.83 g/m*3 5.1 C 0 km/h
1215 26-02-2009 03:00:44 5.1 C 3.9 g/m*3 5.1 C 0 km/h
1216 26-02-2009 03:12:44 5 C 3.87 g/m*3 5 C 0 km/h
1217 26-02-2009 03:24:44 5 C 3.94 g/m*3 5 C 0 km/h
1218 26-02-2009 03:36:44 5.1 C 3.97 g/m*3 5.1 C 0 km/h
1219 26-02-2009 03:48:44 5 C 3.94 g/m*3 5 C 0 km/h
1220 26-02-2009 04:00:44 5 C 3.94 g/m*3 5 C 0 km/h
1221 26-02-2009 04:12:44 5 C 3.94 g/m*3 5 C 0 km/h
1222 26-02-2009 04:24:44 5.2 C 4.13 g/m*3 5.2 C 0 km/h
1223 26-02-2009 04:36:44 5.3 C 4.3 g/m*3 5.3 C 0 km/h
1224 26-02-2009 04:48:44 5.4 C 4.33 g/m*3 5.4 C 0 km/h
1225 26-02-2009 05:00:44 5.5 C 4.35 g/m*3 5.5 C 0 km/h
Sensor: Nr:Datum:Temp:Abs-Feuchte:Windchill:Wind:
Aussen-T/F 1226 26-02-2009 05:12:44 5.5 C 4.35 g/m*3 5.5 C 0 km/h
1227 26-02-2009 05:24:44 5.4 C 4.33 g/m*3 5.4 C 0 km/h
1228 26-02-2009 05:36:44 5.4 C 4.33 g/m*3 5.4 C 0 km/h
1229 26-02-2009 05:48:45 5.4 C 4.33 g/m*3 5.4 C 0 km/h
1230 26-02-2009 06:00:45 5.4 C 4.33 g/m*3 5.4 C 0 km/h
1231 26-02-2009 06:12:45 5.4 C 4.33 g/m*3 5.4 C 0 km/h
1232 26-02-2009 06:24:45 5.3 C 4.3 g/m*3 5.3 C 0 km/h
1233 26-02-2009 06:36:45 5.2 C 4.34 g/m*3 5.2 C 0 km/h
1234 26-02-2009 06:48:45 5.2 C 4.41 g/m*3 5.2 C 0 km/h
1235 26-02-2009 07:00:42 5.2 C 4.41 g/m*3 5.2 C 0 km/h
1236 26-02-2009 07:12:42 5.2 C 4.48 g/m*3 5.2 C 0 km/h
1237 26-02-2009 07:24:42 5.2 C 4.48 g/m*3 5.2 C 0 km/h
1238 26-02-2009 07:36:42 5.3 C 4.51 g/m*3 5.3 C 0 km/h
1239 26-02-2009 07:48:41 5.3 C 4.51 g/m*3 5.3 C 0 km/h
1240 26-02-2009 08:00:42 5.3 C 4.57 g/m*3 5.3 C 0 km/h
1241 26-02-2009 08:12:42 5.3 C 4.57 g/m*3 5.3 C 0 km/h
1242 26-02-2009 08:24:41 5.3 C 4.64 g/m*3 5.3 C 0 km/h
1243 26-02-2009 08:36:41 5.4 C 4.67 g/m*3 5.4 C 0 km/h
1244 26-02-2009 08:48:41 5.4 C 4.67 g/m*3 5.4 C 0 km/h
1245 26-02-2009 09:00:41 5.5 C 4.71 g/m*3 5.5 C 0 km/h
1246 26-02-2009 09:12:41 5.6 C 4.81 g/m*3 5.6 C 0 km/h
1247 26-02-2009 09:24:41 5.6 C 4.88 g/m*3 5.6 C 0 km/h
1248 26-02-2009 09:36:41 5.5 C 5.06 g/m*3 5.5 C 0 km/h
1249 26-02-2009 09:48:41 5.4 C 5.16 g/m*3 5.4 C 0 km/h
1250 26-02-2009 10:00:40 5.3 C 5.27 g/m*3 5.3 C 0 km/h
Sensor: Nr:Datum:Temp:Abs-Feuchte:Windchill:Wind:
Aussen-T/F 1251 26-02-2009 10:12:40 5.4 C 5.37 g/m*3 5.4 C 0 km/h
1252 26-02-2009 10:24:40 5.4 C 5.3 g/m*3 5.4 C 0 km/h
1253 26-02-2009 10:36:40 5.5 C 5.34 g/m*3 5.5 C 0 km/h
1254 26-02-2009 10:48:40 5.6 C 5.3 g/m*3 5.6 C 0 km/h
1255 26-02-2009 11:00:39 5.7 C 5.34 g/m*3 5.7 C 0 km/h
1256 26-02-2009 11:12:39 5.9 C 5.34 g/m*3 5.9 C 0 km/h
1257 26-02-2009 11:24:40 6.3 C 5.33 g/m*3 6.3 C 0 km/h
1258 26-02-2009 11:36:40 6.8 C 5.2 g/m*3 6.8 C 0 km/h
1259 26-02-2009 11:48:39 7.1 C 5.07 g/m*3 7.1 C 0 km/h
1260 26-02-2009 12:00:40 7.3 C 5.06 g/m*3 7.3 C 0 km/h
1261 26-02-2009 12:12:40 7.8 C 5.06 g/m*3 7.8 C 0 km/h
1262 26-02-2009 12:24:39 7.8 C 4.9 g/m*3 7.8 C 0 km/h
1263 26-02-2009 12:36:39 8 C 4.8 g/m*3 8 C 0 km/h
1264 26-02-2009 12:48:39 8 C 4.8 g/m*3 8 C 0 km/h
1265 26-02-2009 13:00:39 7.9 C 4.85 g/m*3 7.9 C 0 km/h
1266 26-02-2009 13:12:40 7.9 C 4.93 g/m*3 7.9 C 0 km/h
1267 26-02-2009 13:24:38 8 C 4.88 g/m*3 8 C 0 km/h
1268 26-02-2009 13:36:38 8.2 C 4.86 g/m*3 8.2 C 0 km/h
1269 26-02-2009 13:48:38 8.3 C 4.89 g/m*3 8.3 C 0 km/h
1270 26-02-2009 14:00:38 8.6 C 4.9 g/m*3 8.6 C 0 km/h
1271 26-02-2009 14:12:38 8.9 C 4.73 g/m*3 8.9 C 0 km/h
1272 26-02-2009 14:24:38 8.8 C 4.53 g/m*3 8.8 C 0 km/h
1273 26-02-2009 14:36:38 9.2 C 3.93 g/m*3 9.2 C 0 km/h
1274 26-02-2009 14:48:38 9.6 C 3.66 g/m*3 9.6 C 0 km/h
1275 26-02-2009 15:00:37 9.5 C 3.64 g/m*3 9.5 C 0 km/h
Sensor: Nr:Datum:Temp:Abs-Feuchte:Windchill:Wind:
Aussen-T/F 1276 26-02-2009 15:12:37 9.5 C 3.64 g/m*3 9.5 C 0 km/h
1277 26-02-2009 15:24:38 9.6 C 3.57 g/m*3 9.6 C 0 km/h
1278 26-02-2009 15:36:37 9.4 C 3.44 g/m*3 9.4 C 0 km/h
1279 26-02-2009 15:48:37 9.4 C 3.62 g/m*3 9.4 C 0 km/h
1280 26-02-2009 16:00:37 9.3 C 3.5 g/m*3 9.3 C 0 km/h
1281 26-02-2009 16:12:37 9.4 C 3.71 g/m*3 9.4 C 0 km/h
1282 26-02-2009 16:24:37 9.2 C 3.66 g/m*3 9.2 C 0 km/h
1283 26-02-2009 16:36:37 9 C 3.61 g/m*3 9 C 0 km/h
1284 26-02-2009 16:48:37 9 C 3.61 g/m*3 9 C 0 km/h
1285 26-02-2009 17:00:37 8.8 C 3.57 g/m*3 8.8 C 0 km/h
1286 26-02-2009 17:12:37 8.6 C 3.61 g/m*3 8.6 C 0 km/h
1287 26-02-2009 17:24:36 8.6 C 3.69 g/m*3 8.6 C 0 km/h
1288 26-02-2009 17:36:36 8.3 C 3.71 g/m*3 8.3 C 0 km/h
1289 26-02-2009 17:48:36 8.2 C 3.77 g/m*3 8.2 C 0 km/h
1290 26-02-2009 18:00:36 8.1 C 3.74 g/m*3 8.1 C 0 km/h
1291 26-02-2009 18:12:36 8 C 3.8 g/m*3 8 C 0 km/h
1292 26-02-2009 18:24:35 7.9 C 3.78 g/m*3 7.9 C 0 km/h
1293 26-02-2009 18:36:02 7.8 C 3.84 g/m*3 7.8 C 0 km/h
1294 26-02-2009 18:48:01 7.8 C 3.84 g/m*3 7.8 C 0 km/h
1295 26-02-2009 19:00:01 7.7 C 3.89 g/m*3 7.7 C 0 km/h
1296 26-02-2009 19:12:01 7.6 C 3.87 g/m*3 7.6 C 0 km/h
1297 26-02-2009 19:24:01 7.6 C 3.95 g/m*3 7.6 C 0 km/h
1298 26-02-2009 19:36:01 7.5 C 4.08 g/m*3 7.5 C 0 km/h
1299 26-02-2009 19:48:00 7.5 C 4.24 g/m*3 7.5 C 0 km/h
1300 26-02-2009 20:00:00 7.4 C 4.29 g/m*3 7.4 C 0 km/h
Sensor: Nr:Datum:Temp:Abs-Feuchte:Windchill:Wind:
Aussen-T/F 1301 26-02-2009 20:12:01 7.4 C 4.37 g/m*3 7.4 C 0 km/h
1302 26-02-2009 20:24:00 7.5 C 4.24 g/m*3 7.5 C 0 km/h
1303 26-02-2009 20:36:00 7.5 C 4.24 g/m*3 7.5 C 0 km/h
1304 26-02-2009 20:48:00 7.4 C 4.29 g/m*3 7.4 C 0 km/h
1305 26-02-2009 21:00:00 7.3 C 4.35 g/m*3 7.3 C 0 km/h
1306 26-02-2009 21:12:00 7.2 C 4.32 g/m*3 7.2 C 0 km/h
1307 26-02-2009 21:24:00 7.2 C 4.32 g/m*3 7.2 C 0 km/h
1308 26-02-2009 21:36:00 7.2 C 4.32 g/m*3 7.2 C 0 km/h
1309 26-02-2009 22:00:00 7.2 C 4.32 g/m*3 7.2 C 0 km/h
1310 26-02-2009 22:00:00 7.2 C 4.24 g/m*3 7.2 C 0 km/h
1311 26-02-2009 22:00:00 7.2 C 4.32 g/m*3 7.2 C 0 km/h
1312 26-02-2009 22:00:00 7.2 C 4.24 g/m*3 7.2 C 0 km/h
1313 26-02-2009 22:12:00 7.2 C 4.32 g/m*3 7.2 C 0 km/h
1314 26-02-2009 22:25:00 7.2 C 4.32 g/m*3 7.2 C 0 km/h
1315 26-02-2009 22:37:00 7.1 C 4.21 g/m*3 7.1 C 0 km/h
1316 26-02-2009 22:49:00 7.1 C 4.21 g/m*3 7.1 C 0 km/h
1317 26-02-2009 23:01:00 7.2 C 4.24 g/m*3 7.2 C 0 km/h
1318 26-02-2009 23:13:00 7.2 C 4.16 g/m*3 7.2 C 0 km/h
1319 26-02-2009 23:25:00 7.2 C 4.24 g/m*3 7.2 C 0 km/h
1320 26-02-2009 23:37:01 7.1 C 4.21 g/m*3 7.1 C 0 km/h
1321 26-02-2009 23:49:01 7.3 C 4.11 g/m*3 7.3 C 0 km/h
1322 27-02-2009 00:01:01 7.2 C 4.08 g/m*3 7.2 C 0 km/h
1323 27-02-2009 00:13:01 7.2 C 4.16 g/m*3 7.2 C 0 km/h
1324 27-02-2009 00:25:01 7.2 C 4.08 g/m*3 7.2 C 0 km/h
1325 27-02-2009 00:37:01 7.2 C 4.16 g/m*3 7.2 C 0 km/h
Sensor: Nr:Datum:Temp:Abs-Feuchte:Windchill:Wind:
Aussen-T/F 1326 27-02-2009 00:49:01 7.2 C 4.16 g/m*3 7.2 C 0 km/h
1327 27-02-2009 01:01:01 7.2 C 4.24 g/m*3 7.2 C 0 km/h
1328 27-02-2009 01:13:01 7.2 C 4.24 g/m*3 7.2 C 0 km/h
1329 27-02-2009 01:25:01 7.3 C 4.27 g/m*3 7.3 C 0 km/h
1330 27-02-2009 01:37:01 7.2 C 4.32 g/m*3 7.2 C 0 km/h
1331 27-02-2009 01:49:01 7.2 C 4.32 g/m*3 7.2 C 0 km/h
1332 27-02-2009 02:01:01 7.2 C 4.32 g/m*3 7.2 C 0 km/h
1333 27-02-2009 02:13:01 7.1 C 4.52 g/m*3 7.1 C 0 km/h
1334 27-02-2009 02:25:01 7 C 4.57 g/m*3 7 C 0 km/h
1335 27-02-2009 02:37:01 7 C 4.65 g/m*3 7 C 0 km/h
1336 27-02-2009 02:49:01 7 C 4.65 g/m*3 7 C 0 km/h
1337 27-02-2009 03:01:01 7 C 4.65 g/m*3 7 C 0 km/h
1338 27-02-2009 03:13:02 7 C 4.65 g/m*3 7 C 0 km/h
1339 27-02-2009 03:25:02 6.9 C 4.85 g/m*3 6.9 C 0 km/h
1340 27-02-2009 03:37:02 6.4 C 5.22 g/m*3 6.4 C 0 km/h
1341 27-02-2009 03:49:02 6 C 5.37 g/m*3 6 C 0 km/h
1342 27-02-2009 04:01:02 5.9 C 5.62 g/m*3 5.9 C 0 km/h
1343 27-02-2009 04:13:02 6.1 C 5.63 g/m*3 6.1 C 0 km/h
1344 27-02-2009 04:25:02 5.9 C 5.7 g/m*3 5.9 C 0 km/h
1345 27-02-2009 04:37:02 5.9 C 5.77 g/m*3 5.9 C 0 km/h
1346 27-02-2009 04:49:02 5.9 C 5.84 g/m*3 5.9 C 0 km/h
1347 27-02-2009 05:01:02 5.7 C 5.84 g/m*3 5.7 C 0 km/h
1348 27-02-2009 05:13:02 5.6 C 5.94 g/m*3 5.6 C 0 km/h
1349 27-02-2009 05:25:02 5.6 C 6.01 g/m*3 5.6 C 0 km/h
1350 27-02-2009 05:37:02 5.6 C 6.08 g/m*3 5.6 C 0 km/h
Sensor: Nr:Datum:Temp:Abs-Feuchte:Windchill:Wind:
Aussen-T/F 1351 27-02-2009 05:49:02 5.6 C 6.08 g/m*3 5.6 C 0 km/h
1352 27-02-2009 06:01:02 5.6 C 6.08 g/m*3 5.6 C 0 km/h
1353 27-02-2009 06:13:02 5.6 C 6.01 g/m*3 5.6 C 0 km/h
1354 27-02-2009 06:25:02 5.6 C 6.01 g/m*3 5.6 C 0 km/h
1355 27-02-2009 06:37:02 5.6 C 5.94 g/m*3 5.6 C 0 km/h
1356 27-02-2009 06:49:02 5.6 C 5.94 g/m*3 5.6 C 0 km/h
1357 27-02-2009 07:01:00 5.6 C 5.87 g/m*3 5.6 C 0 km/h
1358 27-02-2009 07:13:00 5.7 C 5.84 g/m*3 5.7 C 0 km/h
1359 27-02-2009 07:25:00 5.9 C 5.77 g/m*3 5.9 C 0 km/h
1360 27-02-2009 07:37:00 6.1 C 5.63 g/m*3 6.1 C 0 km/h
1361 27-02-2009 07:49:00 6.1 C 5.48 g/m*3 6.1 C 0 km/h
1362 27-02-2009 08:01:59 6.2 C 5.37 g/m*3 6.2 C 0 km/h
1363 27-02-2009 08:13:59 6.4 C 5.29 g/m*3 6.4 C 0 km/h
1364 27-02-2009 08:25:00 6.5 C 5.17 g/m*3 6.5 C 0 km/h
1365 27-02-2009 08:37:00 6.6 C 5.13 g/m*3 6.6 C 0 km/h
1366 27-02-2009 08:49:59 6.7 C 5.09 g/m*3 6.7 C 0 km/h
1367 27-02-2009 09:00:59 6.8 C 5.05 g/m*3 6.8 C 0 km/h
1368 27-02-2009 09:12:59 6.9 C 5.08 g/m*3 6.9 C 0 km/h
1369 27-02-2009 09:25:59 7 C 4.96 g/m*3 7 C 0 km/h
1370 27-02-2009 09:37:59 7.2 C 4.95 g/m*3 7.2 C 0 km/h
1371 27-02-2009 09:49:58 7.7 C 4.95 g/m*3 7.7 C 0 km/h
1372 27-02-2009 10:01:59 7.9 C 4.85 g/m*3 7.9 C 0 km/h
1373 27-02-2009 10:13:59 8 C 4.71 g/m*3 8 C 0 km/h
1374 27-02-2009 10:25:58 8.1 C 4.66 g/m*3 8.1 C 0 km/h
1375 27-02-2009 10:37:58 8.6 C 4.81 g/m*3 8.6 C 0 km/h
Sensor: Nr:Datum:Temp:Abs-Feuchte:Windchill:Wind:
Aussen-T/F 1376 27-02-2009 10:49:58 8.6 C 4.55 g/m*3 8.6 C 0 km/h
1377 27-02-2009 11:01:58 8.7 C 4.58 g/m*3 8.7 C 0 km/h
1378 27-02-2009 11:13:58 8.7 C 4.5 g/m*3 8.7 C 0 km/h
1379 27-02-2009 11:25:57 8.7 C 4.67 g/m*3 8.7 C 0 km/h
1380 27-02-2009 11:37:58 8.5 C 4.7 g/m*3 8.5 C 0 km/h
1381 27-02-2009 11:49:58 8.3 C 4.97 g/m*3 8.3 C 0 km/h
1382 27-02-2009 12:01:57 8 C 5.13 g/m*3 8 C 0 km/h
1383 27-02-2009 12:13:57 7.7 C 5.43 g/m*3 7.7 C 0 km/h
1384 27-02-2009 12:25:58 7.4 C 5.57 g/m*3 7.4 C 0 km/h
1385 27-02-2009 12:37:57 7.2 C 5.73 g/m*3 7.2 C 0 km/h
1386 27-02-2009 12:49:57 7 C 5.97 g/m*3 7 C 0 km/h
1387 27-02-2009 13:01:56 6.8 C 6.12 g/m*3 6.8 C 0 km/h
1388 27-02-2009 13:13:56 6.8 C 6.27 g/m*3 6.8 C 0 km/h
1389 27-02-2009 13:25:57 7 C 6.35 g/m*3 7 C 0 km/h
1390 27-02-2009 13:37:56 7.1 C 6.4 g/m*3 7.1 C 0 km/h
1391 27-02-2009 13:49:56 7.1 C 6.24 g/m*3 7.1 C 0 km/h
1392 27-02-2009 14:01:57 7.1 C 6.16 g/m*3 7.1 C 0 km/h
1393 27-02-2009 14:13:57 7.3 C 6.16 g/m*3 7.3 C 0 km/h
1394 27-02-2009 14:25:56 7.5 C 6.24 g/m*3 7.5 C 0 km/h
1395 27-02-2009 14:37:56 7.5 C 6.24 g/m*3 7.5 C 0 km/h
1396 27-02-2009 14:49:56 7.7 C 6.24 g/m*3 7.7 C 0 km/h
1397 27-02-2009 15:01:56 7.5 C 5.92 g/m*3 7.5 C 0 km/h
1398 27-02-2009 15:13:56 7.6 C 5.88 g/m*3 7.6 C 0 km/h
1399 27-02-2009 15:25:56 7.5 C 5.76 g/m*3 7.5 C 0 km/h
1400 27-02-2009 15:37:55 7.7 C 5.76 g/m*3 7.7 C 0 km/h
Sensor: Nr:Datum:Temp:Abs-Feuchte:Windchill:Wind:
Aussen-T/F 1401 27-02-2009 15:49:56 7.9 C 5.75 g/m*3 7.9 C 0 km/h
1402 27-02-2009 16:01:55 8 C 5.54 g/m*3 8 C 0 km/h
1403 27-02-2009 16:13:55 8 C 5.46 g/m*3 8 C 0 km/h
1404 27-02-2009 16:25:55 8 C 5.46 g/m*3 8 C 0 km/h
1405 27-02-2009 16:37:55 8 C 5.29 g/m*3 8 C 0 km/h
1406 27-02-2009 16:49:54 7.9 C 5.42 g/m*3 7.9 C 0 km/h
1407 27-02-2009 17:01:54 7.9 C 5.42 g/m*3 7.9 C 0 km/h
1408 27-02-2009 17:13:54 7.9 C 5.42 g/m*3 7.9 C 0 km/h
1409 27-02-2009 17:25:55 7.8 C 5.55 g/m*3 7.8 C 0 km/h
1410 27-02-2009 17:37:54 7.6 C 5.64 g/m*3 7.6 C 0 km/h
1411 27-02-2009 17:49:54 7.5 C 5.68 g/m*3 7.5 C 0 km/h
1412 27-02-2009 18:01:54 7.5 C 5.68 g/m*3 7.5 C 0 km/h
1413 27-02-2009 18:13:54 7.6 C 5.72 g/m*3 7.6 C 0 km/h
1414 27-02-2009 18:25:54 7.6 C 5.64 g/m*3 7.6 C 0 km/h
1415 27-02-2009 18:37:53 7.6 C 5.64 g/m*3 7.6 C 0 km/h
1416 27-02-2009 18:49:54 7.6 C 5.64 g/m*3 7.6 C 0 km/h
1417 27-02-2009 19:01:53 7.6 C 5.56 g/m*3 7.6 C 0 km/h
1418 27-02-2009 19:13:53 7.7 C 5.59 g/m*3 7.7 C 0 km/h
1419 27-02-2009 19:25:53 7.8 C 5.63 g/m*3 7.8 C 0 km/h
1420 27-02-2009 19:37:54 7.8 C 5.55 g/m*3 7.8 C 0 km/h
1421 27-02-2009 19:49:53 7.9 C 5.59 g/m*3 7.9 C 0 km/h
1422 27-02-2009 20:01:53 7.8 C 5.55 g/m*3 7.8 C 0 km/h
1423 27-02-2009 20:13:53 7.8 C 5.55 g/m*3 7.8 C 0 km/h
1424 27-02-2009 20:25:53 7.7 C 5.68 g/m*3 7.7 C 0 km/h
1425 27-02-2009 20:37:53 7.7 C 5.68 g/m*3 7.7 C 0 km/h
Sensor: Nr:Datum:Temp:Abs-Feuchte:Windchill:Wind:
Aussen-T/F 1426 27-02-2009 20:49:52 7.5 C 5.76 g/m*3 7.5 C 0 km/h
1427 27-02-2009 21:01:53 7.2 C 5.89 g/m*3 7.2 C 0 km/h
1428 27-02-2009 21:13:54 7 C 6.04 g/m*3 7 C 0 km/h
1429 27-02-2009 21:25:52 7 C 6.2 g/m*3 7 C 0 km/h
1430 27-02-2009 21:37:52 6.9 C 6.31 g/m*3 6.9 C 0 km/h
1431 27-02-2009 21:49:52 6.8 C 6.42 g/m*3 6.8 C 0 km/h
1432 27-02-2009 22:01:52 6.7 C 6.38 g/m*3 6.7 C 0 km/h
1433 27-02-2009 22:13:52 6.7 C 6.46 g/m*3 6.7 C 0 km/h
1434 27-02-2009 22:25:52 6.8 C 6.42 g/m*3 6.8 C 0 km/h
1435 27-02-2009 22:37:51 6.9 C 6.47 g/m*3 6.9 C 0 km/h
1436 27-02-2009 22:49:52 6.9 C 6.39 g/m*3 6.9 C 0 km/h
1437 27-02-2009 23:01:51 6.9 C 6.31 g/m*3 6.9 C 0 km/h
1438 27-02-2009 23:13:51 6.9 C 6.24 g/m*3 6.9 C 0 km/h
1439 27-02-2009 23:25:51 6.9 C 6.31 g/m*3 6.9 C 0 km/h
1440 27-02-2009 23:37:51 6.8 C 6.27 g/m*3 6.8 C 0 km/h
1441 27-02-2009 23:50:52 6.9 C 6.31 g/m*3 6.9 C 0 km/h
1442 28-02-2009 00:02:52 6.9 C 6.31 g/m*3 6.9 C 0 km/h
1443 28-02-2009 00:14:52 6.9 C 6.24 g/m*3 6.9 C 0 km/h
1444 28-02-2009 00:26:53 6.9 C 6.24 g/m*3 6.9 C 0 km/h
1445 28-02-2009 00:38:53 6.9 C 6.16 g/m*3 6.9 C 0 km/h
1446 28-02-2009 00:50:53 6.9 C 6.16 g/m*3 6.9 C 0 km/h
1447 28-02-2009 01:02:53 6.9 C 6.08 g/m*3 6.9 C 0 km/h
1448 28-02-2009 01:14:53 6.9 C 6.08 g/m*3 6.9 C 0 km/h
1449 28-02-2009 01:26:53 6.9 C 6.08 g/m*3 6.9 C 0 km/h
1450 28-02-2009 01:38:53 7 C 5.97 g/m*3 7 C 0 km/h
Sensor: Nr:Datum:Temp:Abs-Feuchte:Windchill:Wind:
Aussen-T/F 1451 28-02-2009 01:50:53 7 C 5.97 g/m*3 7 C 0 km/h
1452 28-02-2009 02:02:53 7.1 C 5.93 g/m*3 7.1 C 0 km/h
1453 28-02-2009 02:14:53 7.1 C 5.93 g/m*3 7.1 C 0 km/h
1454 28-02-2009 02:26:53 7.3 C 5.93 g/m*3 7.3 C 0 km/h
1455 28-02-2009 02:38:53 7.4 C 5.88 g/m*3 7.4 C 0 km/h
1456 28-02-2009 02:50:53 7.5 C 5.84 g/m*3 7.5 C 0 km/h
1457 28-02-2009 03:02:53 7.5 C 5.84 g/m*3 7.5 C 0 km/h
1458 28-02-2009 03:14:53 7.5 C 5.84 g/m*3 7.5 C 0 km/h
1459 28-02-2009 03:26:53 7.5 C 5.84 g/m*3 7.5 C 0 km/h
1460 28-02-2009 03:38:53 7.5 C 5.84 g/m*3 7.5 C 0 km/h
1461 28-02-2009 03:50:53 7.5 C 5.84 g/m*3 7.5 C 0 km/h
1462 28-02-2009 04:02:54 7.6 C 5.88 g/m*3 7.6 C 0 km/h
1463 28-02-2009 04:14:54 7.6 C 5.88 g/m*3 7.6 C 0 km/h
1464 28-02-2009 04:26:54 7.6 C 5.8 g/m*3 7.6 C 0 km/h
1465 28-02-2009 04:38:54 7.6 C 5.8 g/m*3 7.6 C 0 km/h
1466 28-02-2009 04:50:54 7.7 C 5.84 g/m*3 7.7 C 0 km/h
1467 28-02-2009 05:02:54 7.7 C 5.84 g/m*3 7.7 C 0 km/h
1468 28-02-2009 05:14:54 7.8 C 5.79 g/m*3 7.8 C 0 km/h
1469 28-02-2009 05:26:54 7.8 C 5.79 g/m*3 7.8 C 0 km/h
1470 28-02-2009 05:38:54 7.8 C 5.79 g/m*3 7.8 C 0 km/h
1471 28-02-2009 05:50:54 7.7 C 5.76 g/m*3 7.7 C 0 km/h
1472 28-02-2009 06:02:54 7.6 C 5.8 g/m*3 7.6 C 0 km/h
1473 28-02-2009 06:14:54 7.6 C 5.8 g/m*3 7.6 C 0 km/h
1474 28-02-2009 06:26:54 7.5 C 5.76 g/m*3 7.5 C 0 km/h
1475 28-02-2009 06:38:54 7.5 C 5.84 g/m*3 7.5 C 0 km/h
Sensor: Nr:Datum:Temp:Abs-Feuchte:Windchill:Wind:
Aussen-T/F 1476 28-02-2009 06:50:54 7.4 C 5.81 g/m*3 7.4 C 0 km/h
1477 28-02-2009 07:02:54 7.4 C 5.81 g/m*3 7.4 C 0 km/h
1478 28-02-2009 07:14:54 7.4 C 5.88 g/m*3 7.4 C 0 km/h
1479 28-02-2009 07:26:54 7.3 C 5.85 g/m*3 7.3 C 0 km/h
1480 28-02-2009 07:38:54 7.3 C 5.93 g/m*3 7.3 C 0 km/h
1481 28-02-2009 07:50:55 7.4 C 5.96 g/m*3 7.4 C 0 km/h
1482 28-02-2009 08:02:51 7.5 C 5.92 g/m*3 7.5 C 0 km/h
1483 28-02-2009 08:14:51 7.6 C 5.96 g/m*3 7.6 C 0 km/h
1484 28-02-2009 08:26:51 7.6 C 5.88 g/m*3 7.6 C 0 km/h
1485 28-02-2009 08:38:51 7.9 C 6 g/m*3 7.9 C 0 km/h
1486 28-02-2009 08:50:51 8 C 5.95 g/m*3 8 C 0 km/h
1487 28-02-2009 09:02:51 8.1 C 5.91 g/m*3 8.1 C 0 km/h
1488 28-02-2009 09:14:51 8.2 C 5.95 g/m*3 8.2 C 0 km/h
1489 28-02-2009 09:26:51 9 C 5.91 g/m*3 9 C 0 km/h
1490 28-02-2009 09:38:51 9.5 C 5.83 g/m*3 9.5 C 0 km/h
1491 28-02-2009 09:50:51 9.3 C 5.75 g/m*3 9.3 C 0 km/h
1492 28-02-2009 10:02:51 9.3 C 5.75 g/m*3 9.3 C 0 km/h
1493 28-02-2009 10:14:50 9.7 C 5.81 g/m*3 9.7 C 0 km/h
1494 28-02-2009 10:26:50 9.8 C 5.75 g/m*3 9.8 C 0 km/h
1495 28-02-2009 10:38:50 9.7 C 5.81 g/m*3 9.7 C 0 km/h
1496 28-02-2009 10:50:50 9.8 C 5.75 g/m*3 9.8 C 0 km/h
1497 28-02-2009 11:02:50 9.9 C 5.79 g/m*3 9.9 C 0 km/h
1498 28-02-2009 11:14:49 10.1 C 5.77 g/m*3 10.1 C 0 km/h
1499 28-02-2009 11:26:49 10.8 C 5.83 g/m*3 10.8 C 0 km/h
1500 28-02-2009 11:38:50 11.2 C 5.78 g/m*3 11.2 C 0 km/h
Sensor: Nr:Datum:Temp:Abs-Feuchte:Windchill:Wind:
Aussen-T/F 1501 28-02-2009 11:50:49 10.7 C 5.8 g/m*3 10.7 C 0 km/h
1502 28-02-2009 12:02:49 10.3 C 5.75 g/m*3 10.3 C 0 km/h
1503 28-02-2009 12:14:50 10.3 C 5.84 g/m*3 10.3 C 0 km/h
1504 28-02-2009 12:26:50 11 C 5.81 g/m*3 11 C 0 km/h
1505 28-02-2009 12:38:49 11.4 C 5.75 g/m*3 11.4 C 0 km/h
1506 28-02-2009 12:50:49 12 C 5.75 g/m*3 12 C 0 km/h
1507 28-02-2009 13:02:49 12.2 C 5.61 g/m*3 12.2 C 0 km/h
1508 28-02-2009 13:14:49 12.4 C 5.46 g/m*3 12.4 C 0 km/h
1509 28-02-2009 13:26:49 12.7 C 5.57 g/m*3 12.7 C 0 km/h
1510 28-02-2009 13:38:49 13.5 C 5.5 g/m*3 13.5 C 0 km/h
1511 28-02-2009 13:50:49 13.9 C 5.39 g/m*3 13.9 C 0 km/h
1512 28-02-2009 14:02:48 14.2 C 5.13 g/m*3 14.2 C 0 km/h
1513 28-02-2009 14:14:48 14.3 C 5.16 g/m*3 14.3 C 0 km/h
1514 28-02-2009 14:26:49 14 C 5.19 g/m*3 14 C 0 km/h
1515 28-02-2009 14:38:47 14.2 C 5.01 g/m*3 14.2 C 0 km/h
1516 28-02-2009 14:50:48 14.9 C 4.84 g/m*3 14.9 C 0 km/h
1517 28-02-2009 15:02:47 15.3 C 4.7 g/m*3 15.3 C 0 km/h
1518 28-02-2009 15:14:47 16.1 C 4.8 g/m*3 16.1 C 0 km/h
1519 28-02-2009 15:26:47 16.8 C 4.86 g/m*3 16.8 C 0 km/h
1520 28-02-2009 15:38:48 18 C 4.76 g/m*3 18 C 0 km/h
1521 28-02-2009 15:50:47 18.1 C 4.79 g/m*3 18.1 C 0 km/h
1522 28-02-2009 16:02:47 17.6 C 4.95 g/m*3 17.6 C 0 km/h
1523 28-02-2009 16:14:47 16.8 C 5.15 g/m*3 16.8 C 0 km/h
1524 28-02-2009 16:26:47 16.6 C 5.23 g/m*3 16.6 C 0 km/h
1525 28-02-2009 16:38:47 16.1 C 5.21 g/m*3 16.1 C 0 km/h
Sensor: Nr:Datum:Temp:Abs-Feuchte:Windchill:Wind:
Aussen-T/F 1526 28-02-2009 16:50:47 15.6 C 5.32 g/m*3 15.6 C 0 km/h
1527 28-02-2009 17:02:48 15.2 C 5.32 g/m*3 15.2 C 0 km/h
1528 28-02-2009 17:14:46 15 C 5.39 g/m*3 15 C 0 km/h
1529 28-02-2009 17:26:46 14.7 C 5.79 g/m*3 14.7 C 0 km/h
1530 28-02-2009 17:38:47 14.3 C 5.77 g/m*3 14.3 C 0 km/h
1531 28-02-2009 17:50:46 13.8 C 5.84 g/m*3 13.8 C 0 km/h
1532 28-02-2009 18:02:46 13.4 C 5.81 g/m*3 13.4 C 0 km/h
1533 28-02-2009 18:14:46 12.9 C 5.86 g/m*3 12.9 C 0 km/h
1534 28-02-2009 18:26:46 12.2 C 5.83 g/m*3 12.2 C 0 km/h
1535 28-02-2009 18:38:46 12 C 5.86 g/m*3 12 C 0 km/h
1536 28-02-2009 18:50:45 11.7 C 5.86 g/m*3 11.7 C 0 km/h
1537 28-02-2009 19:02:45 11.6 C 5.82 g/m*3 11.6 C 0 km/h
1538 28-02-2009 19:14:46 11.4 C 5.75 g/m*3 11.4 C 0 km/h
1539 28-02-2009 19:26:46 11.2 C 5.78 g/m*3 11.2 C 0 km/h
1540 28-02-2009 19:38:45 11.1 C 5.74 g/m*3 11.1 C 0 km/h
1541 28-02-2009 19:50:44 11 C 5.71 g/m*3 11 C 0 km/h
1542 28-02-2009 20:02:45 10.7 C 5.8 g/m*3 10.7 C 0 km/h
1543 28-02-2009 20:14:45 10.2 C 5.71 g/m*3 10.2 C 0 km/h
1544 28-02-2009 20:26:45 10 C 5.73 g/m*3 10 C 0 km/h
1545 28-02-2009 20:38:44 9.7 C 5.81 g/m*3 9.7 C 0 km/h
1546 28-02-2009 20:50:45 9.6 C 5.77 g/m*3 9.6 C 0 km/h
1547 28-02-2009 21:02:44 9.5 C 5.83 g/m*3 9.5 C 0 km/h
1548 28-02-2009 21:14:45 9.4 C 5.88 g/m*3 9.4 C 0 km/h
1549 28-02-2009 21:26:45 9.2 C 5.8 g/m*3 9.2 C 0 km/h
1550 28-02-2009 21:38:44 9.1 C 5.86 g/m*3 9.1 C 0 km/h
Sensor: Nr:Datum:Temp:Abs-Feuchte:Windchill:Wind:
Aussen-T/F 1551 28-02-2009 21:50:44 8.8 C 5.83 g/m*3 8.8 C 0 km/h
1552 28-02-2009 22:02:44 8.7 C 5.88 g/m*3 8.7 C 0 km/h
1553 28-02-2009 22:14:44 8.7 C 5.97 g/m*3 8.7 C 0 km/h
1554 28-02-2009 22:26:44 8.7 C 5.97 g/m*3 8.7 C 0 km/h
1555 28-02-2009 22:38:43 8.4 C 5.85 g/m*3 8.4 C 0 km/h
1556 28-02-2009 22:51:44 8.2 C 5.86 g/m*3 8.2 C 0 km/h
1557 28-02-2009 23:03:44 7.9 C 5.91 g/m*3 7.9 C 0 km/h
1558 28-02-2009 23:15:44 7.7 C 5.84 g/m*3 7.7 C 0 km/h
1559 28-02-2009 23:27:44 7.5 C 5.84 g/m*3 7.5 C 0 km/h
1560 28-02-2009 23:39:44 7.4 C 5.88 g/m*3 7.4 C 0 km/h
1561 28-02-2009 23:51:45 7.2 C 5.81 g/m*3 7.2 C 0 km/h
1562 01-03-2009 00:03:45 7.1 C 5.85 g/m*3 7.1 C 0 km/h
1563 01-03-2009 00:15:45 7 C 5.81 g/m*3 7 C 0 km/h
1564 01-03-2009 00:27:45 7.4 C 6.12 g/m*3 7.4 C 0 km/h
1565 01-03-2009 00:39:45 7.7 C 6.16 g/m*3 7.7 C 0 km/h
1566 01-03-2009 00:51:45 7.7 C 6.08 g/m*3 7.7 C 0 km/h
1567 01-03-2009 01:03:45 7.5 C 5.92 g/m*3 7.5 C 0 km/h
1568 01-03-2009 01:15:45 7.6 C 5.96 g/m*3 7.6 C 0 km/h
1569 01-03-2009 01:27:45 7.7 C 6 g/m*3 7.7 C 0 km/h
1570 01-03-2009 01:39:45 7.8 C 6.04 g/m*3 7.8 C 0 km/h
1571 01-03-2009 01:51:45 7.9 C 6.08 g/m*3 7.9 C 0 km/h
1572 01-03-2009 02:03:45 7.8 C 5.96 g/m*3 7.8 C 0 km/h
1573 01-03-2009 02:15:45 7.8 C 5.96 g/m*3 7.8 C 0 km/h
1574 01-03-2009 02:27:45 7.9 C 6 g/m*3 7.9 C 0 km/h
1575 01-03-2009 02:39:45 7.7 C 5.92 g/m*3 7.7 C 0 km/h
Sensor: Nr:Datum:Temp:Abs-Feuchte:Windchill:Wind:
Aussen-T/F 1576 01-03-2009 02:51:45 7.6 C 5.88 g/m*3 7.6 C 0 km/h
1577 01-03-2009 03:03:45 7.5 C 5.84 g/m*3 7.5 C 0 km/h
1578 01-03-2009 03:15:45 7.2 C 5.81 g/m*3 7.2 C 0 km/h
1579 01-03-2009 03:27:45 6.8 C 5.74 g/m*3 6.8 C 0 km/h
1580 01-03-2009 03:39:46 6.7 C 5.85 g/m*3 6.7 C 0 km/h
1581 01-03-2009 03:51:46 6.5 C 5.85 g/m*3 6.5 C 0 km/h
1582 01-03-2009 04:03:46 6.5 C 5.85 g/m*3 6.5 C 0 km/h
1583 01-03-2009 04:15:46 6.3 C 5.77 g/m*3 6.3 C 0 km/h
1584 01-03-2009 04:27:46 6.2 C 5.74 g/m*3 6.2 C 0 km/h
1585 01-03-2009 04:39:46 6.2 C 5.81 g/m*3 6.2 C 0 km/h
1586 01-03-2009 04:51:46 6 C 5.66 g/m*3 6 C 0 km/h
1587 01-03-2009 05:03:46 6 C 5.73 g/m*3 6 C 0 km/h
1588 01-03-2009 05:15:46 6.4 C 5.96 g/m*3 6.4 C 0 km/h
1589 01-03-2009 05:27:46 6.4 C 5.96 g/m*3 6.4 C 0 km/h
1590 01-03-2009 05:39:46 6.4 C 5.89 g/m*3 6.4 C 0 km/h
1591 01-03-2009 05:51:46 6.3 C 5.77 g/m*3 6.3 C 0 km/h
1592 01-03-2009 06:03:46 6.3 C 5.85 g/m*3 6.3 C 0 km/h
1593 01-03-2009 06:15:46 6.5 C 5.92 g/m*3 6.5 C 0 km/h
1594 01-03-2009 06:27:46 6.6 C 5.96 g/m*3 6.6 C 0 km/h
1595 01-03-2009 06:39:46 6.7 C 6 g/m*3 6.7 C 0 km/h
1596 01-03-2009 06:51:46 6.8 C 6.04 g/m*3 6.8 C 0 km/h
1597 01-03-2009 07:03:46 6.8 C 6.04 g/m*3 6.8 C 0 km/h
1598 01-03-2009 07:15:46 6.9 C 6 g/m*3 6.9 C 0 km/h
1599 01-03-2009 07:27:47 6.8 C 5.97 g/m*3 6.8 C 0 km/h
1600 01-03-2009 07:39:47 6.9 C 6 g/m*3 6.9 C 0 km/h
Sensor: Nr:Datum:Temp:Abs-Feuchte:Windchill:Wind:
Aussen-T/F 1601 01-03-2009 07:51:47 7 C 5.97 g/m*3 7 C 0 km/h
1602 01-03-2009 08:03:47 7.2 C 6.04 g/m*3 7.2 C 0 km/h
1603 01-03-2009 08:15:47 7.4 C 6.04 g/m*3 7.4 C 0 km/h
1604 01-03-2009 08:27:47 7.6 C 6.04 g/m*3 7.6 C 0 km/h
1605 01-03-2009 08:39:47 7.8 C 6.12 g/m*3 7.8 C 0 km/h
1606 01-03-2009 08:51:47 7.9 C 6 g/m*3 7.9 C 0 km/h
1607 01-03-2009 09:03:43 8 C 5.87 g/m*3 8 C 0 km/h
1608 01-03-2009 09:15:44 8.1 C 5.74 g/m*3 8.1 C 0 km/h
1609 01-03-2009 09:27:44 8.4 C 5.85 g/m*3 8.4 C 0 km/h
1610 01-03-2009 09:39:44 8.6 C 5.76 g/m*3 8.6 C 0 km/h
1611 01-03-2009 09:51:43 8.7 C 5.62 g/m*3 8.7 C 0 km/h
1612 01-03-2009 10:03:43 9.1 C 5.68 g/m*3 9.1 C 0 km/h
1613 01-03-2009 10:15:43 9.3 C 5.66 g/m*3 9.3 C 0 km/h
1614 01-03-2009 10:27:43 9.6 C 5.59 g/m*3 9.6 C 0 km/h
1615 01-03-2009 10:39:43 10 C 5.45 g/m*3 10 C 0 km/h
1616 01-03-2009 10:51:43 10.1 C 5.48 g/m*3 10.1 C 0 km/h
1617 01-03-2009 11:03:43 10.7 C 5.4 g/m*3 10.7 C 0 km/h
1618 01-03-2009 11:15:42 10.5 C 5.43 g/m*3 10.5 C 0 km/h
1619 01-03-2009 11:27:42 10.6 C 5.37 g/m*3 10.6 C 0 km/h
1620 01-03-2009 11:39:42 10.9 C 5.37 g/m*3 10.9 C 0 km/h
1621 01-03-2009 11:51:42 11.5 C 5.47 g/m*3 11.5 C 0 km/h
1622 01-03-2009 12:03:42 11.7 C 5.33 g/m*3 11.7 C 0 km/h
1623 01-03-2009 12:15:42 11.8 C 5.26 g/m*3 11.8 C 0 km/h
1624 01-03-2009 12:27:42 11.6 C 5.2 g/m*3 11.6 C 0 km/h
1625 01-03-2009 12:39:42 12.1 C 5.15 g/m*3 12.1 C 0 km/h
Sensor: Nr:Datum:Temp:Abs-Feuchte:Windchill:Wind:
Aussen-T/F 1626 01-03-2009 12:51:42 12.8 C 5.15 g/m*3 12.8 C 0 km/h
1627 01-03-2009 13:03:41 13.3 C 5.08 g/m*3 13.3 C 0 km/h
1628 01-03-2009 13:15:42 13.5 C 5.03 g/m*3 13.5 C 0 km/h
1629 01-03-2009 13:27:42 13.8 C 5.12 g/m*3 13.8 C 0 km/h
1630 01-03-2009 13:39:41 13.3 C 4.97 g/m*3 13.3 C 0 km/h
1631 01-03-2009 13:51:41 13.6 C 5.06 g/m*3 13.6 C 0 km/h
1632 01-03-2009 14:03:41 13.9 C 5.15 g/m*3 13.9 C 0 km/h
1633 01-03-2009 14:15:41 13.9 C 5.04 g/m*3 13.9 C 0 km/h
1634 01-03-2009 14:27:41 13.9 C 5.04 g/m*3 13.9 C 0 km/h
1635 01-03-2009 14:39:41 13.9 C 5.04 g/m*3 13.9 C 0 km/h
1636 01-03-2009 14:51:41 14.2 C 5.01 g/m*3 14.2 C 0 km/h
1637 01-03-2009 15:03:41 14.5 C 5.1 g/m*3 14.5 C 0 km/h
1638 01-03-2009 15:15:40 14.4 C 5.07 g/m*3 14.4 C 0 km/h
1639 01-03-2009 15:27:40 15.1 C 5.03 g/m*3 15.1 C 0 km/h
1640 01-03-2009 15:39:40 15.2 C 5.06 g/m*3 15.2 C 0 km/h
1641 01-03-2009 15:51:40 14.8 C 5.07 g/m*3 14.8 C 0 km/h
1642 01-03-2009 16:03:40 14.5 C 4.97 g/m*3 14.5 C 0 km/h
1643 01-03-2009 16:15:39 14.1 C 4.85 g/m*3 14.1 C 0 km/h
1644 01-03-2009 16:27:39 13.7 C 4.86 g/m*3 13.7 C 0 km/h
1645 01-03-2009 16:39:40 13.5 C 4.91 g/m*3 13.5 C 0 km/h
1646 01-03-2009 16:51:39 13.3 C 4.97 g/m*3 13.3 C 0 km/h
1647 01-03-2009 17:03:39 13.2 C 5.05 g/m*3 13.2 C 0 km/h
1648 01-03-2009 17:15:40 13 C 4.99 g/m*3 13 C 0 km/h
1649 01-03-2009 17:27:40 12.8 C 5.15 g/m*3 12.8 C 0 km/h
1650 01-03-2009 17:39:39 12.5 C 5.06 g/m*3 12.5 C 0 km/h
Sensor: Nr:Datum:Temp:Abs-Feuchte:Windchill:Wind:
Aussen-T/F 1651 01-03-2009 17:51:39 12.4 C 5.24 g/m*3 12.4 C 0 km/h
1652 01-03-2009 18:03:38 11.8 C 5.58 g/m*3 11.8 C 0 km/h
1653 01-03-2009 18:15:39 11.4 C 5.65 g/m*3 11.4 C 0 km/h
1654 01-03-2009 18:27:39 11.2 C 5.68 g/m*3 11.2 C 0 km/h
1655 01-03-2009 18:39:38 11.1 C 5.54 g/m*3 11.1 C 0 km/h
1656 01-03-2009 18:51:38 10.9 C 5.67 g/m*3 10.9 C 0 km/h
1657 01-03-2009 19:03:38 10.9 C 5.77 g/m*3 10.9 C 0 km/h
1658 01-03-2009 19:15:38 11 C 5.61 g/m*3 11 C 0 km/h
1659 01-03-2009 19:27:38 11 C 5.61 g/m*3 11 C 0 km/h
1660 01-03-2009 19:39:38 11.2 C 5.57 g/m*3 11.2 C 0 km/h
1661 01-03-2009 19:51:38 11.5 C 5.37 g/m*3 11.5 C 0 km/h
1662 01-03-2009 20:03:38 11.9 C 5.3 g/m*3 11.9 C 0 km/h
1663 01-03-2009 20:15:37 12 C 5.12 g/m*3 12 C 0 km/h
1664 01-03-2009 20:27:37 12 C 5.12 g/m*3 12 C 0 km/h
1665 01-03-2009 20:39:37 11.8 C 5.16 g/m*3 11.8 C 0 km/h
1666 01-03-2009 20:51:37 11.8 C 5.16 g/m*3 11.8 C 0 km/h
1667 01-03-2009 21:03:37 11.7 C 5.12 g/m*3 11.7 C 0 km/h
1668 01-03-2009 21:15:37 11.8 C 5.16 g/m*3 11.8 C 0 km/h
1669 01-03-2009 21:27:37 11.6 C 5.2 g/m*3 11.6 C 0 km/h
1670 01-03-2009 21:39:37 11.4 C 5.23 g/m*3 11.4 C 0 km/h
1671 01-03-2009 21:51:36 11.4 C 5.23 g/m*3 11.4 C 0 km/h
1672 01-03-2009 22:03:36 11.1 C 5.54 g/m*3 11.1 C 0 km/h
1673 01-03-2009 22:15:37 10.5 C 6.01 g/m*3 10.5 C 0 km/h
1674 01-03-2009 22:27:37 10.1 C 6.34 g/m*3 10.1 C 0 km/h
1675 01-03-2009 22:40:37 9.8 C 6.49 g/m*3 9.8 C 0 km/h
Sensor: Nr:Datum:Temp:Abs-Feuchte:Windchill:Wind:
Aussen-T/F 1676 01-03-2009 22:52:37 9.7 C 6.45 g/m*3 9.7 C 0 km/h
1677 01-03-2009 23:04:37 9.5 C 6.55 g/m*3 9.5 C 0 km/h
1678 01-03-2009 23:16:37 9.5 C 6.64 g/m*3 9.5 C 0 km/h
1679 01-03-2009 23:28:37 9.6 C 6.5 g/m*3 9.6 C 0 km/h
1680 01-03-2009 23:40:37 9.8 C 6.31 g/m*3 9.8 C 0 km/h
1681 01-03-2009 23:52:37 9.8 C 6.31 g/m*3 9.8 C 0 km/h
1682 02-03-2009 00:04:37 9.8 C 6.22 g/m*3 9.8 C 0 km/h
1683 02-03-2009 00:16:38 9.8 C 6.31 g/m*3 9.8 C 0 km/h
1684 02-03-2009 00:28:38 9.5 C 6.46 g/m*3 9.5 C 0 km/h
1685 02-03-2009 00:40:38 9.2 C 6.52 g/m*3 9.2 C 0 km/h
1686 02-03-2009 00:52:38 9.1 C 6.57 g/m*3 9.1 C 0 km/h
1687 02-03-2009 01:04:38 9.1 C 6.57 g/m*3 9.1 C 0 km/h
1688 02-03-2009 01:16:38 9.1 C 6.57 g/m*3 9.1 C 0 km/h
1689 02-03-2009 01:28:38 9.1 C 6.57 g/m*3 9.1 C 0 km/h
1690 02-03-2009 01:40:38 9.1 C 6.48 g/m*3 9.1 C 0 km/h
1691 02-03-2009 01:52:38 9 C 6.61 g/m*3 9 C 0 km/h
1692 02-03-2009 02:04:38 8.9 C 6.66 g/m*3 8.9 C 0 km/h
1693 02-03-2009 02:16:38 8.8 C 6.7 g/m*3 8.8 C 0 km/h
1694 02-03-2009 02:28:38 8.7 C 6.75 g/m*3 8.7 C 0 km/h
1695 02-03-2009 02:40:38 8.6 C 6.7 g/m*3 8.6 C 0 km/h
1696 02-03-2009 02:52:38 8.6 C 6.79 g/m*3 8.6 C 0 km/h
1697 02-03-2009 03:04:38 8.7 C 6.92 g/m*3 8.7 C 0 km/h
1698 02-03-2009 03:16:38 8.5 C 7 g/m*3 8.5 C 0 km/h
1699 02-03-2009 03:28:38 8.5 C 7 g/m*3 8.5 C 0 km/h
1700 02-03-2009 03:40:38 8.5 C 7.09 g/m*3 8.5 C 0 km/h
Sensor: Nr:Datum:Temp:Abs-Feuchte:Windchill:Wind:
Aussen-T/F 1701 02-03-2009 03:52:38 8.4 C 7.04 g/m*3 8.4 C 0 km/h
1702 02-03-2009 04:04:39 8.4 C 7.13 g/m*3 8.4 C 0 km/h
1703 02-03-2009 04:16:39 8.4 C 7.21 g/m*3 8.4 C 0 km/h
1704 02-03-2009 04:28:39 8.3 C 7.25 g/m*3 8.3 C 0 km/h
1705 02-03-2009 04:40:39 8.3 C 7.25 g/m*3 8.3 C 0 km/h
1706 02-03-2009 04:52:39 8.3 C 7.33 g/m*3 8.3 C 0 km/h
1707 02-03-2009 05:04:39 8.2 C 7.29 g/m*3 8.2 C 0 km/h
1708 02-03-2009 05:16:39 8.2 C 7.29 g/m*3 8.2 C 0 km/h
1709 02-03-2009 05:28:39 8.2 C 7.29 g/m*3 8.2 C 0 km/h
1710 02-03-2009 05:40:39 8.1 C 7.24 g/m*3 8.1 C 0 km/h
1711 02-03-2009 05:52:39 8.1 C 7.16 g/m*3 8.1 C 0 km/h
1712 02-03-2009 06:04:39 8.2 C 7.2 g/m*3 8.2 C 0 km/h
1713 02-03-2009 06:16:39 8.2 C 7.12 g/m*3 8.2 C 0 km/h
1714 02-03-2009 06:28:39 8.2 C 7.12 g/m*3 8.2 C 0 km/h
1715 02-03-2009 06:40:39 8.1 C 7.07 g/m*3 8.1 C 0 km/h
1716 02-03-2009 06:52:39 8.2 C 7.12 g/m*3 8.2 C 0 km/h
1717 02-03-2009 07:04:37 8.2 C 7.2 g/m*3 8.2 C 0 km/h
1718 02-03-2009 07:16:37 8.4 C 7.21 g/m*3 8.4 C 0 km/h
1719 02-03-2009 07:28:37 8.4 C 7.13 g/m*3 8.4 C 0 km/h
1720 02-03-2009 07:40:37 8.4 C 7.04 g/m*3 8.4 C 0 km/h
1721 02-03-2009 07:52:38 8.3 C 6.91 g/m*3 8.3 C 0 km/h
1722 02-03-2009 08:04:37 8.3 C 7 g/m*3 8.3 C 0 km/h
1723 02-03-2009 08:16:36 8.3 C 7 g/m*3 8.3 C 0 km/h
1724 02-03-2009 08:28:37 8.2 C 7.03 g/m*3 8.2 C 0 km/h
1725 02-03-2009 08:40:36 8.2 C 7.03 g/m*3 8.2 C 0 km/h
Sensor: Nr:Datum:Temp:Abs-Feuchte:Windchill:Wind:
Aussen-T/F 1726 02-03-2009 08:52:36 8.1 C 6.99 g/m*3 8.1 C 0 km/h
1727 02-03-2009 09:04:36 8.1 C 7.07 g/m*3 8.1 C 0 km/h
1728 02-03-2009 09:16:35 8.1 C 7.07 g/m*3 8.1 C 0 km/h
1729 02-03-2009 09:28:35 8.1 C 7.07 g/m*3 8.1 C 0 km/h
1730 02-03-2009 09:40:36 8.1 C 7.16 g/m*3 8.1 C 0 km/h
1731 02-03-2009 09:52:35 8.1 C 7.16 g/m*3 8.1 C 0 km/h
1732 02-03-2009 10:04:35 8.1 C 7.24 g/m*3 8.1 C 0 km/h
1733 02-03-2009 10:16:36 8.2 C 7.29 g/m*3 8.2 C 0 km/h
1734 02-03-2009 10:28:36 8 C 7.19 g/m*3 8 C 0 km/h
1735 02-03-2009 10:40:35 8.1 C 7.07 g/m*3 8.1 C 0 km/h
1736 02-03-2009 10:52:35 8.2 C 7.03 g/m*3 8.2 C 0 km/h
1737 02-03-2009 11:04:35 8.2 C 6.95 g/m*3 8.2 C 0 km/h
1738 02-03-2009 11:16:35 8.1 C 6.82 g/m*3 8.1 C 0 km/h
1739 02-03-2009 11:28:35 8 C 6.7 g/m*3 8 C 0 km/h
1740 02-03-2009 11:40:34 8 C 6.7 g/m*3 8 C 0 km/h
1741 02-03-2009 11:52:35 8.2 C 6.87 g/m*3 8.2 C 0 km/h
1742 02-03-2009 12:04:34 8.6 C 6.96 g/m*3 8.6 C 0 km/h
1743 02-03-2009 12:16:34 8.8 C 6.7 g/m*3 8.8 C 0 km/h
1744 02-03-2009 12:28:34 8.9 C 6.31 g/m*3 8.9 C 0 km/h
1745 02-03-2009 12:40:34 8.7 C 6.05 g/m*3 8.7 C 0 km/h
1746 02-03-2009 12:52:34 9.5 C 6.1 g/m*3 9.5 C 0 km/h
1747 02-03-2009 13:04:34 9.2 C 5.45 g/m*3 9.2 C 0 km/h
1748 02-03-2009 13:16:33 9 C 5.2 g/m*3 9 C 0 km/h
1749 02-03-2009 13:28:33 9.3 C 5.3 g/m*3 9.3 C 0 km/h
1750 02-03-2009 13:40:34 9.8 C 5.38 g/m*3 9.8 C 0 km/h
Sensor: Nr:Datum:Temp:Abs-Feuchte:Windchill:Wind:
Aussen-T/F 1751 02-03-2009 13:52:33 10.6 C 5.08 g/m*3 10.6 C 0 km/h
1752 02-03-2009 14:04:33 10.1 C 4.54 g/m*3 10.1 C 0 km/h
1753 02-03-2009 14:16:33 10.2 C 4.57 g/m*3 10.2 C 0 km/h
1754 02-03-2009 14:28:33 10.7 C 4.62 g/m*3 10.7 C 0 km/h
1755 02-03-2009 14:40:33 10.4 C 4.43 g/m*3 10.4 C 0 km/h
1756 02-03-2009 14:52:32 10.4 C 4.53 g/m*3 10.4 C 0 km/h
1757 02-03-2009 15:04:33 10.3 C 4.31 g/m*3 10.3 C 0 km/h
1758 02-03-2009 15:16:33 10.3 C 4.31 g/m*3 10.3 C 0 km/h
1759 02-03-2009 15:28:33 10.2 C 4.28 g/m*3 10.2 C 0 km/h
1760 02-03-2009 15:40:32 10.8 C 4.45 g/m*3 10.8 C 0 km/h
1761 02-03-2009 15:52:32 10.7 C 4.42 g/m*3 10.7 C 0 km/h
1762 02-03-2009 16:04:32 10.5 C 4.27 g/m*3 10.5 C 0 km/h
1763 02-03-2009 16:16:32 10.3 C 4.31 g/m*3 10.3 C 0 km/h
1764 02-03-2009 16:28:33 10 C 4.32 g/m*3 10 C 0 km/h
1765 02-03-2009 16:40:31 10 C 4.32 g/m*3 10 C 0 km/h
1766 02-03-2009 16:52:32 9.8 C 4.36 g/m*3 9.8 C 0 km/h
1767 02-03-2009 17:04:31 9.7 C 4.61 g/m*3 9.7 C 0 km/h
1768 02-03-2009 17:16:31 9.5 C 4.55 g/m*3 9.5 C 0 km/h
1769 02-03-2009 17:28:31 9.2 C 4.46 g/m*3 9.2 C 0 km/h
1770 02-03-2009 17:40:32 8.9 C 4.56 g/m*3 8.9 C 0 km/h
1771 02-03-2009 17:52:31 8.5 C 4.53 g/m*3 8.5 C 0 km/h
1772 02-03-2009 18:04:31 8.3 C 4.55 g/m*3 8.3 C 0 km/h
1773 02-03-2009 18:16:31 8.1 C 4.66 g/m*3 8.1 C 0 km/h
1774 02-03-2009 18:28:31 7.8 C 4.65 g/m*3 7.8 C 0 km/h
1775 02-03-2009 18:40:30 7.8 C 4.65 g/m*3 7.8 C 0 km/h
Sensor: Nr:Datum:Temp:Abs-Feuchte:Windchill:Wind:
Aussen-T/F 1776 02-03-2009 18:52:31 7.5 C 4.64 g/m*3 7.5 C 0 km/h
1777 02-03-2009 19:04:30 7.6 C 4.59 g/m*3 7.6 C 0 km/h
1778 02-03-2009 19:16:30 7.5 C 4.48 g/m*3 7.5 C 0 km/h
1779 02-03-2009 19:28:30 7.3 C 4.5 g/m*3 7.3 C 0 km/h
1780 02-03-2009 19:40:30 7.1 C 4.52 g/m*3 7.1 C 0 km/h
1781 02-03-2009 19:52:30 6.8 C 4.51 g/m*3 6.8 C 0 km/h
1782 02-03-2009 20:04:29 6.4 C 4.47 g/m*3 6.4 C 0 km/h
1783 02-03-2009 20:16:30 6 C 4.43 g/m*3 6 C 0 km/h
1784 02-03-2009 20:28:30 5.8 C 4.51 g/m*3 5.8 C 0 km/h
1785 02-03-2009 20:40:30 5.4 C 4.4 g/m*3 5.4 C 0 km/h
1786 02-03-2009 20:52:29 5.1 C 4.45 g/m*3 5.1 C 0 km/h
1787 02-03-2009 21:04:29 4.8 C 4.49 g/m*3 4.8 C 0 km/h
1788 02-03-2009 21:16:29 4.6 C 4.5 g/m*3 4.6 C 0 km/h
1789 02-03-2009 21:28:29 4.4 C 4.51 g/m*3 4.4 C 0 km/h
1790 02-03-2009 21:40:29 4.1 C 4.48 g/m*3 4.1 C 0 km/h
1791 02-03-2009 21:52:29 3.9 C 4.55 g/m*3 3.9 C 0 km/h
1792 02-03-2009 22:04:29 3.7 C 4.55 g/m*3 3.7 C 0 km/h
1793 02-03-2009 22:16:28 3.7 C 4.55 g/m*3 3.7 C 0 km/h
1794 02-03-2009 22:28:28 3.5 C 4.55 g/m*3 3.5 C 0 km/h
1795 02-03-2009 22:40:29 3.4 C 4.52 g/m*3 3.4 C 0 km/h
1796 02-03-2009 22:53:29 3 C 4.52 g/m*3 3 C 0 km/h
1797 02-03-2009 23:05:29 2.8 C 4.58 g/m*3 2.8 C 0 km/h
1798 02-03-2009 23:17:29 2.7 C 4.54 g/m*3 2.7 C 0 km/h
1799 02-03-2009 23:29:29 2.9 C 4.72 g/m*3 2.9 C 0 km/h
1800 02-03-2009 23:41:29 3.1 C 4.73 g/m*3 3.1 C 0 km/h
Sensor: Nr:Datum:Temp:Abs-Feuchte:Windchill:Wind:
Aussen-T/F 1801 02-03-2009 23:53:29 2.8 C 4.63 g/m*3 2.8 C 0 km/h
1802 03-03-2009 00:05:29 2.6 C 4.57 g/m*3 2.6 C 0 km/h
1803 03-03-2009 00:17:30 2.9 C 4.67 g/m*3 2.9 C 0 km/h
1804 03-03-2009 00:29:30 3.1 C 4.61 g/m*3 3.1 C 0 km/h
1805 03-03-2009 00:41:30 3 C 4.52 g/m*3 3 C 0 km/h
1806 03-03-2009 00:53:30 2.9 C 4.55 g/m*3 2.9 C 0 km/h
1807 03-03-2009 01:05:30 3 C 4.52 g/m*3 3 C 0 km/h
1808 03-03-2009 01:17:30 3 C 4.46 g/m*3 3 C 0 km/h
1809 03-03-2009 01:29:30 3.1 C 4.43 g/m*3 3.1 C 0 km/h
1810 03-03-2009 01:41:30 3 C 4.4 g/m*3 3 C 0 km/h
1811 03-03-2009 01:53:30 2.8 C 4.4 g/m*3 2.8 C 0 km/h
1812 03-03-2009 02:05:30 2.6 C 4.34 g/m*3 2.6 C 0 km/h
1813 03-03-2009 02:17:30 2.4 C 4.28 g/m*3 2.4 C 0 km/h
1814 03-03-2009 02:29:30 2.3 C 4.31 g/m*3 2.3 C 0 km/h
1815 03-03-2009 02:41:30 2.2 C 4.28 g/m*3 2.2 C 0 km/h
1816 03-03-2009 02:53:30 2.1 C 4.36 g/m*3 2.1 C 0 km/h
1817 03-03-2009 03:05:30 1.9 C 4.42 g/m*3 1.9 C 0 km/h
1818 03-03-2009 03:17:30 1.6 C 4.27 g/m*3 1.6 C 0 km/h
1819 03-03-2009 03:29:30 1.5 C 4.3 g/m*3 1.5 C 0 km/h
1820 03-03-2009 03:41:30 1.5 C 4.35 g/m*3 1.5 C 0 km/h
1821 03-03-2009 03:53:30 1.2 C 4.31 g/m*3 1.2 C 0 km/h
1822 03-03-2009 04:05:31 1.2 C 4.31 g/m*3 1.2 C 0 km/h
1823 03-03-2009 04:17:31 1.5 C 4.46 g/m*3 1.5 C 0 km/h
1824 03-03-2009 04:29:31 1.4 C 4.43 g/m*3 1.4 C 0 km/h
1825 03-03-2009 04:41:31 1.3 C 4.4 g/m*3 1.3 C 0 km/h
Sensor: Nr:Datum:Temp:Abs-Feuchte:Windchill:Wind:
Aussen-T/F 1826 03-03-2009 04:53:31 1 C 4.26 g/m*3 1 C 0 km/h
1827 03-03-2009 05:05:31 0.7 C 4.22 g/m*3 0.7 C 0 km/h
1828 03-03-2009 05:17:31 0.5 C 4.16 g/m*3 0.5 C 0 km/h
1829 03-03-2009 05:29:31 0.3 C 4.11 g/m*3 0.3 C 0 km/h
1830 03-03-2009 05:41:31 0.3 C 4.11 g/m*3 0.3 C 0 km/h
1831 03-03-2009 05:53:31 0.1 C 4.1 g/m*3 0.1 C 0 km/h
1832 03-03-2009 06:05:31 0 C 4.07 g/m*3 0 C 0 km/h
1833 03-03-2009 06:17:31 -0.1 C 4.04 g/m*3 -0.1 C 0 km/h
1834 03-03-2009 06:29:31 0 C 4.07 g/m*3 0 C 0 km/h
1835 03-03-2009 06:41:31 -0.1 C 4.04 g/m*3 -0.1 C 0 km/h
1836 03-03-2009 06:53:31 -0.2 C 4.01 g/m*3 -0.2 C 0 km/h
1837 03-03-2009 07:05:29 -0.3 C 3.99 g/m*3 -0.3 C 0 km/h
1838 03-03-2009 07:17:28 -0.4 C 3.96 g/m*3 -0.4 C 0 km/h
1839 03-03-2009 07:29:28 -0.4 C 3.96 g/m*3 -0.4 C 0 km/h
1840 03-03-2009 07:41:29 -0.4 C 4.01 g/m*3 -0.4 C 0 km/h
1841 03-03-2009 07:53:28 -0.4 C 4.01 g/m*3 -0.4 C 0 km/h
1842 03-03-2009 08:05:28 -0.3 C 4.03 g/m*3 -0.3 C 0 km/h
1843 03-03-2009 08:17:28 -0.2 C 4.11 g/m*3 -0.2 C 0 km/h
1844 03-03-2009 08:29:28 -0.1 C 4.14 g/m*3 -0.1 C 0 km/h
1845 03-03-2009 08:41:28 0.1 C 4.24 g/m*3 0.1 C 0 km/h
1846 03-03-2009 08:53:27 0.4 C 4.33 g/m*3 0.4 C 0 km/h
1847 03-03-2009 09:05:28 0.9 C 4.48 g/m*3 0.9 C 0 km/h
1848 03-03-2009 09:17:27 1.2 C 4.47 g/m*3 1.2 C 0 km/h
1849 03-03-2009 09:29:27 1.2 C 4.42 g/m*3 1.2 C 0 km/h
1850 03-03-2009 09:41:28 1.3 C 4.4 g/m*3 1.3 C 0 km/h
Sensor: Nr:Datum:Temp:Abs-Feuchte:Windchill:Wind:
Aussen-T/F 1851 03-03-2009 09:53:27 1.7 C 4.52 g/m*3 1.7 C 0 km/h
1852 03-03-2009 10:05:27 2.1 C 4.59 g/m*3 2.1 C 0 km/h
1853 03-03-2009 10:17:27 2.6 C 4.69 g/m*3 2.6 C 0 km/h
1854 03-03-2009 10:29:27 3.1 C 4.79 g/m*3 3.1 C 0 km/h
1855 03-03-2009 10:41:27 3.7 C 4.8 g/m*3 3.7 C 0 km/h
1856 03-03-2009 10:53:27 4.3 C 4.8 g/m*3 4.3 C 0 km/h
1857 03-03-2009 11:05:26 5 C 4.62 g/m*3 5 C 0 km/h
1858 03-03-2009 11:17:27 5.3 C 4.71 g/m*3 5.3 C 0 km/h
1859 03-03-2009 11:29:27 6.4 C 4.4 g/m*3 6.4 C 0 km/h
1860 03-03-2009 11:41:26 6.7 C 4.41 g/m*3 6.7 C 0 km/h
1861 03-03-2009 11:53:26 7.2 C 4.32 g/m*3 7.2 C 0 km/h
1862 03-03-2009 12:05:26 7.6 C 4.27 g/m*3 7.6 C 0 km/h
1863 03-03-2009 12:17:27 8 C 4.13 g/m*3 8 C 0 km/h
1864 03-03-2009 12:29:27 8.2 C 3.85 g/m*3 8.2 C 0 km/h
1865 03-03-2009 12:41:26 8.7 C 3.89 g/m*3 8.7 C 0 km/h
1866 03-03-2009 12:53:26 9 C 3.61 g/m*3 9 C 0 km/h
1867 03-03-2009 13:05:26 9.3 C 3.5 g/m*3 9.3 C 0 km/h
1868 03-03-2009 13:17:25 9.6 C 3.21 g/m*3 9.6 C 0 km/h
1869 03-03-2009 13:29:25 9.8 C 3.06 g/m*3 9.8 C 0 km/h
1870 03-03-2009 13:41:25 10.5 C 3.01 g/m*3 10.5 C 0 km/h
1871 03-03-2009 13:53:25 10.8 C 2.97 g/m*3 10.8 C 0 km/h
1872 03-03-2009 14:05:25 11.1 C 2.82 g/m*3 11.1 C 0 km/h
1873 03-03-2009 14:17:24 11 C 2.7 g/m*3 11 C 0 km/h
1874 03-03-2009 14:29:24 10.7 C 2.55 g/m*3 10.7 C 0 km/h
1875 03-03-2009 14:41:25 11 C 2.5 g/m*3 11 C 0 km/h
Sensor: Nr:Datum:Temp:Abs-Feuchte:Windchill:Wind:
Aussen-T/F 1876 03-03-2009 14:53:24 11.8 C 2.53 g/m*3 11.8 C 0 km/h
1877 03-03-2009 15:05:24 11.3 C 2.24 g/m*3 11.3 C 0 km/h
1878 03-03-2009 15:17:24 11 C 2.6 g/m*3 11 C 0 km/h
1879 03-03-2009 15:29:24 11.5 C 2.79 g/m*3 11.5 C 0 km/h
1880 03-03-2009 15:41:24 11.6 C 2.6 g/m*3 11.6 C 0 km/h
1881 03-03-2009 15:53:24 11.2 C 2.33 g/m*3 11.2 C 0 km/h
1882 03-03-2009 16:05:23 10.6 C 2.44 g/m*3 10.6 C 0 km/h
1883 03-03-2009 16:17:24 10.4 C 2.51 g/m*3 10.4 C 0 km/h
1884 03-03-2009 16:29:24 10.5 C 2.52 g/m*3 10.5 C 0 km/h
1885 03-03-2009 16:41:23 10.6 C 2.54 g/m*3 10.6 C 0 km/h
1886 03-03-2009 16:53:23 10.1 C 2.36 g/m*3 10.1 C 0 km/h
1887 03-03-2009 17:05:24 9.9 C 2.61 g/m*3 9.9 C 0 km/h
1888 03-03-2009 17:17:23 10.2 C 2.66 g/m*3 10.2 C 0 km/h
1889 03-03-2009 17:29:23 10.5 C 2.62 g/m*3 10.5 C 0 km/h
1890 03-03-2009 17:41:23 10.2 C 2.47 g/m*3 10.2 C 0 km/h
1891 03-03-2009 17:53:23 9.7 C 2.58 g/m*3 9.7 C 0 km/h
1892 03-03-2009 18:05:23 9.1 C 2.75 g/m*3 9.1 C 0 km/h
1893 03-03-2009 18:17:22 8.2 C 2.93 g/m*3 8.2 C 0 km/h
1894 03-03-2009 18:29:22 7.5 C 3.04 g/m*3 7.5 C 0 km/h
1895 03-03-2009 18:41:23 6.9 C 3.16 g/m*3 6.9 C 0 km/h
1896 03-03-2009 18:53:22 6.6 C 3.25 g/m*3 6.6 C 0 km/h
1897 03-03-2009 19:05:22 6.4 C 3.2 g/m*3 6.4 C 0 km/h
1898 03-03-2009 19:17:22 6.5 C 3.37 g/m*3 6.5 C 0 km/h
1899 03-03-2009 19:29:22 6.8 C 3.21 g/m*3 6.8 C 0 km/h
1900 03-03-2009 19:41:22 6.7 C 3.27 g/m*3 6.7 C 0 km/h
Sensor: Nr:Datum:Temp:Abs-Feuchte:Windchill:Wind:
Aussen-T/F 1901 03-03-2009 19:53:22 6.5 C 3.3 g/m*3 6.5 C 0 km/h
1902 03-03-2009 20:05:21 6.4 C 3.28 g/m*3 6.4 C 0 km/h
1903 03-03-2009 20:17:22 6.4 C 3.2 g/m*3 6.4 C 0 km/h
1904 03-03-2009 20:29:22 6.3 C 3.11 g/m*3 6.3 C 0 km/h
1905 03-03-2009 20:41:21 6.1 C 3.14 g/m*3 6.1 C 0 km/h
1906 03-03-2009 20:53:21 6.2 C 3.09 g/m*3 6.2 C 0 km/h
1907 03-03-2009 21:05:21 6.4 C 3.05 g/m*3 6.4 C 0 km/h
1908 03-03-2009 21:17:21 6 C 2.9 g/m*3 6 C 0 km/h
1909 03-03-2009 21:29:21 5.9 C 2.96 g/m*3 5.9 C 0 km/h
1910 03-03-2009 21:41:20 5.8 C 2.94 g/m*3 5.8 C 0 km/h
1911 03-03-2009 21:53:21 5.8 C 2.87 g/m*3 5.8 C 0 km/h
1912 03-03-2009 22:05:20 5.7 C 3.13 g/m*3 5.7 C 0 km/h
1913 03-03-2009 22:17:20 5.8 C 3.01 g/m*3 5.8 C 0 km/h
1914 03-03-2009 22:29:20 6 C 2.98 g/m*3 6 C 0 km/h
1915 03-03-2009 22:41:20 5.9 C 3.03 g/m*3 5.9 C 0 km/h
1916 03-03-2009 22:54:21 6 C 2.98 g/m*3 6 C 0 km/h
1917 03-03-2009 23:06:22 6.2 C 2.94 g/m*3 6.2 C 0 km/h
1918 03-03-2009 23:18:22 6.4 C 3.05 g/m*3 6.4 C 0 km/h
1919 03-03-2009 23:30:22 6.2 C 3.09 g/m*3 6.2 C 0 km/h
1920 03-03-2009 23:42:22 6.4 C 3.13 g/m*3 6.4 C 0 km/h
1921 03-03-2009 23:54:22 5.9 C 3.24 g/m*3 5.9 C 0 km/h
1922 04-03-2009 00:06:22 5.5 C 3.23 g/m*3 5.5 C 0 km/h
1923 04-03-2009 00:18:22 5 C 3.26 g/m*3 5 C 0 km/h
1924 04-03-2009 00:30:22 4.5 C 3.48 g/m*3 4.5 C 0 km/h
1925 04-03-2009 00:42:22 4.4 C 3.53 g/m*3 4.4 C 0 km/h
Sensor: Nr:Datum:Temp:Abs-Feuchte:Windchill:Wind:
Aussen-T/F 1926 04-03-2009 00:54:22 4.2 C 3.61 g/m*3 4.2 C 0 km/h
1927 04-03-2009 01:06:22 4.3 C 3.63 g/m*3 4.3 C 0 km/h
1928 04-03-2009 01:18:22 4.1 C 3.71 g/m*3 4.1 C 0 km/h
1929 04-03-2009 01:30:22 3.9 C 3.79 g/m*3 3.9 C 0 km/h
1930 04-03-2009 01:42:22 3.7 C 3.8 g/m*3 3.7 C 0 km/h
1931 04-03-2009 01:54:22 3.6 C 3.78 g/m*3 3.6 C 0 km/h
1932 04-03-2009 02:06:22 3.4 C 3.79 g/m*3 3.4 C 0 km/h
1933 04-03-2009 02:18:22 3.3 C 3.88 g/m*3 3.3 C 0 km/h
1934 04-03-2009 02:30:22 3.2 C 3.86 g/m*3 3.2 C 0 km/h
1935 04-03-2009 02:42:22 3.2 C 3.92 g/m*3 3.2 C 0 km/h
1936 04-03-2009 02:54:22 3.1 C 3.95 g/m*3 3.1 C 0 km/h
1937 04-03-2009 03:06:23 2.9 C 3.9 g/m*3 2.9 C 0 km/h
1938 04-03-2009 03:18:23 2.7 C 3.9 g/m*3 2.7 C 0 km/h
1939 04-03-2009 03:30:23 2.7 C 3.96 g/m*3 2.7 C 0 km/h
1940 04-03-2009 03:42:23 2.8 C 4.05 g/m*3 2.8 C 0 km/h
1941 04-03-2009 03:54:23 2.8 C 4.05 g/m*3 2.8 C 0 km/h
1942 04-03-2009 04:06:23 2.8 C 4.11 g/m*3 2.8 C 0 km/h
1943 04-03-2009 04:18:23 2.6 C 4.05 g/m*3 2.6 C 0 km/h
1944 04-03-2009 04:30:23 2.5 C 4.02 g/m*3 2.5 C 0 km/h
1945 04-03-2009 04:42:23 2.5 C 4.08 g/m*3 2.5 C 0 km/h
1946 04-03-2009 04:54:23 2.4 C 4.05 g/m*3 2.4 C 0 km/h
1947 04-03-2009 05:06:23 2.5 C 4.14 g/m*3 2.5 C 0 km/h
1948 04-03-2009 05:18:23 2.7 C 4.14 g/m*3 2.7 C 0 km/h
1949 04-03-2009 05:30:23 3 C 4.1 g/m*3 3 C 0 km/h
1950 04-03-2009 05:42:23 3.1 C 4.07 g/m*3 3.1 C 0 km/h
Sensor: Nr:Datum:Temp:Abs-Feuchte:Windchill:Wind:
Aussen-T/F 1951 04-03-2009 05:54:23 3.2 C 4.04 g/m*3 3.2 C 0 km/h
1952 04-03-2009 06:06:23 3.4 C 4.03 g/m*3 3.4 C 0 km/h
1953 04-03-2009 06:18:23 3.5 C 4.06 g/m*3 3.5 C 0 km/h
1954 04-03-2009 06:30:23 3.5 C 4 g/m*3 3.5 C 0 km/h
1955 04-03-2009 06:42:23 3.4 C 4.03 g/m*3 3.4 C 0 km/h
1956 04-03-2009 06:54:23 3.5 C 4 g/m*3 3.5 C 0 km/h
1957 04-03-2009 07:06:20 3.6 C 4.02 g/m*3 3.6 C 0 km/h
1958 04-03-2009 07:18:21 3.7 C 4.05 g/m*3 3.7 C 0 km/h
1959 04-03-2009 07:30:21 3.8 C 4.02 g/m*3 3.8 C 0 km/h
1960 04-03-2009 07:42:21 3.7 C 4.05 g/m*3 3.7 C 0 km/h
1961 04-03-2009 07:54:20 3.8 C 4.08 g/m*3 3.8 C 0 km/h
1962 04-03-2009 08:06:21 3.9 C 4.04 g/m*3 3.9 C 0 km/h
1963 04-03-2009 08:18:20 4 C 4.07 g/m*3 4 C 0 km/h
1964 04-03-2009 08:30:20 4.1 C 4.03 g/m*3 4.1 C 0 km/h
1965 04-03-2009 08:42:20 4.2 C 4.06 g/m*3 4.2 C 0 km/h
1966 04-03-2009 08:54:19 4.2 C 4.06 g/m*3 4.2 C 0 km/h
1967 04-03-2009 09:06:20 4.2 C 4.06 g/m*3 4.2 C 0 km/h
1968 04-03-2009 09:18:19 4 C 3.94 g/m*3 4 C 0 km/h
1969 04-03-2009 09:30:20 4.1 C 3.97 g/m*3 4.1 C 0 km/h
1970 04-03-2009 09:42:21 4.3 C 3.96 g/m*3 4.3 C 0 km/h
1971 04-03-2009 09:54:19 4.9 C 3.98 g/m*3 4.9 C 0 km/h
1972 04-03-2009 10:06:19 5.4 C 3.91 g/m*3 5.4 C 0 km/h
1973 04-03-2009 10:18:18 5.9 C 3.89 g/m*3 5.9 C 0 km/h
1974 04-03-2009 10:30:19 6.1 C 3.87 g/m*3 6.1 C 0 km/h
1975 04-03-2009 10:42:19 6.8 C 3.82 g/m*3 6.8 C 0 km/h
Sensor: Nr:Datum:Temp:Abs-Feuchte:Windchill:Wind:
Aussen-T/F 1976 04-03-2009 10:54:18 7.5 C 3.76 g/m*3 7.5 C 0 km/h
1977 04-03-2009 11:06:18 8 C 3.64 g/m*3 8 C 0 km/h
1978 04-03-2009 11:18:19 8.3 C 3.62 g/m*3 8.3 C 0 km/h
1979 04-03-2009 11:30:18 8.6 C 3.61 g/m*3 8.6 C 0 km/h
1980 04-03-2009 11:42:18 8.8 C 3.66 g/m*3 8.8 C 0 km/h
1981 04-03-2009 11:54:18 9.1 C 3.73 g/m*3 9.1 C 0 km/h
1982 04-03-2009 12:06:18 9.4 C 3.71 g/m*3 9.4 C 0 km/h
1983 04-03-2009 12:18:18 9.9 C 3.73 g/m*3 9.9 C 0 km/h
1984 04-03-2009 12:30:18 10.3 C 3.54 g/m*3 10.3 C 0 km/h
1985 04-03-2009 12:42:18 10.7 C 3.63 g/m*3 10.7 C 0 km/h
1986 04-03-2009 12:54:18 11.1 C 3.63 g/m*3 11.1 C 0 km/h
1987 04-03-2009 13:06:18 11.8 C 3.37 g/m*3 11.8 C 0 km/h
1988 04-03-2009 13:18:17 12.2 C 3.02 g/m*3 12.2 C 0 km/h
1989 04-03-2009 13:30:17 12.2 C 3.24 g/m*3 12.2 C 0 km/h
1990 04-03-2009 13:42:17 11.5 C 3.41 g/m*3 11.5 C 0 km/h
1991 04-03-2009 13:54:17 11.7 C 3.45 g/m*3 11.7 C 0 km/h
1992 04-03-2009 14:06:17 12 C 3.41 g/m*3 12 C 0 km/h
1993 04-03-2009 14:18:16 12.4 C 3.39 g/m*3 12.4 C 0 km/h
1994 04-03-2009 14:30:17 12.3 C 3.26 g/m*3 12.3 C 0 km/h
1995 04-03-2009 14:42:17 12.7 C 3.34 g/m*3 12.7 C 0 km/h
1996 04-03-2009 14:54:16 12.9 C 3.38 g/m*3 12.9 C 0 km/h
1997 04-03-2009 15:06:16 13 C 3.18 g/m*3 13 C 0 km/h
1998 04-03-2009 15:18:17 13.3 C 3.23 g/m*3 13.3 C 0 km/h
1999 04-03-2009 15:30:16 12.9 C 3.16 g/m*3 12.9 C 0 km/h
2000 04-03-2009 15:42:16 12.3 C 3.26 g/m*3 12.3 C 0 km/h
Sensor: Nr:Datum:Temp:Abs-Feuchte:Windchill:Wind:
Aussen-T/F 2001 04-03-2009 15:54:16 11.9 C 3.39 g/m*3 11.9 C 0 km/h
2002 04-03-2009 16:06:16 11.9 C 3.39 g/m*3 11.9 C 0 km/h
2003 04-03-2009 16:18:16 12.7 C 3.23 g/m*3 12.7 C 0 km/h
2004 04-03-2009 16:30:15 12.3 C 3.37 g/m*3 12.3 C 0 km/h
2005 04-03-2009 16:42:15 12.2 C 3.24 g/m*3 12.2 C 0 km/h
2006 04-03-2009 16:54:15 11.9 C 3.39 g/m*3 11.9 C 0 km/h
2007 04-03-2009 17:06:15 11.7 C 3.24 g/m*3 11.7 C 0 km/h
2008 04-03-2009 17:18:15 11.6 C 3.22 g/m*3 11.6 C 0 km/h
2009 04-03-2009 17:30:15 11.4 C 3.18 g/m*3 11.4 C 0 km/h
2010 04-03-2009 17:42:15 11.3 C 3.16 g/m*3 11.3 C 0 km/h
2011 04-03-2009 17:54:15 11.1 C 3.12 g/m*3 11.1 C 0 km/h
2012 04-03-2009 18:06:15 11 C 3.2 g/m*3 11 C 0 km/h
2013 04-03-2009 18:18:14 10.8 C 3.26 g/m*3 10.8 C 0 km/h
2014 04-03-2009 18:30:14 10.3 C 3.35 g/m*3 10.3 C 0 km/h
2015 04-03-2009 18:42:15 9.7 C 3.6 g/m*3 9.7 C 0 km/h
2016 04-03-2009 18:54:14 9 C 3.7 g/m*3 9 C 0 km/h
2017 04-03-2009 19:06:14 8.9 C 3.77 g/m*3 8.9 C 0 km/h
2018 04-03-2009 19:18:13 8.7 C 3.89 g/m*3 8.7 C 0 km/h
2019 04-03-2009 19:30:14 8.8 C 3.74 g/m*3 8.8 C 0 km/h
2020 04-03-2009 19:42:14 8.6 C 3.87 g/m*3 8.6 C 0 km/h
2021 04-03-2009 19:54:13 8.9 C 3.85 g/m*3 8.9 C 0 km/h
2022 04-03-2009 20:06:13 8.9 C 3.94 g/m*3 8.9 C 0 km/h
2023 04-03-2009 20:18:14 9 C 3.97 g/m*3 9 C 0 km/h
2024 04-03-2009 20:30:13 9 C 4.06 g/m*3 9 C 0 km/h
2025 04-03-2009 20:42:13 8.9 C 4.2 g/m*3 8.9 C 0 km/h
Sensor: Nr:Datum:Temp:Abs-Feuchte:Windchill:Wind:
Aussen-T/F 2026 04-03-2009 20:54:13 8.8 C 4.26 g/m*3 8.8 C 0 km/h
2027 04-03-2009 21:06:13 8.6 C 4.38 g/m*3 8.6 C 0 km/h
2028 04-03-2009 21:18:13 8.5 C 4.44 g/m*3 8.5 C 0 km/h
2029 04-03-2009 21:30:13 8.4 C 4.41 g/m*3 8.4 C 0 km/h
2030 04-03-2009 21:42:13 8.4 C 4.33 g/m*3 8.4 C 0 km/h
2031 04-03-2009 21:54:13 8.5 C 4.35 g/m*3 8.5 C 0 km/h
2032 04-03-2009 22:06:12 8.5 C 4.27 g/m*3 8.5 C 0 km/h
2033 04-03-2009 22:19:15 8.6 C 4.3 g/m*3 8.6 C 0 km/h
2034 04-03-2009 22:31:15 8.4 C 4.33 g/m*3 8.4 C 0 km/h
2035 04-03-2009 22:43:15 8.7 C 4.15 g/m*3 8.7 C 0 km/h
2036 04-03-2009 22:55:15 8.7 C 4.32 g/m*3 8.7 C 0 km/h
2037 04-03-2009 23:07:15 8.6 C 4.3 g/m*3 8.6 C 0 km/h
2038 04-03-2009 23:19:15 8.4 C 4.33 g/m*3 8.4 C 0 km/h
2039 04-03-2009 23:31:15 8.3 C 4.38 g/m*3 8.3 C 0 km/h
2040 04-03-2009 23:43:15 8.1 C 4.41 g/m*3 8.1 C 0 km/h
2041 04-03-2009 23:55:15 8 C 4.55 g/m*3 8 C 0 km/h
2042 05-03-2009 00:07:15 7.9 C 4.6 g/m*3 7.9 C 0 km/h
2043 05-03-2009 00:19:15 7.9 C 4.68 g/m*3 7.9 C 0 km/h
2044 05-03-2009 00:31:15 7.8 C 4.9 g/m*3 7.8 C 0 km/h
2045 05-03-2009 00:43:15 7.6 C 4.99 g/m*3 7.6 C 0 km/h
2046 05-03-2009 00:55:15 7.5 C 5.12 g/m*3 7.5 C 0 km/h
2047 05-03-2009 01:07:15 7.6 C 5.08 g/m*3 7.6 C 0 km/h
2048 05-03-2009 01:19:15 7.6 C 4.99 g/m*3 7.6 C 0 km/h
2049 05-03-2009 01:31:16 7.6 C 4.91 g/m*3 7.6 C 0 km/h
2050 05-03-2009 01:43:16 7.6 C 4.91 g/m*3 7.6 C 0 km/h
Sensor: Nr:Datum:Temp:Abs-Feuchte:Windchill:Wind:
Aussen-T/F 2051 05-03-2009 01:55:16 7.6 C 4.91 g/m*3 7.6 C 0 km/h
2052 05-03-2009 02:07:16 7.6 C 4.91 g/m*3 7.6 C 0 km/h
2053 05-03-2009 02:19:16 7.6 C 4.91 g/m*3 7.6 C 0 km/h
2054 05-03-2009 02:31:16 7.6 C 4.91 g/m*3 7.6 C 0 km/h
2055 05-03-2009 02:43:16 7.6 C 4.91 g/m*3 7.6 C 0 km/h
2056 05-03-2009 02:55:16 7.5 C 4.96 g/m*3 7.5 C 0 km/h
2057 05-03-2009 03:07:16 7.5 C 4.88 g/m*3 7.5 C 0 km/h
2058 05-03-2009 03:19:16 7.6 C 4.91 g/m*3 7.6 C 0 km/h
2059 05-03-2009 03:31:16 7.6 C 4.91 g/m*3 7.6 C 0 km/h
2060 05-03-2009 03:43:16 7.5 C 4.88 g/m*3 7.5 C 0 km/h
2061 05-03-2009 03:55:16 7.4 C 4.93 g/m*3 7.4 C 0 km/h
2062 05-03-2009 04:07:16 7.3 C 4.98 g/m*3 7.3 C 0 km/h
2063 05-03-2009 04:19:16 7.1 C 5.07 g/m*3 7.1 C 0 km/h
2064 05-03-2009 04:31:16 7.1 C 5.15 g/m*3 7.1 C 0 km/h
2065 05-03-2009 04:43:16 7 C 5.11 g/m*3 7 C 0 km/h
2066 05-03-2009 04:55:16 6.7 C 5.24 g/m*3 6.7 C 0 km/h
2067 05-03-2009 05:07:16 6.4 C 5.29 g/m*3 6.4 C 0 km/h
2068 05-03-2009 05:19:16 6.1 C 5.33 g/m*3 6.1 C 0 km/h
2069 05-03-2009 05:31:17 6 C 5.37 g/m*3 6 C 0 km/h
2070 05-03-2009 05:43:17 5.7 C 5.48 g/m*3 5.7 C 0 km/h
2071 05-03-2009 05:55:17 5.5 C 5.62 g/m*3 5.5 C 0 km/h
2072 05-03-2009 06:07:17 5.4 C 5.65 g/m*3 5.4 C 0 km/h
2073 05-03-2009 06:19:17 5.2 C 5.58 g/m*3 5.2 C 0 km/h
2074 05-03-2009 06:31:17 5.1 C 5.54 g/m*3 5.1 C 0 km/h
2075 05-03-2009 06:43:17 5 C 5.57 g/m*3 5 C 0 km/h
Sensor: Nr:Datum:Temp:Abs-Feuchte:Windchill:Wind:
Aussen-T/F 2076 05-03-2009 06:55:17 4.9 C 5.67 g/m*3 4.9 C 0 km/h
2077 05-03-2009 07:07:14 4.9 C 5.74 g/m*3 4.9 C 0 km/h
2078 05-03-2009 07:19:14 4.8 C 5.7 g/m*3 4.8 C 0 km/h
2079 05-03-2009 07:31:14 4.7 C 5.73 g/m*3 4.7 C 0 km/h
2080 05-03-2009 07:43:14 4.7 C 5.73 g/m*3 4.7 C 0 km/h
2081 05-03-2009 07:55:14 4.6 C 5.69 g/m*3 4.6 C 0 km/h
2082 05-03-2009 08:07:13 4.6 C 5.69 g/m*3 4.6 C 0 km/h
2083 05-03-2009 08:19:14 4.4 C 5.62 g/m*3 4.4 C 0 km/h
2084 05-03-2009 08:31:14 4.2 C 5.48 g/m*3 4.2 C 0 km/h
2085 05-03-2009 08:43:14 3.9 C 5.37 g/m*3 3.9 C 0 km/h
2086 05-03-2009 08:55:13 3.6 C 5.26 g/m*3 3.6 C 0 km/h
2087 05-03-2009 09:07:14 3.4 C 5.19 g/m*3 3.4 C 0 km/h
2088 05-03-2009 09:19:13 3.4 C 5.19 g/m*3 3.4 C 0 km/h
2089 05-03-2009 09:31:13 3.5 C 5.29 g/m*3 3.5 C 0 km/h
2090 05-03-2009 09:43:13 3.2 C 5.18 g/m*3 3.2 C 0 km/h
2091 05-03-2009 09:55:13 3.2 C 5.18 g/m*3 3.2 C 0 km/h
2092 05-03-2009 10:07:13 3.1 C 5.15 g/m*3 3.1 C 0 km/h
2093 05-03-2009 10:19:12 3 C 5.11 g/m*3 3 C 0 km/h
2094 05-03-2009 10:31:12 3.1 C 5.15 g/m*3 3.1 C 0 km/h
2095 05-03-2009 10:43:12 3.1 C 5.21 g/m*3 3.1 C 0 km/h
2096 05-03-2009 10:55:12 2.7 C 5.07 g/m*3 2.7 C 0 km/h
2097 05-03-2009 11:07:12 2.7 C 5.07 g/m*3 2.7 C 0 km/h
2098 05-03-2009 11:19:12 2.6 C 5.03 g/m*3 2.6 C 0 km/h
2099 05-03-2009 11:31:12 2.6 C 5.03 g/m*3 2.6 C 0 km/h
2100 05-03-2009 11:43:12 2.5 C 5 g/m*3 2.5 C 0 km/h
Sensor: Nr:Datum:Temp:Abs-Feuchte:Windchill:Wind:
Aussen-T/F 2101 05-03-2009 11:55:12 2.6 C 5.03 g/m*3 2.6 C 0 km/h
2102 05-03-2009 12:07:11 2.6 C 5.09 g/m*3 2.6 C 0 km/h
2103 05-03-2009 12:19:12 2.8 C 5.16 g/m*3 2.8 C 0 km/h
2104 05-03-2009 12:31:11 2.6 C 5.09 g/m*3 2.6 C 0 km/h
2105 05-03-2009 12:43:11 2.8 C 5.16 g/m*3 2.8 C 0 km/h
2106 05-03-2009 12:55:11 3.1 C 5.27 g/m*3 3.1 C 0 km/h
2107 05-03-2009 13:07:11 2.9 C 5.2 g/m*3 2.9 C 0 km/h
2108 05-03-2009 13:19:11 2.9 C 5.2 g/m*3 2.9 C 0 km/h
2109 05-03-2009 13:31:11 2.9 C 5.2 g/m*3 2.9 C 0 km/h
2110 05-03-2009 13:43:11 3 C 5.17 g/m*3 3 C 0 km/h
2111 05-03-2009 13:55:10 3 C 5.17 g/m*3 3 C 0 km/h
2112 05-03-2009 14:07:11 3 C 5.17 g/m*3 3 C 0 km/h
2113 05-03-2009 14:19:10 2.9 C 5.2 g/m*3 2.9 C 0 km/h
2114 05-03-2009 14:31:10 3 C 5.23 g/m*3 3 C 0 km/h
2115 05-03-2009 14:43:10 3 C 5.23 g/m*3 3 C 0 km/h
2116 05-03-2009 14:55:10 3.1 C 5.27 g/m*3 3.1 C 0 km/h
2117 05-03-2009 15:07:10 3 C 5.23 g/m*3 3 C 0 km/h
2118 05-03-2009 15:19:10 3.1 C 5.27 g/m*3 3.1 C 0 km/h
2119 05-03-2009 15:31:09 3 C 5.23 g/m*3 3 C 0 km/h
2120 05-03-2009 15:43:09 3.1 C 5.27 g/m*3 3.1 C 0 km/h
2121 05-03-2009 15:55:09 3.2 C 5.36 g/m*3 3.2 C 0 km/h
2122 05-03-2009 16:07:09 3.3 C 5.4 g/m*3 3.3 C 0 km/h
2123 05-03-2009 16:19:10 3.2 C 5.36 g/m*3 3.2 C 0 km/h
2124 05-03-2009 16:31:09 3.3 C 5.4 g/m*3 3.3 C 0 km/h
2125 05-03-2009 16:43:09 3.4 C 5.44 g/m*3 3.4 C 0 km/h
Sensor: Nr:Datum:Temp:Abs-Feuchte:Windchill:Wind:
Aussen-T/F 2126 05-03-2009 16:55:09 3.5 C 5.47 g/m*3 3.5 C 0 km/h
2127 05-03-2009 17:07:08 3.6 C 5.51 g/m*3 3.6 C 0 km/h
2128 05-03-2009 17:19:09 3.6 C 5.51 g/m*3 3.6 C 0 km/h
2129 05-03-2009 17:31:09 3.6 C 5.51 g/m*3 3.6 C 0 km/h
2130 05-03-2009 17:43:09 3.7 C 5.55 g/m*3 3.7 C 0 km/h
2131 05-03-2009 17:55:08 3.7 C 5.55 g/m*3 3.7 C 0 km/h
2132 05-03-2009 18:07:08 4 C 5.53 g/m*3 4 C 0 km/h
2133 05-03-2009 18:19:09 4 C 5.53 g/m*3 4 C 0 km/h
2134 05-03-2009 18:31:08 4 C 5.53 g/m*3 4 C 0 km/h
2135 05-03-2009 18:43:08 3.9 C 5.56 g/m*3 3.9 C 0 km/h
2136 05-03-2009 18:55:08 4 C 5.59 g/m*3 4 C 0 km/h
2137 05-03-2009 19:07:08 4 C 5.59 g/m*3 4 C 0 km/h
2138 05-03-2009 19:19:07 4 C 5.66 g/m*3 4 C 0 km/h
2139 05-03-2009 19:31:08 4 C 5.66 g/m*3 4 C 0 km/h
2140 05-03-2009 19:43:08 3.8 C 5.65 g/m*3 3.8 C 0 km/h
2141 05-03-2009 19:55:07 3.8 C 5.65 g/m*3 3.8 C 0 km/h
2142 05-03-2009 20:07:07 3.7 C 5.61 g/m*3 3.7 C 0 km/h
2143 05-03-2009 20:19:07 3.7 C 5.55 g/m*3 3.7 C 0 km/h
2144 05-03-2009 20:31:07 3.6 C 5.51 g/m*3 3.6 C 0 km/h
2145 05-03-2009 20:43:07 3.6 C 5.57 g/m*3 3.6 C 0 km/h
2146 05-03-2009 20:55:06 3.6 C 5.57 g/m*3 3.6 C 0 km/h
2147 05-03-2009 21:07:07 3.5 C 5.53 g/m*3 3.5 C 0 km/h
2148 05-03-2009 21:19:06 3.5 C 5.53 g/m*3 3.5 C 0 km/h
2149 05-03-2009 21:31:06 3.5 C 5.53 g/m*3 3.5 C 0 km/h
2150 05-03-2009 21:43:07 3.4 C 5.5 g/m*3 3.4 C 0 km/h
Sensor: Nr:Datum:Temp:Abs-Feuchte:Windchill:Wind:
Aussen-T/F 2151 05-03-2009 21:55:06 3.4 C 5.56 g/m*3 3.4 C 0 km/h
2152 05-03-2009 22:07:06 3.4 C 5.56 g/m*3 3.4 C 0 km/h
2153 05-03-2009 22:19:05 3.4 C 5.56 g/m*3 3.4 C 0 km/h
2154 05-03-2009 22:32:06 3.3 C 5.46 g/m*3 3.3 C 0 km/h
2155 05-03-2009 22:44:06 3.2 C 5.42 g/m*3 3.2 C 0 km/h
2156 05-03-2009 22:56:07 3.1 C 5.39 g/m*3 3.1 C 0 km/h
2157 05-03-2009 23:08:07 3 C 5.35 g/m*3 3 C 0 km/h
2158 05-03-2009 23:20:07 3 C 5.35 g/m*3 3 C 0 km/h
2159 05-03-2009 23:32:07 2.8 C 5.28 g/m*3 2.8 C 0 km/h
2160 05-03-2009 23:44:07 2.8 C 5.28 g/m*3 2.8 C 0 km/h
2161 05-03-2009 23:56:07 2.8 C 5.28 g/m*3 2.8 C 0 km/h
2162 06-03-2009 00:08:07 2.9 C 5.37 g/m*3 2.9 C 0 km/h
2163 06-03-2009 00:20:07 3 C 5.35 g/m*3 3 C 0 km/h
2164 06-03-2009 00:32:07 3 C 5.35 g/m*3 3 C 0 km/h
2165 06-03-2009 00:44:07 3 C 5.35 g/m*3 3 C 0 km/h
2166 06-03-2009 00:56:07 3 C 5.41 g/m*3 3 C 0 km/h
2167 06-03-2009 01:08:07 3.1 C 5.45 g/m*3 3.1 C 0 km/h
2168 06-03-2009 01:20:07 3.1 C 5.45 g/m*3 3.1 C 0 km/h
2169 06-03-2009 01:32:07 3.2 C 5.48 g/m*3 3.2 C 0 km/h
2170 06-03-2009 01:44:07 3.2 C 5.48 g/m*3 3.2 C 0 km/h
2171 06-03-2009 01:56:07 3.2 C 5.48 g/m*3 3.2 C 0 km/h
2172 06-03-2009 02:08:07 3.2 C 5.48 g/m*3 3.2 C 0 km/h
2173 06-03-2009 02:20:07 3.3 C 5.52 g/m*3 3.3 C 0 km/h
2174 06-03-2009 02:32:07 3.3 C 5.52 g/m*3 3.3 C 0 km/h
2175 06-03-2009 02:44:07 3.3 C 5.52 g/m*3 3.3 C 0 km/h
Sensor: Nr:Datum:Temp:Abs-Feuchte:Windchill:Wind:
Aussen-T/F 2176 06-03-2009 02:56:08 3.4 C 5.56 g/m*3 3.4 C 0 km/h
2177 06-03-2009 03:08:08 3.4 C 5.56 g/m*3 3.4 C 0 km/h
2178 06-03-2009 03:20:08 3.4 C 5.56 g/m*3 3.4 C 0 km/h
2179 06-03-2009 03:32:08 3.4 C 5.56 g/m*3 3.4 C 0 km/h
2180 06-03-2009 03:44:08 3.5 C 5.6 g/m*3 3.5 C 0 km/h
2181 06-03-2009 03:56:08 3.5 C 5.6 g/m*3 3.5 C 0 km/h
2182 06-03-2009 04:08:08 3.5 C 5.6 g/m*3 3.5 C 0 km/h
2183 06-03-2009 04:20:08 3.4 C 5.56 g/m*3 3.4 C 0 km/h
2184 06-03-2009 04:32:08 3.4 C 5.56 g/m*3 3.4 C 0 km/h
2185 06-03-2009 04:44:08 3.3 C 5.46 g/m*3 3.3 C 0 km/h
2186 06-03-2009 04:56:08 3.3 C 5.46 g/m*3 3.3 C 0 km/h
2187 06-03-2009 05:08:08 3.3 C 5.46 g/m*3 3.3 C 0 km/h
2188 06-03-2009 05:20:08 3.3 C 5.52 g/m*3 3.3 C 0 km/h
2189 06-03-2009 05:32:08 3.3 C 5.52 g/m*3 3.3 C 0 km/h
2190 06-03-2009 05:44:08 3.3 C 5.52 g/m*3 3.3 C 0 km/h
2191 06-03-2009 05:56:08 3.4 C 5.62 g/m*3 3.4 C 0 km/h
2192 06-03-2009 06:08:08 3.5 C 5.66 g/m*3 3.5 C 0 km/h
2193 06-03-2009 06:20:08 3.6 C 5.69 g/m*3 3.6 C 0 km/h
2194 06-03-2009 06:32:08 3.5 C 5.66 g/m*3 3.5 C 0 km/h
2195 06-03-2009 06:44:08 3.6 C 5.69 g/m*3 3.6 C 0 km/h
2196 06-03-2009 06:56:08 3.6 C 5.69 g/m*3 3.6 C 0 km/h
2197 06-03-2009 07:08:06 3.5 C 5.66 g/m*3 3.5 C 0 km/h
2198 06-03-2009 07:20:06 3.5 C 5.66 g/m*3 3.5 C 0 km/h
2199 06-03-2009 07:32:06 3.3 C 5.52 g/m*3 3.3 C 0 km/h
2200 06-03-2009 07:44:06 3.3 C 5.58 g/m*3 3.3 C 0 km/h
Sensor: Nr:Datum:Temp:Abs-Feuchte:Windchill:Wind:
Aussen-T/F 2201 06-03-2009 07:56:06 3.3 C 5.58 g/m*3 3.3 C 0 km/h
2202 06-03-2009 08:08:05 3.3 C 5.52 g/m*3 3.3 C 0 km/h
2203 06-03-2009 08:20:05 3.3 C 5.52 g/m*3 3.3 C 0 km/h
2204 06-03-2009 08:32:05 3.3 C 5.52 g/m*3 3.3 C 0 km/h
2205 06-03-2009 08:44:05 3.2 C 5.42 g/m*3 3.2 C 0 km/h
2206 06-03-2009 08:56:05 3.3 C 5.46 g/m*3 3.3 C 0 km/h
2207 06-03-2009 09:08:05 3.3 C 5.46 g/m*3 3.3 C 0 km/h
2208 06-03-2009 09:20:05 3.4 C 5.5 g/m*3 3.4 C 0 km/h
2209 06-03-2009 09:32:05 3.4 C 5.44 g/m*3 3.4 C 0 km/h
2210 06-03-2009 09:44:05 3.5 C 5.47 g/m*3 3.5 C 0 km/h
2211 06-03-2009 09:56:05 3.6 C 5.51 g/m*3 3.6 C 0 km/h
2212 06-03-2009 10:08:05 3.6 C 5.51 g/m*3 3.6 C 0 km/h
2213 06-03-2009 10:20:04 3.7 C 5.48 g/m*3 3.7 C 0 km/h
2214 06-03-2009 10:32:04 3.9 C 5.56 g/m*3 3.9 C 0 km/h
2215 06-03-2009 10:44:04 3.8 C 5.52 g/m*3 3.8 C 0 km/h
2216 06-03-2009 10:56:04 3.8 C 5.52 g/m*3 3.8 C 0 km/h
2217 06-03-2009 11:08:04 3.9 C 5.62 g/m*3 3.9 C 0 km/h
2218 06-03-2009 11:20:03 4 C 5.59 g/m*3 4 C 0 km/h
2219 06-03-2009 11:32:04 4.1 C 5.63 g/m*3 4.1 C 0 km/h
2220 06-03-2009 11:44:03 4.1 C 5.63 g/m*3 4.1 C 0 km/h
2221 06-03-2009 11:56:03 4.2 C 5.67 g/m*3 4.2 C 0 km/h
2222 06-03-2009 12:08:03 4.2 C 5.61 g/m*3 4.2 C 0 km/h
2223 06-03-2009 12:20:04 4.3 C 5.71 g/m*3 4.3 C 0 km/h
2224 06-03-2009 12:32:03 4.3 C 5.71 g/m*3 4.3 C 0 km/h
2225 06-03-2009 12:44:03 4.4 C 5.68 g/m*3 4.4 C 0 km/h
Sensor: Nr:Datum:Temp:Abs-Feuchte:Windchill:Wind:
Aussen-T/F 2226 06-03-2009 12:56:03 4.4 C 5.68 g/m*3 4.4 C 0 km/h
2227 06-03-2009 13:08:03 4.5 C 5.65 g/m*3 4.5 C 0 km/h
2228 06-03-2009 13:20:03 4.6 C 5.62 g/m*3 4.6 C 0 km/h
2229 06-03-2009 13:32:02 5 C 5.57 g/m*3 5 C 0 km/h
2230 06-03-2009 13:44:02 5 C 5.57 g/m*3 5 C 0 km/h
2231 06-03-2009 13:56:03 4.8 C 5.57 g/m*3 4.8 C 0 km/h
2232 06-03-2009 14:08:02 4.7 C 5.6 g/m*3 4.7 C 0 km/h
2233 06-03-2009 14:20:02 4.7 C 5.6 g/m*3 4.7 C 0 km/h
2234 06-03-2009 14:32:02 4.8 C 5.57 g/m*3 4.8 C 0 km/h
2235 06-03-2009 14:44:02 4.9 C 5.54 g/m*3 4.9 C 0 km/h
2236 06-03-2009 14:56:02 4.9 C 5.6 g/m*3 4.9 C 0 km/h
2237 06-03-2009 15:08:02 4.8 C 5.5 g/m*3 4.8 C 0 km/h
2238 06-03-2009 15:20:01 4.8 C 5.5 g/m*3 4.8 C 0 km/h
2239 06-03-2009 15:32:01 4.9 C 5.54 g/m*3 4.9 C 0 km/h
2240 06-03-2009 15:44:01 4.9 C 5.54 g/m*3 4.9 C 0 km/h
2241 06-03-2009 15:56:01 4.7 C 5.46 g/m*3 4.7 C 0 km/h
2242 06-03-2009 16:08:01 4.7 C 5.46 g/m*3 4.7 C 0 km/h
2243 06-03-2009 16:20:00 4.6 C 5.43 g/m*3 4.6 C 0 km/h
2244 06-03-2009 16:32:01 4.6 C 5.43 g/m*3 4.6 C 0 km/h
2245 06-03-2009 16:44:00 4.5 C 5.46 g/m*3 4.5 C 0 km/h
2246 06-03-2009 16:56:00 4.4 C 5.48 g/m*3 4.4 C 0 km/h
2247 06-03-2009 17:08:00 4.4 C 5.48 g/m*3 4.4 C 0 km/h
2248 06-03-2009 17:20:01 4.3 C 5.45 g/m*3 4.3 C 0 km/h
2249 06-03-2009 17:32:00 4.2 C 5.35 g/m*3 4.2 C 0 km/h
2250 06-03-2009 17:44:00 4.2 C 5.35 g/m*3 4.2 C 0 km/h
Sensor: Nr:Datum:Temp:Abs-Feuchte:Windchill:Wind:
Aussen-T/F 2251 06-03-2009 17:56:00 4.2 C 5.41 g/m*3 4.2 C 0 km/h
2252 06-03-2009 18:08:00 4.2 C 5.35 g/m*3 4.2 C 0 km/h
2253 06-03-2009 18:20:00 4.1 C 5.25 g/m*3 4.1 C 0 km/h
2254 06-03-2009 18:32:00 4 C 5.28 g/m*3 4 C 0 km/h
2255 06-03-2009 18:44:00 4 C 5.34 g/m*3 4 C 0 km/h
2256 06-03-2009 18:56:00 3.9 C 5.37 g/m*3 3.9 C 0 km/h
2257 06-03-2009 19:08:00 3.9 C 5.31 g/m*3 3.9 C 0 km/h
2258 06-03-2009 19:20:59 4 C 5.21 g/m*3 4 C 0 km/h
2259 06-03-2009 19:32:59 4 C 5.21 g/m*3 4 C 0 km/h
2260 06-03-2009 19:44:59 4 C 5.28 g/m*3 4 C 0 km/h
2261 06-03-2009 19:56:59 3.9 C 5.31 g/m*3 3.9 C 0 km/h
2262 06-03-2009 20:08:59 3.8 C 5.27 g/m*3 3.8 C 0 km/h
2263 06-03-2009 20:20:58 3.8 C 5.27 g/m*3 3.8 C 0 km/h
2264 06-03-2009 20:32:59 3.8 C 5.21 g/m*3 3.8 C 0 km/h
2265 06-03-2009 20:44:58 4 C 5.09 g/m*3 4 C 0 km/h
2266 06-03-2009 20:56:58 3.9 C 5.12 g/m*3 3.9 C 0 km/h
2267 06-03-2009 21:08:59 3.8 C 5.02 g/m*3 3.8 C 0 km/h
2268 06-03-2009 21:20:58 3.7 C 4.86 g/m*3 3.7 C 0 km/h
2269 06-03-2009 21:32:58 3.7 C 4.74 g/m*3 3.7 C 0 km/h
2270 06-03-2009 21:44:58 3.8 C 4.52 g/m*3 3.8 C 0 km/h
2271 06-03-2009 21:56:58 3.8 C 4.39 g/m*3 3.8 C 0 km/h
2272 06-03-2009 22:08:58 3.8 C 4.27 g/m*3 3.8 C 0 km/h
2273 06-03-2009 22:21:57 3.7 C 4.24 g/m*3 3.7 C 0 km/h
2274 06-03-2009 22:33:57 3.8 C 4.2 g/m*3 3.8 C 0 km/h
2275 06-03-2009 22:45:57 3.8 C 4.27 g/m*3 3.8 C 0 km/h
Sensor: Nr:Datum:Temp:Abs-Feuchte:Windchill:Wind:
Aussen-T/F 2276 06-03-2009 22:57:57 3.8 C 4.2 g/m*3 3.8 C 0 km/h
2277 06-03-2009 23:09:57 3.8 C 4.14 g/m*3 3.8 C 0 km/h
2278 06-03-2009 23:21:57 3.7 C 4.11 g/m*3 3.7 C 0 km/h
2279 06-03-2009 23:33:57 3.8 C 4.08 g/m*3 3.8 C 0 km/h
2280 06-03-2009 23:45:57 3.8 C 4.08 g/m*3 3.8 C 0 km/h
2281 06-03-2009 23:57:57 3.8 C 4.02 g/m*3 3.8 C 0 km/h
2282 07-03-2009 00:09:58 3.7 C 3.99 g/m*3 3.7 C 0 km/h
2283 07-03-2009 00:21:58 3.8 C 3.89 g/m*3 3.8 C 0 km/h
2284 07-03-2009 00:33:58 3.8 C 3.83 g/m*3 3.8 C 0 km/h
2285 07-03-2009 00:45:58 3.8 C 3.76 g/m*3 3.8 C 0 km/h
2286 07-03-2009 00:57:58 3.7 C 3.8 g/m*3 3.7 C 0 km/h
2287 07-03-2009 01:09:58 3.6 C 3.9 g/m*3 3.6 C 0 km/h
2288 07-03-2009 01:21:58 3.6 C 3.84 g/m*3 3.6 C 0 km/h
2289 07-03-2009 01:33:58 3.6 C 3.84 g/m*3 3.6 C 0 km/h
2290 07-03-2009 01:45:58 3.5 C 3.81 g/m*3 3.5 C 0 km/h
2291 07-03-2009 01:57:58 3.4 C 3.85 g/m*3 3.4 C 0 km/h
2292 07-03-2009 02:09:58 3.4 C 3.85 g/m*3 3.4 C 0 km/h
2293 07-03-2009 02:21:58 3.4 C 3.85 g/m*3 3.4 C 0 km/h
2294 07-03-2009 02:33:58 3.3 C 3.82 g/m*3 3.3 C 0 km/h
2295 07-03-2009 02:45:58 3.3 C 3.88 g/m*3 3.3 C 0 km/h
2296 07-03-2009 02:57:58 3.2 C 3.86 g/m*3 3.2 C 0 km/h
2297 07-03-2009 03:09:58 3.1 C 3.89 g/m*3 3.1 C 0 km/h
2298 07-03-2009 03:21:58 3.2 C 3.86 g/m*3 3.2 C 0 km/h
2299 07-03-2009 03:33:58 3.2 C 3.86 g/m*3 3.2 C 0 km/h
2300 07-03-2009 03:45:58 3.2 C 3.86 g/m*3 3.2 C 0 km/h
Sensor: Nr:Datum:Temp:Abs-Feuchte:Windchill:Wind:
Aussen-T/F 2301 07-03-2009 03:57:58 3.2 C 3.86 g/m*3 3.2 C 0 km/h
2302 07-03-2009 04:09:59 3.2 C 3.86 g/m*3 3.2 C 0 km/h
2303 07-03-2009 04:21:59 3.2 C 3.86 g/m*3 3.2 C 0 km/h
2304 07-03-2009 04:33:59 3.1 C 3.83 g/m*3 3.1 C 0 km/h
2305 07-03-2009 04:45:59 3.1 C 3.83 g/m*3 3.1 C 0 km/h
2306 07-03-2009 04:57:59 3.2 C 3.8 g/m*3 3.2 C 0 km/h
2307 07-03-2009 05:09:59 3.2 C 3.8 g/m*3 3.2 C 0 km/h
2308 07-03-2009 05:21:59 3.2 C 3.74 g/m*3 3.2 C 0 km/h
2309 07-03-2009 05:33:59 3.1 C 3.77 g/m*3 3.1 C 0 km/h
2310 07-03-2009 05:45:59 3 C 3.75 g/m*3 3 C 0 km/h
2311 07-03-2009 05:57:59 3 C 3.69 g/m*3 3 C 0 km/h
2312 07-03-2009 06:09:59 3 C 3.63 g/m*3 3 C 0 km/h
2313 07-03-2009 06:21:58 3 C 3.57 g/m*3 3 C 0 km/h
2314 07-03-2009 06:33:57 3 C 3.63 g/m*3 3 C 0 km/h
2315 07-03-2009 06:45:57 3 C 3.63 g/m*3 3 C 0 km/h
2316 07-03-2009 06:57:57 3 C 3.63 g/m*3 3 C 0 km/h
2317 07-03-2009 07:09:57 2.9 C 3.66 g/m*3 2.9 C 0 km/h
2318 07-03-2009 07:21:57 2.9 C 3.72 g/m*3 2.9 C 0 km/h
2319 07-03-2009 07:33:57 2.7 C 3.73 g/m*3 2.7 C 0 km/h
2320 07-03-2009 07:45:57 2.6 C 3.76 g/m*3 2.6 C 0 km/h
2321 07-03-2009 07:57:57 2.7 C 3.79 g/m*3 2.7 C 0 km/h
2322 07-03-2009 08:09:57 2.7 C 3.73 g/m*3 2.7 C 0 km/h
2323 07-03-2009 08:21:56 2.7 C 3.73 g/m*3 2.7 C 0 km/h
2324 07-03-2009 08:33:56 2.6 C 3.65 g/m*3 2.6 C 0 km/h
2325 07-03-2009 08:45:56 2.6 C 3.65 g/m*3 2.6 C 0 km/h
Sensor: Nr:Datum:Temp:Abs-Feuchte:Windchill:Wind:
Aussen-T/F 2326 07-03-2009 08:57:56 2.7 C 3.67 g/m*3 2.7 C 0 km/h
2327 07-03-2009 09:09:56 2.7 C 3.67 g/m*3 2.7 C 0 km/h
2328 07-03-2009 09:21:56 3 C 3.69 g/m*3 3 C 0 km/h
2329 07-03-2009 09:33:56 3.3 C 3.7 g/m*3 3.3 C 0 km/h
2330 07-03-2009 09:45:56 3.2 C 3.62 g/m*3 3.2 C 0 km/h
2331 07-03-2009 09:57:56 3.1 C 3.71 g/m*3 3.1 C 0 km/h
2332 07-03-2009 10:09:56 3.2 C 3.8 g/m*3 3.2 C 0 km/h
2333 07-03-2009 10:21:55 3.5 C 3.87 g/m*3 3.5 C 0 km/h
2334 07-03-2009 10:33:55 3.9 C 3.85 g/m*3 3.9 C 0 km/h
2335 07-03-2009 10:45:55 4.5 C 3.94 g/m*3 4.5 C 0 km/h
2336 07-03-2009 10:57:55 5 C 3.87 g/m*3 5 C 0 km/h
2337 07-03-2009 11:09:55 5.1 C 3.97 g/m*3 5.1 C 0 km/h
2338 07-03-2009 11:21:54 5.9 C 3.97 g/m*3 5.9 C 0 km/h
2339 07-03-2009 11:33:55 6.6 C 3.85 g/m*3 6.6 C 0 km/h
2340 07-03-2009 11:45:54 7.2 C 3.77 g/m*3 7.2 C 0 km/h
2341 07-03-2009 11:57:54 7.4 C 3.9 g/m*3 7.4 C 0 km/h
2342 07-03-2009 12:09:54 7.5 C 3.76 g/m*3 7.5 C 0 km/h
2343 07-03-2009 12:21:55 7.6 C 3.63 g/m*3 7.6 C 0 km/h
2344 07-03-2009 12:33:54 7.8 C 3.59 g/m*3 7.8 C 0 km/h
2345 07-03-2009 12:45:54 8.2 C 3.43 g/m*3 8.2 C 0 km/h
2346 07-03-2009 12:57:54 7.9 C 3.37 g/m*3 7.9 C 0 km/h
2347 07-03-2009 13:09:54 8.5 C 3.24 g/m*3 8.5 C 0 km/h
2348 07-03-2009 13:21:54 8.4 C 3.22 g/m*3 8.4 C 0 km/h
2349 07-03-2009 13:33:54 9 C 3.26 g/m*3 9 C 0 km/h
2350 07-03-2009 13:45:53 8.5 C 3.07 g/m*3 8.5 C 0 km/h
Sensor: Nr:Datum:Temp:Abs-Feuchte:Windchill:Wind:
Aussen-T/F 2351 07-03-2009 13:57:53 9.4 C 3.26 g/m*3 9.4 C 0 km/h
2352 07-03-2009 14:09:54 10 C 3.01 g/m*3 10 C 0 km/h
2353 07-03-2009 14:21:53 10.8 C 3.06 g/m*3 10.8 C 0 km/h
2354 07-03-2009 14:33:53 11.3 C 2.96 g/m*3 11.3 C 0 km/h
2355 07-03-2009 14:45:53 11.4 C 2.77 g/m*3 11.4 C 0 km/h
2356 07-03-2009 14:57:53 11.3 C 2.86 g/m*3 11.3 C 0 km/h
2357 07-03-2009 15:09:53 11.8 C 2.74 g/m*3 11.8 C 0 km/h
2358 07-03-2009 15:21:52 11.9 C 2.65 g/m*3 11.9 C 0 km/h
2359 07-03-2009 15:33:52 11 C 3.2 g/m*3 11 C 0 km/h
2360 07-03-2009 15:45:52 10.8 C 3.36 g/m*3 10.8 C 0 km/h
2361 07-03-2009 15:57:52 11 C 3 g/m*3 11 C 0 km/h
2362 07-03-2009 16:09:52 10.7 C 2.75 g/m*3 10.7 C 0 km/h
2363 07-03-2009 16:21:52 10.2 C 2.85 g/m*3 10.2 C 0 km/h
2364 07-03-2009 16:33:52 10.4 C 2.89 g/m*3 10.4 C 0 km/h
2365 07-03-2009 16:45:52 10.6 C 2.73 g/m*3 10.6 C 0 km/h
2366 07-03-2009 16:57:52 10.4 C 2.6 g/m*3 10.4 C 0 km/h
2367 07-03-2009 17:09:51 9.6 C 3.57 g/m*3 9.6 C 0 km/h
2368 07-03-2009 17:21:52 9.2 C 3.75 g/m*3 9.2 C 0 km/h
2369 07-03-2009 17:33:51 8.7 C 3.89 g/m*3 8.7 C 0 km/h
2370 07-03-2009 17:45:51 8.4 C 3.99 g/m*3 8.4 C 0 km/h
2371 07-03-2009 17:57:51 8 C 4.05 g/m*3 8 C 0 km/h
2372 07-03-2009 18:09:51 7.8 C 4.08 g/m*3 7.8 C 0 km/h
2373 07-03-2009 18:21:51 7.5 C 4.16 g/m*3 7.5 C 0 km/h
2374 07-03-2009 18:33:51 7.2 C 4.16 g/m*3 7.2 C 0 km/h
2375 07-03-2009 18:45:50 6.8 C 4.21 g/m*3 6.8 C 0 km/h
Sensor: Nr:Datum:Temp:Abs-Feuchte:Windchill:Wind:
Aussen-T/F 2376 07-03-2009 18:57:50 6.4 C 4.17 g/m*3 6.4 C 0 km/h
2377 07-03-2009 19:09:51 6.2 C 4.27 g/m*3 6.2 C 0 km/h
2378 07-03-2009 19:21:50 5.8 C 4.3 g/m*3 5.8 C 0 km/h
2379 07-03-2009 19:33:50 5.6 C 4.31 g/m*3 5.6 C 0 km/h
2380 07-03-2009 19:45:50 5.3 C 4.23 g/m*3 5.3 C 0 km/h
2381 07-03-2009 19:57:50 5.3 C 4.3 g/m*3 5.3 C 0 km/h
2382 07-03-2009 20:09:50 5.2 C 4.27 g/m*3 5.2 C 0 km/h
2383 07-03-2009 20:21:49 5.6 C 4.38 g/m*3 5.6 C 0 km/h
2384 07-03-2009 20:33:50 6 C 4.28 g/m*3 6 C 0 km/h
2385 07-03-2009 20:45:50 6 C 4.21 g/m*3 6 C 0 km/h
2386 07-03-2009 20:57:50 5.9 C 4.25 g/m*3 5.9 C 0 km/h
2387 07-03-2009 21:09:50 5.9 C 4.25 g/m*3 5.9 C 0 km/h
2388 07-03-2009 21:21:49 5.9 C 4.25 g/m*3 5.9 C 0 km/h
2389 07-03-2009 21:33:49 6 C 4.14 g/m*3 6 C 0 km/h
2390 07-03-2009 21:45:49 6.1 C 4.09 g/m*3 6.1 C 0 km/h
2391 07-03-2009 21:57:49 6.2 C 4.04 g/m*3 6.2 C 0 km/h
2392 07-03-2009 22:09:49 6.4 C 4.1 g/m*3 6.4 C 0 km/h
2393 07-03-2009 22:21:48 6.2 C 4.04 g/m*3 6.2 C 0 km/h
2394 07-03-2009 22:33:49 6.4 C 4.1 g/m*3 6.4 C 0 km/h
2395 07-03-2009 22:46:50 6.4 C 4.17 g/m*3 6.4 C 0 km/h
2396 07-03-2009 22:58:50 6.2 C 4.19 g/m*3 6.2 C 0 km/h
2397 07-03-2009 23:10:50 6.3 C 4.22 g/m*3 6.3 C 0 km/h
2398 07-03-2009 23:22:50 6.3 C 4.29 g/m*3 6.3 C 0 km/h
2399 07-03-2009 23:34:50 6.5 C 4.12 g/m*3 6.5 C 0 km/h
2400 07-03-2009 23:46:50 6.5 C 4.2 g/m*3 6.5 C 0 km/h
Sensor: Nr:Datum:Temp:Abs-Feuchte:Windchill:Wind:
Aussen-T/F 2401 07-03-2009 23:58:50 6.4 C 4.25 g/m*3 6.4 C 0 km/h
2402 08-03-2009 00:10:50 6.3 C 4.22 g/m*3 6.3 C 0 km/h
2403 08-03-2009 00:22:50 6.4 C 4.25 g/m*3 6.4 C 0 km/h
2404 08-03-2009 00:34:50 6.3 C 4.22 g/m*3 6.3 C 0 km/h
2405 08-03-2009 00:46:50 6.3 C 4.29 g/m*3 6.3 C 0 km/h
2406 08-03-2009 00:58:51 6.1 C 4.31 g/m*3 6.1 C 0 km/h
2407 08-03-2009 01:10:51 5.9 C 4.4 g/m*3 5.9 C 0 km/h
2408 08-03-2009 01:22:51 6.1 C 4.38 g/m*3 6.1 C 0 km/h
2409 08-03-2009 01:34:51 6.3 C 4.44 g/m*3 6.3 C 0 km/h
2410 08-03-2009 01:46:51 6.3 C 4.44 g/m*3 6.3 C 0 km/h
2411 08-03-2009 01:58:51 6.5 C 4.35 g/m*3 6.5 C 0 km/h
2412 08-03-2009 02:10:51 6.4 C 4.4 g/m*3 6.4 C 0 km/h
2413 08-03-2009 02:22:51 6.4 C 4.4 g/m*3 6.4 C 0 km/h
2414 08-03-2009 02:34:51 6.4 C 4.4 g/m*3 6.4 C 0 km/h
2415 08-03-2009 02:46:51 6.5 C 4.57 g/m*3 6.5 C 0 km/h
2416 08-03-2009 02:58:51 6.7 C 4.64 g/m*3 6.7 C 0 km/h
2417 08-03-2009 03:10:51 6.6 C 4.6 g/m*3 6.6 C 0 km/h
2418 08-03-2009 03:22:51 6.6 C 4.68 g/m*3 6.6 C 0 km/h
2419 08-03-2009 03:34:51 6.7 C 4.71 g/m*3 6.7 C 0 km/h
2420 08-03-2009 03:46:51 6.9 C 4.77 g/m*3 6.9 C 0 km/h
2421 08-03-2009 03:58:51 7 C 4.65 g/m*3 7 C 0 km/h
2422 08-03-2009 04:10:51 7.1 C 4.76 g/m*3 7.1 C 0 km/h
2423 08-03-2009 04:22:51 7.1 C 4.76 g/m*3 7.1 C 0 km/h
2424 08-03-2009 04:34:51 7.1 C 4.76 g/m*3 7.1 C 0 km/h
2425 08-03-2009 04:46:52 7.2 C 4.79 g/m*3 7.2 C 0 km/h
Sensor: Nr:Datum:Temp:Abs-Feuchte:Windchill:Wind:
Aussen-T/F 2426 08-03-2009 04:58:52 7.2 C 4.79 g/m*3 7.2 C 0 km/h
2427 08-03-2009 05:10:52 7.2 C 4.71 g/m*3 7.2 C 0 km/h
2428 08-03-2009 05:22:52 7.3 C 4.74 g/m*3 7.3 C 0 km/h
2429 08-03-2009 05:34:52 7.2 C 4.71 g/m*3 7.2 C 0 km/h
2430 08-03-2009 05:46:52 7.3 C 4.74 g/m*3 7.3 C 0 km/h
2431 08-03-2009 05:58:52 7.3 C 4.74 g/m*3 7.3 C 0 km/h
2432 08-03-2009 06:10:52 7.2 C 4.79 g/m*3 7.2 C 0 km/h
2433 08-03-2009 06:22:52 7.2 C 4.71 g/m*3 7.2 C 0 km/h
2434 08-03-2009 06:34:52 7.3 C 4.82 g/m*3 7.3 C 0 km/h
2435 08-03-2009 06:46:52 7.3 C 4.82 g/m*3 7.3 C 0 km/h
2436 08-03-2009 06:58:52 7.3 C 4.9 g/m*3 7.3 C 0 km/h
2437 08-03-2009 07:10:52 7.3 C 4.9 g/m*3 7.3 C 0 km/h
2438 08-03-2009 07:22:52 7.3 C 4.98 g/m*3 7.3 C 0 km/h
2439 08-03-2009 07:34:52 7.3 C 4.98 g/m*3 7.3 C 0 km/h
2440 08-03-2009 07:46:49 7.3 C 5.06 g/m*3 7.3 C 0 km/h
2441 08-03-2009 07:58:49 7.4 C 5.17 g/m*3 7.4 C 0 km/h
2442 08-03-2009 08:10:50 7.5 C 5.2 g/m*3 7.5 C 0 km/h
2443 08-03-2009 08:22:50 7.8 C 5.3 g/m*3 7.8 C 0 km/h
2444 08-03-2009 08:34:49 8 C 5.21 g/m*3 8 C 0 km/h
2445 08-03-2009 08:46:49 8.1 C 5.16 g/m*3 8.1 C 0 km/h
2446 08-03-2009 08:58:49 8 C 5.21 g/m*3 8 C 0 km/h
2447 08-03-2009 09:10:49 8 C 5.21 g/m*3 8 C 0 km/h
2448 08-03-2009 09:22:49 8.2 C 5.28 g/m*3 8.2 C 0 km/h
2449 08-03-2009 09:34:48 8.2 C 5.28 g/m*3 8.2 C 0 km/h
2450 08-03-2009 09:46:49 8.2 C 5.28 g/m*3 8.2 C 0 km/h
Sensor: Nr:Datum:Temp:Abs-Feuchte:Windchill:Wind:
Aussen-T/F 2451 08-03-2009 09:58:49 8.2 C 5.28 g/m*3 8.2 C 0 km/h
2452 08-03-2009 10:10:48 8.3 C 5.31 g/m*3 8.3 C 0 km/h
2453 08-03-2009 10:22:48 8.3 C 5.31 g/m*3 8.3 C 0 km/h
2454 08-03-2009 10:34:48 8.3 C 5.39 g/m*3 8.3 C 0 km/h
2455 08-03-2009 10:46:48 8.5 C 5.46 g/m*3 8.5 C 0 km/h
2456 08-03-2009 10:58:48 8.5 C 5.55 g/m*3 8.5 C 0 km/h
2457 08-03-2009 11:10:47 8.5 C 5.64 g/m*3 8.5 C 0 km/h
2458 08-03-2009 11:22:48 8.5 C 5.64 g/m*3 8.5 C 0 km/h
2459 08-03-2009 11:34:48 8.7 C 5.71 g/m*3 8.7 C 0 km/h
2460 08-03-2009 11:46:47 8.6 C 5.67 g/m*3 8.6 C 0 km/h
2461 08-03-2009 11:58:47 8.6 C 5.76 g/m*3 8.6 C 0 km/h
2462 08-03-2009 12:10:48 8.8 C 5.83 g/m*3 8.8 C 0 km/h
2463 08-03-2009 12:22:47 9.1 C 5.68 g/m*3 9.1 C 0 km/h
2464 08-03-2009 12:34:47 9.3 C 5.66 g/m*3 9.3 C 0 km/h
2465 08-03-2009 12:46:46 9.3 C 5.57 g/m*3 9.3 C 0 km/h
2466 08-03-2009 12:58:46 9.1 C 5.77 g/m*3 9.1 C 0 km/h
2467 08-03-2009 13:10:47 8.9 C 6.13 g/m*3 8.9 C 0 km/h
2468 08-03-2009 13:22:46 8.7 C 6.31 g/m*3 8.7 C 0 km/h
2469 08-03-2009 13:34:46 8.9 C 6.48 g/m*3 8.9 C 0 km/h
2470 08-03-2009 13:46:47 9.6 C 6.32 g/m*3 9.6 C 0 km/h
2471 08-03-2009 13:58:47 10.2 C 6.09 g/m*3 10.2 C 0 km/h
2472 08-03-2009 14:10:46 10.2 C 6 g/m*3 10.2 C 0 km/h
2473 08-03-2009 14:22:46 10.1 C 5.96 g/m*3 10.1 C 0 km/h
2474 08-03-2009 14:34:46 10.4 C 5.98 g/m*3 10.4 C 0 km/h
2475 08-03-2009 14:46:46 10.5 C 5.92 g/m*3 10.5 C 0 km/h
Sensor: Nr:Datum:Temp:Abs-Feuchte:Windchill:Wind:
Aussen-T/F 2476 08-03-2009 14:58:46 10.3 C 5.94 g/m*3 10.3 C 0 km/h
2477 08-03-2009 15:10:45 10.2 C 5.9 g/m*3 10.2 C 0 km/h
2478 08-03-2009 15:22:46 9.9 C 6.16 g/m*3 9.9 C 0 km/h
2479 08-03-2009 15:34:45 9.7 C 6.36 g/m*3 9.7 C 0 km/h
2480 08-03-2009 15:46:45 10.1 C 6.24 g/m*3 10.1 C 0 km/h
2481 08-03-2009 15:58:45 9.8 C 6.31 g/m*3 9.8 C 0 km/h
2482 08-03-2009 16:10:45 9.3 C 6.56 g/m*3 9.3 C 0 km/h
2483 08-03-2009 16:22:45 9 C 6.88 g/m*3 9 C 0 km/h
2484 08-03-2009 16:34:45 8.7 C 7.09 g/m*3 8.7 C 0 km/h
2485 08-03-2009 16:46:44 8.5 C 6.92 g/m*3 8.5 C 0 km/h
2486 08-03-2009 16:58:44 8.5 C 6.92 g/m*3 8.5 C 0 km/h
2487 08-03-2009 17:10:45 8.5 C 6.83 g/m*3 8.5 C 0 km/h
2488 08-03-2009 17:22:44 8.4 C 6.87 g/m*3 8.4 C 0 km/h
2489 08-03-2009 17:34:45 8.3 C 6.91 g/m*3 8.3 C 0 km/h
2490 08-03-2009 17:46:44 8.4 C 7.04 g/m*3 8.4 C 0 km/h
2491 08-03-2009 17:58:44 8.3 C 7.08 g/m*3 8.3 C 0 km/h
2492 08-03-2009 18:10:44 8.2 C 7.03 g/m*3 8.2 C 0 km/h
2493 08-03-2009 18:22:44 8.1 C 6.99 g/m*3 8.1 C 0 km/h
2494 08-03-2009 18:34:44 8.1 C 7.07 g/m*3 8.1 C 0 km/h
2495 08-03-2009 18:46:43 8.2 C 6.45 g/m*3 8.2 C 0 km/h
2496 08-03-2009 18:58:43 8.1 C 6.24 g/m*3 8.1 C 0 km/h
2497 08-03-2009 19:10:44 8.1 C 6.32 g/m*3 8.1 C 0 km/h
2498 08-03-2009 19:22:43 7.7 C 6.24 g/m*3 7.7 C 0 km/h
2499 08-03-2009 19:34:43 7.1 C 6.16 g/m*3 7.1 C 0 km/h
2500 08-03-2009 19:46:43 6.9 C 6.31 g/m*3 6.9 C 0 km/h
Sensor: Nr:Datum:Temp:Abs-Feuchte:Windchill:Wind:
Aussen-T/F 2501 08-03-2009 19:58:43 7 C 6.43 g/m*3 7 C 0 km/h
2502 08-03-2009 20:10:43 6.9 C 6.47 g/m*3 6.9 C 0 km/h
2503 08-03-2009 20:22:43 6.9 C 6.54 g/m*3 6.9 C 0 km/h
2504 08-03-2009 20:34:42 6.6 C 6.34 g/m*3 6.6 C 0 km/h
2505 08-03-2009 20:46:43 6.2 C 6.1 g/m*3 6.2 C 0 km/h
2506 08-03-2009 20:58:43 5.8 C 6.02 g/m*3 5.8 C 0 km/h
2507 08-03-2009 21:10:43 5.4 C 5.86 g/m*3 5.4 C 0 km/h
2508 08-03-2009 21:22:42 5.2 C 5.78 g/m*3 5.2 C 0 km/h
2509 08-03-2009 21:34:42 5.1 C 5.75 g/m*3 5.1 C 0 km/h
2510 08-03-2009 21:46:42 5.1 C 5.75 g/m*3 5.1 C 0 km/h
2511 08-03-2009 21:58:42 5 C 5.71 g/m*3 5 C 0 km/h
2512 08-03-2009 22:10:42 4.8 C 5.63 g/m*3 4.8 C 0 km/h
2513 08-03-2009 22:22:41 4.7 C 5.6 g/m*3 4.7 C 0 km/h
2514 08-03-2009 22:34:41 4.6 C 5.56 g/m*3 4.6 C 0 km/h
2515 08-03-2009 22:46:41 4.8 C 5.5 g/m*3 4.8 C 0 km/h
2516 08-03-2009 22:58:41 5.3 C 4.92 g/m*3 5.3 C 0 km/h
2517 08-03-2009 23:10:41 5.3 C 4.71 g/m*3 5.3 C 0 km/h
2518 08-03-2009 23:23:43 4.7 C 4.8 g/m*3 4.7 C 0 km/h
2519 08-03-2009 23:35:43 4.6 C 4.83 g/m*3 4.6 C 0 km/h
2520 08-03-2009 23:47:43 4.5 C 4.8 g/m*3 4.5 C 0 km/h
2521 08-03-2009 23:59:43 4.4 C 4.77 g/m*3 4.4 C 0 km/h
2522 09-03-2009 00:11:43 4.4 C 4.83 g/m*3 4.4 C 0 km/h
2523 09-03-2009 00:23:43 4.8 C 4.96 g/m*3 4.8 C 0 km/h
2524 09-03-2009 00:35:43 5.1 C 4.79 g/m*3 5.1 C 0 km/h
2525 09-03-2009 00:47:43 5 C 4.69 g/m*3 5 C 0 km/h
Sensor: Nr:Datum:Temp:Abs-Feuchte:Windchill:Wind:
Aussen-T/F 2526 09-03-2009 00:59:43 5 C 4.69 g/m*3 5 C 0 km/h
2527 09-03-2009 01:11:43 4.7 C 4.73 g/m*3 4.7 C 0 km/h
2528 09-03-2009 01:23:43 4.7 C 4.2 g/m*3 4.7 C 0 km/h
2529 09-03-2009 01:35:43 4.7 C 4.46 g/m*3 4.7 C 0 km/h
2530 09-03-2009 01:47:43 4.7 C 4.46 g/m*3 4.7 C 0 km/h
2531 09-03-2009 01:59:44 4.7 C 4.06 g/m*3 4.7 C 0 km/h
2532 09-03-2009 02:11:44 4.7 C 3.73 g/m*3 4.7 C 0 km/h
2533 09-03-2009 02:23:44 4.7 C 3.66 g/m*3 4.7 C 0 km/h
2534 09-03-2009 02:35:44 4.3 C 3.63 g/m*3 4.3 C 0 km/h
2535 09-03-2009 02:47:44 3.9 C 3.79 g/m*3 3.9 C 0 km/h
2536 09-03-2009 02:59:44 3.7 C 3.74 g/m*3 3.7 C 0 km/h
2537 09-03-2009 03:11:44 3.6 C 3.71 g/m*3 3.6 C 0 km/h
2538 09-03-2009 03:23:44 3.5 C 3.75 g/m*3 3.5 C 0 km/h
2539 09-03-2009 03:35:44 3.3 C 3.76 g/m*3 3.3 C 0 km/h
2540 09-03-2009 03:47:44 3.3 C 3.94 g/m*3 3.3 C 0 km/h
2541 09-03-2009 03:59:44 3.4 C 4.03 g/m*3 3.4 C 0 km/h
2542 09-03-2009 04:11:44 3.4 C 4.09 g/m*3 3.4 C 0 km/h
2543 09-03-2009 04:23:44 3.6 C 4.15 g/m*3 3.6 C 0 km/h
2544 09-03-2009 04:35:44 3.7 C 4.3 g/m*3 3.7 C 0 km/h
2545 09-03-2009 04:47:44 3.3 C 4.49 g/m*3 3.3 C 0 km/h
2546 09-03-2009 04:59:44 3.2 C 4.64 g/m*3 3.2 C 0 km/h
2547 09-03-2009 05:11:44 3.1 C 4.67 g/m*3 3.1 C 0 km/h
2548 09-03-2009 05:23:44 3.1 C 4.73 g/m*3 3.1 C 0 km/h
2549 09-03-2009 05:35:44 3 C 4.64 g/m*3 3 C 0 km/h
2550 09-03-2009 05:47:45 3.2 C 4.64 g/m*3 3.2 C 0 km/h
Sensor: Nr:Datum:Temp:Abs-Feuchte:Windchill:Wind:
Aussen-T/F 2551 09-03-2009 05:59:45 3.3 C 4.61 g/m*3 3.3 C 0 km/h
2552 09-03-2009 06:11:45 3.1 C 4.67 g/m*3 3.1 C 0 km/h
2553 09-03-2009 06:23:45 2.5 C 4.66 g/m*3 2.5 C 0 km/h
2554 09-03-2009 06:35:45 2.3 C 4.71 g/m*3 2.3 C 0 km/h
2555 09-03-2009 06:47:45 2.1 C 4.7 g/m*3 2.1 C 0 km/h
2556 09-03-2009 06:59:42 2.2 C 4.79 g/m*3 2.2 C 0 km/h
2557 09-03-2009 07:11:42 2.2 C 4.73 g/m*3 2.2 C 0 km/h
2558 09-03-2009 07:23:42 2.1 C 4.42 g/m*3 2.1 C 0 km/h
2559 09-03-2009 07:35:41 2.1 C 4.2 g/m*3 2.1 C 0 km/h
2560 09-03-2009 07:47:42 2 C 3.95 g/m*3 2 C 0 km/h
2561 09-03-2009 07:59:41 2.1 C 3.92 g/m*3 2.1 C 0 km/h
2562 09-03-2009 08:11:41 2.2 C 3.89 g/m*3 2.2 C 0 km/h
2563 09-03-2009 08:23:41 2.6 C 3.82 g/m*3 2.6 C 0 km/h
2564 09-03-2009 08:35:42 2.5 C 3.91 g/m*3 2.5 C 0 km/h
2565 09-03-2009 08:47:41 3 C 3.92 g/m*3 3 C 0 km/h
2566 09-03-2009 08:59:41 3.4 C 3.97 g/m*3 3.4 C 0 km/h
2567 09-03-2009 09:11:41 3.5 C 4 g/m*3 3.5 C 0 km/h
2568 09-03-2009 09:23:40 3.3 C 4 g/m*3 3.3 C 0 km/h
2569 09-03-2009 09:35:41 3.7 C 4.11 g/m*3 3.7 C 0 km/h
2570 09-03-2009 09:47:40 4.2 C 3.99 g/m*3 4.2 C 0 km/h
2571 09-03-2009 09:59:40 4.5 C 4.01 g/m*3 4.5 C 0 km/h
2572 09-03-2009 10:11:41 4.7 C 4.13 g/m*3 4.7 C 0 km/h
2573 09-03-2009 10:23:40 5.1 C 3.97 g/m*3 5.1 C 0 km/h
2574 09-03-2009 10:35:40 5.3 C 4.02 g/m*3 5.3 C 0 km/h
2575 09-03-2009 10:47:39 5.6 C 4.03 g/m*3 5.6 C 0 km/h
Sensor: Nr:Datum:Temp:Abs-Feuchte:Windchill:Wind:
Aussen-T/F 2576 09-03-2009 10:59:40 5.6 C 3.96 g/m*3 5.6 C 0 km/h
2577 09-03-2009 11:11:40 6 C 3.92 g/m*3 6 C 0 km/h
2578 09-03-2009 11:23:40 5.8 C 3.94 g/m*3 5.8 C 0 km/h
2579 09-03-2009 11:35:39 6.4 C 3.95 g/m*3 6.4 C 0 km/h
2580 09-03-2009 11:47:40 6.1 C 3.8 g/m*3 6.1 C 0 km/h
2581 09-03-2009 11:59:39 6.5 C 3.97 g/m*3 6.5 C 0 km/h
2582 09-03-2009 12:11:39 7.2 C 3.92 g/m*3 7.2 C 0 km/h
2583 09-03-2009 12:23:39 7 C 3.56 g/m*3 7 C 0 km/h
2584 09-03-2009 12:35:38 7 C 3.64 g/m*3 7 C 0 km/h
2585 09-03-2009 12:47:39 7.2 C 3.69 g/m*3 7.2 C 0 km/h
2586 09-03-2009 12:59:39 7.7 C 3.49 g/m*3 7.7 C 0 km/h
2587 09-03-2009 13:11:39 7.7 C 3.49 g/m*3 7.7 C 0 km/h
2588 09-03-2009 13:23:38 7.4 C 3.42 g/m*3 7.4 C 0 km/h
2589 09-03-2009 13:35:39 7.5 C 3.52 g/m*3 7.5 C 0 km/h
2590 09-03-2009 13:47:38 7.7 C 3.24 g/m*3 7.7 C 0 km/h
2591 09-03-2009 13:59:38 8 C 3.22 g/m*3 8 C 0 km/h
2592 09-03-2009 14:11:38 7.7 C 3.24 g/m*3 7.7 C 0 km/h
2593 09-03-2009 14:23:38 8.2 C 3.35 g/m*3 8.2 C 0 km/h
2594 09-03-2009 14:35:38 8.4 C 3.48 g/m*3 8.4 C 0 km/h
2595 09-03-2009 14:47:37 8.3 C 3.46 g/m*3 8.3 C 0 km/h
2596 09-03-2009 14:59:38 7.2 C 3.69 g/m*3 7.2 C 0 km/h
2597 09-03-2009 15:11:38 6.3 C 4 g/m*3 6.3 C 0 km/h
2598 09-03-2009 15:23:37 6.9 C 4.16 g/m*3 6.9 C 0 km/h
2599 09-03-2009 15:35:37 8.1 C 3.83 g/m*3 8.1 C 0 km/h
2600 09-03-2009 15:47:38 8.7 C 3.63 g/m*3 8.7 C 0 km/h
Sensor: Nr:Datum:Temp:Abs-Feuchte:Windchill:Wind:
Aussen-T/F 2601 09-03-2009 15:59:37 8.6 C 3.52 g/m*3 8.6 C 0 km/h
2602 09-03-2009 16:11:37 9.5 C 3.55 g/m*3 9.5 C 0 km/h
2603 09-03-2009 16:23:37 8.7 C 3.55 g/m*3 8.7 C 0 km/h
2604 09-03-2009 16:35:36 8.7 C 3.72 g/m*3 8.7 C 0 km/h
2605 09-03-2009 16:47:37 8.8 C 3.74 g/m*3 8.8 C 0 km/h
2606 09-03-2009 16:59:36 9.1 C 3.37 g/m*3 9.1 C 0 km/h
2607 09-03-2009 17:11:36 8.3 C 3.37 g/m*3 8.3 C 0 km/h
2608 09-03-2009 17:23:36 8 C 3.47 g/m*3 8 C 0 km/h
2609 09-03-2009 17:35:37 7.9 C 3.61 g/m*3 7.9 C 0 km/h
2610 09-03-2009 17:47:36 7.5 C 3.68 g/m*3 7.5 C 0 km/h
2611 09-03-2009 17:59:36 7.4 C 3.66 g/m*3 7.4 C 0 km/h
2612 09-03-2009 18:11:36 7.4 C 3.74 g/m*3 7.4 C 0 km/h
2613 09-03-2009 18:23:36 7.3 C 3.71 g/m*3 7.3 C 0 km/h
2614 09-03-2009 18:35:36 7 C 3.87 g/m*3 7 C 0 km/h
2615 09-03-2009 18:47:35 6.7 C 4.1 g/m*3 6.7 C 0 km/h
2616 09-03-2009 18:59:35 6.4 C 4.17 g/m*3 6.4 C 0 km/h
2617 09-03-2009 19:11:35 6.4 C 4.1 g/m*3 6.4 C 0 km/h
2618 09-03-2009 19:23:35 6.2 C 3.82 g/m*3 6.2 C 0 km/h
2619 09-03-2009 19:35:35 6 C 3.85 g/m*3 6 C 0 km/h
2620 09-03-2009 19:47:34 5.8 C 4.01 g/m*3 5.8 C 0 km/h
2621 09-03-2009 19:59:35 5.8 C 4.08 g/m*3 5.8 C 0 km/h
2622 09-03-2009 20:11:35 5.8 C 4.23 g/m*3 5.8 C 0 km/h
2623 09-03-2009 20:23:35 5.5 C 4.28 g/m*3 5.5 C 0 km/h
2624 09-03-2009 20:35:34 5.2 C 4.34 g/m*3 5.2 C 0 km/h
2625 09-03-2009 20:47:35 4.9 C 4.46 g/m*3 4.9 C 0 km/h
Sensor: Nr:Datum:Temp:Abs-Feuchte:Windchill:Wind:
Aussen-T/F 2626 09-03-2009 20:59:34 4.8 C 4.56 g/m*3 4.8 C 0 km/h
2627 09-03-2009 21:11:34 4.6 C 4.57 g/m*3 4.6 C 0 km/h
2628 09-03-2009 21:23:34 4.4 C 4.64 g/m*3 4.4 C 0 km/h
2629 09-03-2009 21:35:34 4 C 4.77 g/m*3 4 C 0 km/h
2630 09-03-2009 21:48:35 3.8 C 4.89 g/m*3 3.8 C 0 km/h
2631 09-03-2009 22:00:35 3.8 C 4.89 g/m*3 3.8 C 0 km/h
2632 09-03-2009 22:12:35 4.1 C 4.86 g/m*3 4.1 C 0 km/h
2633 09-03-2009 22:24:35 3.7 C 4.8 g/m*3 3.7 C 0 km/h
2634 09-03-2009 22:36:35 4 C 4.58 g/m*3 4 C 0 km/h
2635 09-03-2009 22:48:35 3.9 C 4.61 g/m*3 3.9 C 0 km/h
2636 09-03-2009 23:00:35 3.7 C 4.61 g/m*3 3.7 C 0 km/h
2637 09-03-2009 23:12:35 3.5 C 4.61 g/m*3 3.5 C 0 km/h
2638 09-03-2009 23:24:35 3.3 C 4.67 g/m*3 3.3 C 0 km/h
2639 09-03-2009 23:36:35 3.2 C 4.7 g/m*3 3.2 C 0 km/h
2640 09-03-2009 23:48:35 3.4 C 4.83 g/m*3 3.4 C 0 km/h
2641 10-03-2009 00:00:35 3.4 C 4.83 g/m*3 3.4 C 0 km/h
2642 10-03-2009 00:12:35 3.3 C 4.79 g/m*3 3.3 C 0 km/h
2643 10-03-2009 00:24:35 3.4 C 4.89 g/m*3 3.4 C 0 km/h
2644 10-03-2009 00:36:35 3.7 C 4.92 g/m*3 3.7 C 0 km/h
2645 10-03-2009 00:48:35 3.9 C 4.86 g/m*3 3.9 C 0 km/h
2646 10-03-2009 01:00:35 4.1 C 4.8 g/m*3 4.1 C 0 km/h
2647 10-03-2009 01:12:35 4.2 C 4.77 g/m*3 4.2 C 0 km/h
2648 10-03-2009 01:24:36 4.3 C 4.67 g/m*3 4.3 C 0 km/h
2649 10-03-2009 01:36:36 4.3 C 4.67 g/m*3 4.3 C 0 km/h
2650 10-03-2009 01:48:36 4.4 C 4.64 g/m*3 4.4 C 0 km/h
Sensor: Nr:Datum:Temp:Abs-Feuchte:Windchill:Wind:
Aussen-T/F 2651 10-03-2009 02:00:36 4.5 C 4.6 g/m*3 4.5 C 0 km/h
2652 10-03-2009 02:12:36 4.4 C 4.64 g/m*3 4.4 C 0 km/h
2653 10-03-2009 02:24:36 4.6 C 4.57 g/m*3 4.6 C 0 km/h
2654 10-03-2009 02:36:36 4.7 C 4.46 g/m*3 4.7 C 0 km/h
2655 10-03-2009 02:48:36 4.7 C 4.4 g/m*3 4.7 C 0 km/h
2656 10-03-2009 03:00:36 4.7 C 4.4 g/m*3 4.7 C 0 km/h
2657 10-03-2009 03:12:36 4.5 C 4.4 g/m*3 4.5 C 0 km/h
2658 10-03-2009 03:24:36 4.5 C 4.4 g/m*3 4.5 C 0 km/h
2659 10-03-2009 03:36:36 4.5 C 4.4 g/m*3 4.5 C 0 km/h
2660 10-03-2009 03:48:36 4.5 C 4.47 g/m*3 4.5 C 0 km/h
2661 10-03-2009 04:00:36 4.6 C 4.43 g/m*3 4.6 C 0 km/h
2662 10-03-2009 04:12:36 4.5 C 4.4 g/m*3 4.5 C 0 km/h
2663 10-03-2009 04:24:36 4.6 C 4.43 g/m*3 4.6 C 0 km/h
2664 10-03-2009 04:36:36 4.5 C 4.4 g/m*3 4.5 C 0 km/h
2665 10-03-2009 04:48:36 4.4 C 4.44 g/m*3 4.4 C 0 km/h
2666 10-03-2009 05:00:36 4.4 C 4.37 g/m*3 4.4 C 0 km/h
2667 10-03-2009 05:12:37 4.4 C 4.44 g/m*3 4.4 C 0 km/h
2668 10-03-2009 05:24:37 4.4 C 4.44 g/m*3 4.4 C 0 km/h
2669 10-03-2009 05:36:37 4.3 C 4.48 g/m*3 4.3 C 0 km/h
2670 10-03-2009 05:48:37 4.3 C 4.54 g/m*3 4.3 C 0 km/h
2671 10-03-2009 06:00:37 4.3 C 4.61 g/m*3 4.3 C 0 km/h
2672 10-03-2009 06:12:37 4.1 C 4.61 g/m*3 4.1 C 0 km/h
2673 10-03-2009 06:24:37 4.2 C 4.64 g/m*3 4.2 C 0 km/h
2674 10-03-2009 06:36:37 4.2 C 4.64 g/m*3 4.2 C 0 km/h
2675 10-03-2009 06:48:37 4.3 C 4.67 g/m*3 4.3 C 0 km/h
Sensor: Nr:Datum:Temp:Abs-Feuchte:Windchill:Wind:
Aussen-T/F 2676 10-03-2009 07:00:35 4.3 C 4.61 g/m*3 4.3 C 0 km/h
2677 10-03-2009 07:12:35 4.3 C 4.61 g/m*3 4.3 C 0 km/h
2678 10-03-2009 07:24:34 4.2 C 4.64 g/m*3 4.2 C 0 km/h
2679 10-03-2009 07:36:35 4.2 C 4.64 g/m*3 4.2 C 0 km/h
2680 10-03-2009 07:48:34 4.3 C 4.74 g/m*3 4.3 C 0 km/h
2681 10-03-2009 08:00:34 4.5 C 4.73 g/m*3 4.5 C 0 km/h
2682 10-03-2009 08:12:34 4.7 C 4.73 g/m*3 4.7 C 0 km/h
2683 10-03-2009 08:24:35 4.8 C 4.76 g/m*3 4.8 C 0 km/h
2684 10-03-2009 08:36:34 4.9 C 4.73 g/m*3 4.9 C 0 km/h
2685 10-03-2009 08:48:34 5 C 4.69 g/m*3 5 C 0 km/h
2686 10-03-2009 09:00:33 5 C 4.69 g/m*3 5 C 0 km/h
2687 10-03-2009 09:12:33 5.2 C 4.75 g/m*3 5.2 C 0 km/h
2688 10-03-2009 09:24:34 5.2 C 4.68 g/m*3 5.2 C 0 km/h
2689 10-03-2009 09:36:34 5.3 C 4.64 g/m*3 5.3 C 0 km/h
2690 10-03-2009 09:48:33 5.3 C 4.64 g/m*3 5.3 C 0 km/h
2691 10-03-2009 10:00:34 5.4 C 4.6 g/m*3 5.4 C 0 km/h
2692 10-03-2009 10:12:34 5.5 C 4.64 g/m*3 5.5 C 0 km/h
2693 10-03-2009 10:24:33 5.6 C 4.67 g/m*3 5.6 C 0 km/h
2694 10-03-2009 10:36:33 5.7 C 4.63 g/m*3 5.7 C 0 km/h
2695 10-03-2009 10:48:33 5.9 C 4.69 g/m*3 5.9 C 0 km/h
2696 10-03-2009 11:00:33 6.1 C 4.6 g/m*3 6.1 C 0 km/h
2697 10-03-2009 11:12:33 6.3 C 4.59 g/m*3 6.3 C 0 km/h
2698 10-03-2009 11:24:32 6.4 C 4.62 g/m*3 6.4 C 0 km/h
2699 10-03-2009 11:36:33 6.3 C 4.66 g/m*3 6.3 C 0 km/h
2700 10-03-2009 11:48:32 6.3 C 4.66 g/m*3 6.3 C 0 km/h
Sensor: Nr:Datum:Temp:Abs-Feuchte:Windchill:Wind:
Aussen-T/F 2701 10-03-2009 12:00:32 6.4 C 4.69 g/m*3 6.4 C 0 km/h
2702 10-03-2009 12:12:32 6.5 C 4.65 g/m*3 6.5 C 0 km/h
2703 10-03-2009 12:24:32 6.6 C 4.6 g/m*3 6.6 C 0 km/h
2704 10-03-2009 12:36:32 6.5 C 4.57 g/m*3 6.5 C 0 km/h
2705 10-03-2009 12:48:32 6.5 C 4.57 g/m*3 6.5 C 0 km/h
2706 10-03-2009 13:00:31 6.6 C 4.6 g/m*3 6.6 C 0 km/h
2707 10-03-2009 13:12:31 6.7 C 4.64 g/m*3 6.7 C 0 km/h
2708 10-03-2009 13:24:32 6.8 C 4.67 g/m*3 6.8 C 0 km/h
2709 10-03-2009 13:36:31 6.8 C 4.67 g/m*3 6.8 C 0 km/h
2710 10-03-2009 13:48:31 7 C 4.65 g/m*3 7 C 0 km/h
2711 10-03-2009 14:00:31 7.1 C 4.6 g/m*3 7.1 C 0 km/h
2712 10-03-2009 14:12:31 7.1 C 4.52 g/m*3 7.1 C 0 km/h
2713 10-03-2009 14:24:31 7.1 C 4.6 g/m*3 7.1 C 0 km/h
2714 10-03-2009 14:36:31 6.9 C 4.7 g/m*3 6.9 C 0 km/h
2715 10-03-2009 14:48:31 6.8 C 4.74 g/m*3 6.8 C 0 km/h
2716 10-03-2009 15:00:31 6.8 C 4.67 g/m*3 6.8 C 0 km/h
2717 10-03-2009 15:12:31 6.8 C 4.67 g/m*3 6.8 C 0 km/h
2718 10-03-2009 15:24:30 6.6 C 4.6 g/m*3 6.6 C 0 km/h
2719 10-03-2009 15:36:30 6.4 C 4.62 g/m*3 6.4 C 0 km/h
2720 10-03-2009 15:48:30 6.4 C 4.55 g/m*3 6.4 C 0 km/h
2721 10-03-2009 16:00:30 6.4 C 4.32 g/m*3 6.4 C 0 km/h
2722 10-03-2009 16:12:30 6.4 C 4.47 g/m*3 6.4 C 0 km/h
2723 10-03-2009 16:24:29 5.9 C 4.47 g/m*3 5.9 C 0 km/h
2724 10-03-2009 16:36:30 5.7 C 4.7 g/m*3 5.7 C 0 km/h
2725 10-03-2009 16:48:30 5.4 C 4.74 g/m*3 5.4 C 0 km/h
Sensor: Nr:Datum:Temp:Abs-Feuchte:Windchill:Wind:
Aussen-T/F 2726 10-03-2009 17:00:29 5.6 C 4.88 g/m*3 5.6 C 0 km/h
2727 10-03-2009 17:12:29 5.6 C 4.81 g/m*3 5.6 C 0 km/h
2728 10-03-2009 17:24:30 5.8 C 4.87 g/m*3 5.8 C 0 km/h
2729 10-03-2009 17:36:29 5.7 C 4.91 g/m*3 5.7 C 0 km/h
2730 10-03-2009 17:48:29 5.7 C 4.91 g/m*3 5.7 C 0 km/h
2731 10-03-2009 18:00:28 5.8 C 5.01 g/m*3 5.8 C 0 km/h
2732 10-03-2009 18:12:28 5.7 C 5.05 g/m*3 5.7 C 0 km/h
2733 10-03-2009 18:24:29 5.8 C 5.09 g/m*3 5.8 C 0 km/h
2734 10-03-2009 18:36:29 5.8 C 5.09 g/m*3 5.8 C 0 km/h
2735 10-03-2009 18:48:28 5.9 C 5.19 g/m*3 5.9 C 0 km/h
2736 10-03-2009 19:00:29 6 C 5.15 g/m*3 6 C 0 km/h
2737 10-03-2009 19:12:29 6 C 5.23 g/m*3 6 C 0 km/h
2738 10-03-2009 19:24:28 6 C 5.3 g/m*3 6 C 0 km/h
2739 10-03-2009 19:36:28 6 C 5.37 g/m*3 6 C 0 km/h
2740 10-03-2009 19:48:28 5.8 C 5.73 g/m*3 5.8 C 0 km/h
2741 10-03-2009 20:00:28 5.8 C 5.87 g/m*3 5.8 C 0 km/h
2742 10-03-2009 20:12:28 5.8 C 5.95 g/m*3 5.8 C 0 km/h
2743 10-03-2009 20:24:27 5.9 C 5.98 g/m*3 5.9 C 0 km/h
2744 10-03-2009 20:36:27 6.5 C 5.92 g/m*3 6.5 C 0 km/h
2745 10-03-2009 20:48:27 6.9 C 5.62 g/m*3 6.9 C 0 km/h
2746 10-03-2009 21:00:27 7.2 C 5.34 g/m*3 7.2 C 0 km/h
2747 10-03-2009 21:12:27 7.3 C 5.21 g/m*3 7.3 C 0 km/h
2748 10-03-2009 21:24:27 7.3 C 5.21 g/m*3 7.3 C 0 km/h
2749 10-03-2009 21:36:27 6.8 C 5.51 g/m*3 6.8 C 0 km/h
2750 10-03-2009 21:49:28 6.2 C 5.44 g/m*3 6.2 C 0 km/h
Sensor: Nr:Datum:Temp:Abs-Feuchte:Windchill:Wind:
Aussen-T/F 2751 10-03-2009 22:01:28 5.7 C 5.34 g/m*3 5.7 C 0 km/h
2752 10-03-2009 22:13:28 5.6 C 5.3 g/m*3 5.6 C 0 km/h
2753 10-03-2009 22:25:28 5.4 C 5.37 g/m*3 5.4 C 0 km/h
2754 10-03-2009 22:37:28 5.3 C 5.34 g/m*3 5.3 C 0 km/h
2755 10-03-2009 22:49:28 5.2 C 5.51 g/m*3 5.2 C 0 km/h
2756 10-03-2009 23:01:28 5.1 C 5.47 g/m*3 5.1 C 0 km/h
2757 10-03-2009 23:13:28 5.1 C 5.47 g/m*3 5.1 C 0 km/h
2758 10-03-2009 23:25:28 5.2 C 5.37 g/m*3 5.2 C 0 km/h
2759 10-03-2009 23:37:28 5.4 C 5.02 g/m*3 5.4 C 0 km/h
2760 10-03-2009 23:49:28 5.4 C 4.81 g/m*3 5.4 C 0 km/h
2761 11-03-2009 00:01:28 5.5 C 4.64 g/m*3 5.5 C 0 km/h
2762 11-03-2009 00:13:28 5.5 C 4.78 g/m*3 5.5 C 0 km/h
2763 11-03-2009 00:25:28 5.3 C 4.78 g/m*3 5.3 C 0 km/h
2764 11-03-2009 00:37:28 5.1 C 4.72 g/m*3 5.1 C 0 km/h
2765 11-03-2009 00:49:28 5 C 4.69 g/m*3 5 C 0 km/h
2766 11-03-2009 01:01:28 4.8 C 4.69 g/m*3 4.8 C 0 km/h
2767 11-03-2009 01:13:29 4.8 C 4.69 g/m*3 4.8 C 0 km/h
2768 11-03-2009 01:25:29 4.9 C 4.66 g/m*3 4.9 C 0 km/h
2769 11-03-2009 01:37:29 4.9 C 4.66 g/m*3 4.9 C 0 km/h
2770 11-03-2009 01:49:29 4.8 C 4.63 g/m*3 4.8 C 0 km/h
2771 11-03-2009 02:01:29 4.9 C 4.59 g/m*3 4.9 C 0 km/h
2772 11-03-2009 02:13:29 5 C 4.48 g/m*3 5 C 0 km/h
2773 11-03-2009 02:25:29 4.9 C 4.52 g/m*3 4.9 C 0 km/h
2774 11-03-2009 02:37:29 4.9 C 4.59 g/m*3 4.9 C 0 km/h
2775 11-03-2009 02:49:29 4.8 C 4.56 g/m*3 4.8 C 0 km/h
Sensor: Nr:Datum:Temp:Abs-Feuchte:Windchill:Wind:
Aussen-T/F 2776 11-03-2009 03:01:29 4.6 C 4.5 g/m*3 4.6 C 0 km/h
2777 11-03-2009 03:13:29 4.5 C 4.54 g/m*3 4.5 C 0 km/h
2778 11-03-2009 03:25:29 4.5 C 4.54 g/m*3 4.5 C 0 km/h
2779 11-03-2009 03:37:29 4.6 C 4.57 g/m*3 4.6 C 0 km/h
2780 11-03-2009 03:49:29 4.7 C 4.46 g/m*3 4.7 C 0 km/h
2781 11-03-2009 04:01:29 4.7 C 4.46 g/m*3 4.7 C 0 km/h
2782 11-03-2009 04:13:29 4.7 C 4.4 g/m*3 4.7 C 0 km/h
2783 11-03-2009 04:25:29 4.7 C 4.33 g/m*3 4.7 C 0 km/h
2784 11-03-2009 04:37:29 4.7 C 4.33 g/m*3 4.7 C 0 km/h
2785 11-03-2009 04:49:29 4.7 C 4.33 g/m*3 4.7 C 0 km/h
2786 11-03-2009 05:01:30 4.7 C 4.26 g/m*3 4.7 C 0 km/h
2787 11-03-2009 05:13:30 4.6 C 4.23 g/m*3 4.6 C 0 km/h
2788 11-03-2009 05:25:30 4.6 C 4.23 g/m*3 4.6 C 0 km/h
2789 11-03-2009 05:37:30 4.6 C 4.17 g/m*3 4.6 C 0 km/h
2790 11-03-2009 05:49:30 4.6 C 4.17 g/m*3 4.6 C 0 km/h
2791 11-03-2009 06:01:30 4.6 C 4.1 g/m*3 4.6 C 0 km/h
2792 11-03-2009 06:13:30 4.1 C 4.22 g/m*3 4.1 C 0 km/h
2793 11-03-2009 06:25:30 3.9 C 4.55 g/m*3 3.9 C 0 km/h
2794 11-03-2009 06:37:30 3.6 C 4.7 g/m*3 3.6 C 0 km/h
2795 11-03-2009 06:49:30 3.6 C 4.83 g/m*3 3.6 C 0 km/h
2796 11-03-2009 07:01:27 3.7 C 4.86 g/m*3 3.7 C 0 km/h
2797 11-03-2009 07:13:28 3.9 C 4.86 g/m*3 3.9 C 0 km/h
2798 11-03-2009 07:25:28 3.9 C 4.86 g/m*3 3.9 C 0 km/h
2799 11-03-2009 07:37:27 3.8 C 4.89 g/m*3 3.8 C 0 km/h
2800 11-03-2009 07:49:27 4 C 4.83 g/m*3 4 C 0 km/h
Sensor: Nr:Datum:Temp:Abs-Feuchte:Windchill:Wind:
Aussen-T/F 2801 11-03-2009 08:01:27 4.3 C 4.74 g/m*3 4.3 C 0 km/h
2802 11-03-2009 08:13:27 4.5 C 4.6 g/m*3 4.5 C 0 km/h
2803 11-03-2009 08:25:27 4.5 C 4.6 g/m*3 4.5 C 0 km/h
2804 11-03-2009 08:37:26 4.7 C 4.6 g/m*3 4.7 C 0 km/h
2805 11-03-2009 08:49:27 4.9 C 4.59 g/m*3 4.9 C 0 km/h
2806 11-03-2009 09:01:26 4.8 C 4.69 g/m*3 4.8 C 0 km/h
2807 11-03-2009 09:13:26 4.6 C 4.83 g/m*3 4.6 C 0 km/h
2808 11-03-2009 09:25:26 4.6 C 4.83 g/m*3 4.6 C 0 km/h
2809 11-03-2009 09:37:26 4.8 C 4.9 g/m*3 4.8 C 0 km/h
2810 11-03-2009 09:49:26 4.9 C 4.93 g/m*3 4.9 C 0 km/h
2811 11-03-2009 10:01:25 4.9 C 4.79 g/m*3 4.9 C 0 km/h
2812 11-03-2009 10:13:26 5 C 4.69 g/m*3 5 C 0 km/h
2813 11-03-2009 10:25:26 4.8 C 4.69 g/m*3 4.8 C 0 km/h
2814 11-03-2009 10:37:25 4.8 C 4.69 g/m*3 4.8 C 0 km/h
2815 11-03-2009 10:49:25 4.8 C 4.63 g/m*3 4.8 C 0 km/h
2816 11-03-2009 11:01:26 5.2 C 4.54 g/m*3 5.2 C 0 km/h
2817 11-03-2009 11:13:25 5.2 C 4.54 g/m*3 5.2 C 0 km/h
2818 11-03-2009 11:25:25 5.2 C 4.48 g/m*3 5.2 C 0 km/h
2819 11-03-2009 11:37:25 5.4 C 4.47 g/m*3 5.4 C 0 km/h
2820 11-03-2009 11:49:25 5.9 C 4.54 g/m*3 5.9 C 0 km/h
2821 11-03-2009 12:01:25 6.7 C 4.33 g/m*3 6.7 C 0 km/h
2822 11-03-2009 12:13:24 7.1 C 4.21 g/m*3 7.1 C 0 km/h
2823 11-03-2009 12:25:24 7.4 C 4.29 g/m*3 7.4 C 0 km/h
2824 11-03-2009 12:37:24 7.3 C 3.95 g/m*3 7.3 C 0 km/h
2825 11-03-2009 12:49:24 7.4 C 4.06 g/m*3 7.4 C 0 km/h
Sensor: Nr:Datum:Temp:Abs-Feuchte:Windchill:Wind:
Aussen-T/F 2826 11-03-2009 13:01:24 7.1 C 4.06 g/m*3 7.1 C 0 km/h
2827 11-03-2009 13:13:24 6.2 C 4.63 g/m*3 6.2 C 0 km/h
2828 11-03-2009 13:25:24 6.5 C 4.87 g/m*3 6.5 C 0 km/h
2829 11-03-2009 13:37:24 7.3 C 4.82 g/m*3 7.3 C 0 km/h
2830 11-03-2009 13:49:24 7.9 C 4.19 g/m*3 7.9 C 0 km/h
2831 11-03-2009 14:01:23 8 C 3.72 g/m*3 8 C 0 km/h
2832 11-03-2009 14:13:24 8.1 C 3.91 g/m*3 8.1 C 0 km/h
2833 11-03-2009 14:25:24 7.6 C 3.79 g/m*3 7.6 C 0 km/h
2834 11-03-2009 14:37:23 8.5 C 3.5 g/m*3 8.5 C 0 km/h
2835 11-03-2009 14:49:23 8.5 C 3.42 g/m*3 8.5 C 0 km/h
2836 11-03-2009 15:01:23 8.6 C 3.52 g/m*3 8.6 C 0 km/h
2837 11-03-2009 15:13:23 9.3 C 3.5 g/m*3 9.3 C 0 km/h
2838 11-03-2009 15:25:23 9.4 C 3.62 g/m*3 9.4 C 0 km/h
2839 11-03-2009 15:37:23 9.7 C 3.69 g/m*3 9.7 C 0 km/h
2840 11-03-2009 15:49:22 9.1 C 3.64 g/m*3 9.1 C 0 km/h
2841 11-03-2009 16:01:23 8.5 C 3.59 g/m*3 8.5 C 0 km/h
2842 11-03-2009 16:13:22 8.4 C 3.73 g/m*3 8.4 C 0 km/h
2843 11-03-2009 16:25:22 8.5 C 3.84 g/m*3 8.5 C 0 km/h
2844 11-03-2009 16:37:22 8.6 C 3.95 g/m*3 8.6 C 0 km/h
2845 11-03-2009 16:49:22 8.3 C 3.88 g/m*3 8.3 C 0 km/h
2846 11-03-2009 17:01:22 9.1 C 4.08 g/m*3 9.1 C 0 km/h
2847 11-03-2009 17:13:21 8.5 C 3.67 g/m*3 8.5 C 0 km/h
2848 11-03-2009 17:25:21 8.4 C 3.82 g/m*3 8.4 C 0 km/h
2849 11-03-2009 17:37:22 8.3 C 3.71 g/m*3 8.3 C 0 km/h
2850 11-03-2009 17:49:21 8.3 C 3.71 g/m*3 8.3 C 0 km/h
Sensor: Nr:Datum:Temp:Abs-Feuchte:Windchill:Wind:
Aussen-T/F 2851 11-03-2009 18:01:21 8.1 C 3.66 g/m*3 8.1 C 0 km/h
2852 11-03-2009 18:13:22 7.6 C 3.79 g/m*3 7.6 C 0 km/h
2853 11-03-2009 18:25:22 7.1 C 3.9 g/m*3 7.1 C 0 km/h
2854 11-03-2009 18:37:21 6.8 C 4.13 g/m*3 6.8 C 0 km/h
2855 11-03-2009 18:49:21 6.5 C 4.12 g/m*3 6.5 C 0 km/h
2856 11-03-2009 19:01:20 6.4 C 4.17 g/m*3 6.4 C 0 km/h
2857 11-03-2009 19:13:21 6.3 C 4.22 g/m*3 6.3 C 0 km/h
2858 11-03-2009 19:25:21 6.1 C 4.02 g/m*3 6.1 C 0 km/h
2859 11-03-2009 19:37:20 5.8 C 4.01 g/m*3 5.8 C 0 km/h
2860 11-03-2009 19:49:20 5.6 C 4.03 g/m*3 5.6 C 0 km/h
2861 11-03-2009 20:01:20 5.7 C 4.06 g/m*3 5.7 C 0 km/h
2862 11-03-2009 20:13:20 5.8 C 4.01 g/m*3 5.8 C 0 km/h
2863 11-03-2009 20:25:20 5.5 C 4 g/m*3 5.5 C 0 km/h
2864 11-03-2009 20:37:20 5.3 C 4.02 g/m*3 5.3 C 0 km/h
2865 11-03-2009 20:49:20 5.1 C 4.04 g/m*3 5.1 C 0 km/h
2866 11-03-2009 21:01:20 4.8 C 4.09 g/m*3 4.8 C 0 km/h
2867 11-03-2009 21:13:20 4.6 C 4.1 g/m*3 4.6 C 0 km/h
2868 11-03-2009 21:25:20 4.3 C 4.15 g/m*3 4.3 C 0 km/h
2869 11-03-2009 21:37:19 4.2 C 4.19 g/m*3 4.2 C 0 km/h
2870 11-03-2009 21:49:20 4 C 4.13 g/m*3 4 C 0 km/h
2871 11-03-2009 22:02:20 4.1 C 4.16 g/m*3 4.1 C 0 km/h
2872 11-03-2009 22:14:20 3.7 C 4.18 g/m*3 3.7 C 0 km/h
2873 11-03-2009 22:26:20 3.5 C 4.18 g/m*3 3.5 C 0 km/h
2874 11-03-2009 22:38:20 3.4 C 4.15 g/m*3 3.4 C 0 km/h
2875 11-03-2009 22:50:21 3.1 C 4.13 g/m*3 3.1 C 0 km/h
Sensor: Nr:Datum:Temp:Abs-Feuchte:Windchill:Wind:
Aussen-T/F 2876 11-03-2009 23:02:21 3.3 C 4.19 g/m*3 3.3 C 0 km/h
2877 11-03-2009 23:14:21 3 C 4.16 g/m*3 3 C 0 km/h
2878 11-03-2009 23:26:21 2.8 C 4.22 g/m*3 2.8 C 0 km/h
2879 11-03-2009 23:38:21 2.8 C 4.28 g/m*3 2.8 C 0 km/h
2880 11-03-2009 23:50:21 3.1 C 4.25 g/m*3 3.1 C 0 km/h
2881 12-03-2009 00:02:21 3.4 C 4.28 g/m*3 3.4 C 0 km/h
2882 12-03-2009 00:14:21 3.5 C 4.24 g/m*3 3.5 C 0 km/h
2883 12-03-2009 00:26:21 3.5 C 4.18 g/m*3 3.5 C 0 km/h
2884 12-03-2009 00:38:21 3.5 C 4.18 g/m*3 3.5 C 0 km/h
2885 12-03-2009 00:50:21 3.5 C 4.18 g/m*3 3.5 C 0 km/h
2886 12-03-2009 01:02:21 3.5 C 4.18 g/m*3 3.5 C 0 km/h
2887 12-03-2009 01:14:21 3.4 C 4.15 g/m*3 3.4 C 0 km/h
2888 12-03-2009 01:26:21 3.4 C 4.15 g/m*3 3.4 C 0 km/h
2889 12-03-2009 01:38:21 3.4 C 4.21 g/m*3 3.4 C 0 km/h
2890 12-03-2009 01:50:21 3.4 C 4.15 g/m*3 3.4 C 0 km/h
2891 12-03-2009 02:02:21 3.5 C 4.18 g/m*3 3.5 C 0 km/h
2892 12-03-2009 02:14:21 3.4 C 4.15 g/m*3 3.4 C 0 km/h
2893 12-03-2009 02:26:21 3.5 C 4.18 g/m*3 3.5 C 0 km/h
2894 12-03-2009 02:38:22 3.6 C 4.15 g/m*3 3.6 C 0 km/h
2895 12-03-2009 02:50:22 3.6 C 4.15 g/m*3 3.6 C 0 km/h
2896 12-03-2009 03:02:22 3.8 C 4.08 g/m*3 3.8 C 0 km/h
2897 12-03-2009 03:14:22 3.8 C 4.02 g/m*3 3.8 C 0 km/h
2898 12-03-2009 03:26:22 3.8 C 4.02 g/m*3 3.8 C 0 km/h
2899 12-03-2009 03:38:22 3.9 C 4.04 g/m*3 3.9 C 0 km/h
2900 12-03-2009 03:50:22 4.1 C 3.9 g/m*3 4.1 C 0 km/h
Sensor: Nr:Datum:Temp:Abs-Feuchte:Windchill:Wind:
Aussen-T/F 2901 12-03-2009 04:02:22 4 C 3.94 g/m*3 4 C 0 km/h
2902 12-03-2009 04:14:22 4 C 3.94 g/m*3 4 C 0 km/h
2903 12-03-2009 04:26:22 4.1 C 3.97 g/m*3 4.1 C 0 km/h
2904 12-03-2009 04:38:22 4.2 C 3.93 g/m*3 4.2 C 0 km/h
2905 12-03-2009 04:50:22 4.2 C 3.93 g/m*3 4.2 C 0 km/h
2906 12-03-2009 05:02:22 4.4 C 3.92 g/m*3 4.4 C 0 km/h
2907 12-03-2009 05:14:22 4.3 C 3.89 g/m*3 4.3 C 0 km/h
2908 12-03-2009 05:26:22 4.5 C 3.81 g/m*3 4.5 C 0 km/h
2909 12-03-2009 05:38:22 4.6 C 3.9 g/m*3 4.6 C 0 km/h
2910 12-03-2009 05:50:22 4.4 C 3.92 g/m*3 4.4 C 0 km/h
2911 12-03-2009 06:02:22 4.4 C 3.98 g/m*3 4.4 C 0 km/h
2912 12-03-2009 06:14:22 4.5 C 4.01 g/m*3 4.5 C 0 km/h
2913 12-03-2009 06:26:23 4.7 C 4 g/m*3 4.7 C 0 km/h
2914 12-03-2009 06:38:23 4.8 C 3.96 g/m*3 4.8 C 0 km/h
2915 12-03-2009 06:50:23 4.8 C 3.96 g/m*3 4.8 C 0 km/h
2916 12-03-2009 07:02:20 4.7 C 3.93 g/m*3 4.7 C 0 km/h
2917 12-03-2009 07:14:20 4.7 C 4 g/m*3 4.7 C 0 km/h
2918 12-03-2009 07:26:20 4.7 C 4 g/m*3 4.7 C 0 km/h
2919 12-03-2009 07:38:20 4.8 C 4.02 g/m*3 4.8 C 0 km/h
2920 12-03-2009 07:50:19 4.9 C 3.98 g/m*3 4.9 C 0 km/h
2921 12-03-2009 08:02:19 5 C 4.01 g/m*3 5 C 0 km/h
2922 12-03-2009 08:14:20 5.1 C 3.97 g/m*3 5.1 C 0 km/h
2923 12-03-2009 08:26:20 5.1 C 3.97 g/m*3 5.1 C 0 km/h
2924 12-03-2009 08:38:19 5.2 C 3.99 g/m*3 5.2 C 0 km/h
2925 12-03-2009 08:50:19 5.1 C 4.24 g/m*3 5.1 C 0 km/h
Sensor: Nr:Datum:Temp:Abs-Feuchte:Windchill:Wind:
Aussen-T/F 2926 12-03-2009 09:02:19 5 C 4.42 g/m*3 5 C 0 km/h
2927 12-03-2009 09:14:19 4.9 C 4.66 g/m*3 4.9 C 0 km/h
2928 12-03-2009 09:26:19 4.8 C 4.76 g/m*3 4.8 C 0 km/h
2929 12-03-2009 09:38:18 4.7 C 4.86 g/m*3 4.7 C 0 km/h
2930 12-03-2009 09:50:19 4.8 C 4.83 g/m*3 4.8 C 0 km/h
2931 12-03-2009 10:02:18 4.6 C 4.83 g/m*3 4.6 C 0 km/h
2932 12-03-2009 10:14:18 4.6 C 4.9 g/m*3 4.6 C 0 km/h
2933 12-03-2009 10:26:18 4.5 C 4.93 g/m*3 4.5 C 0 km/h
2934 12-03-2009 10:38:18 4.7 C 4.93 g/m*3 4.7 C 0 km/h
2935 12-03-2009 10:50:18 5.1 C 4.79 g/m*3 5.1 C 0 km/h
2936 12-03-2009 11:02:18 5.4 C 4.74 g/m*3 5.4 C 0 km/h
2937 12-03-2009 11:14:17 5.5 C 4.64 g/m*3 5.5 C 0 km/h
2938 12-03-2009 11:26:17 5.5 C 4.64 g/m*3 5.5 C 0 km/h
2939 12-03-2009 11:38:18 5.5 C 4.78 g/m*3 5.5 C 0 km/h
2940 12-03-2009 11:50:17 5.7 C 4.7 g/m*3 5.7 C 0 km/h
2941 12-03-2009 12:02:17 6.1 C 4.68 g/m*3 6.1 C 0 km/h
2942 12-03-2009 12:14:18 6.5 C 4.72 g/m*3 6.5 C 0 km/h
2943 12-03-2009 12:26:18 6.5 C 4.72 g/m*3 6.5 C 0 km/h
2944 12-03-2009 12:38:17 6.5 C 4.8 g/m*3 6.5 C 0 km/h
2945 12-03-2009 12:50:17 6.6 C 4.83 g/m*3 6.6 C 0 km/h
2946 12-03-2009 13:02:16 6.7 C 4.86 g/m*3 6.7 C 0 km/h
2947 12-03-2009 13:14:17 6.8 C 4.89 g/m*3 6.8 C 0 km/h
2948 12-03-2009 13:26:17 6.8 C 4.89 g/m*3 6.8 C 0 km/h
2949 12-03-2009 13:38:16 6.8 C 4.89 g/m*3 6.8 C 0 km/h
2950 12-03-2009 13:50:17 6.9 C 4.93 g/m*3 6.9 C 0 km/h
Sensor: Nr:Datum:Temp:Abs-Feuchte:Windchill:Wind:
Aussen-T/F 2951 12-03-2009 14:02:16 6.9 C 5 g/m*3 6.9 C 0 km/h
2952 12-03-2009 14:14:16 6.8 C 5.05 g/m*3 6.8 C 0 km/h
2953 12-03-2009 14:26:16 6.9 C 5.16 g/m*3 6.9 C 0 km/h
2954 12-03-2009 14:38:16 6.9 C 5.16 g/m*3 6.9 C 0 km/h
2955 12-03-2009 14:50:16 7 C 5.35 g/m*3 7 C 0 km/h
2956 12-03-2009 15:02:16 6.8 C 5.51 g/m*3 6.8 C 0 km/h
2957 12-03-2009 15:14:15 6.5 C 5.55 g/m*3 6.5 C 0 km/h
2958 12-03-2009 15:26:15 6.4 C 5.74 g/m*3 6.4 C 0 km/h
2959 12-03-2009 15:38:16 6.8 C 6.04 g/m*3 6.8 C 0 km/h
2960 12-03-2009 15:50:15 6.9 C 6 g/m*3 6.9 C 0 km/h
2961 12-03-2009 16:02:15 7 C 5.81 g/m*3 7 C 0 km/h
2962 12-03-2009 16:14:14 7.1 C 5.85 g/m*3 7.1 C 0 km/h
2963 12-03-2009 16:26:14 7.1 C 5.85 g/m*3 7.1 C 0 km/h
2964 12-03-2009 16:38:15 7.2 C 5.89 g/m*3 7.2 C 0 km/h
2965 12-03-2009 16:50:14 7.1 C 5.85 g/m*3 7.1 C 0 km/h
2966 12-03-2009 17:02:14 7.1 C 5.85 g/m*3 7.1 C 0 km/h
2967 12-03-2009 17:14:15 6.9 C 6 g/m*3 6.9 C 0 km/h
2968 12-03-2009 17:26:15 6.9 C 6.16 g/m*3 6.9 C 0 km/h
2969 12-03-2009 17:38:14 6.9 C 6.16 g/m*3 6.9 C 0 km/h
2970 12-03-2009 17:50:14 6.9 C 6.16 g/m*3 6.9 C 0 km/h
2971 12-03-2009 18:02:14 6.8 C 6.19 g/m*3 6.8 C 0 km/h
2972 12-03-2009 18:14:14 6.7 C 6.31 g/m*3 6.7 C 0 km/h
2973 12-03-2009 18:26:14 6.7 C 6.38 g/m*3 6.7 C 0 km/h
2974 12-03-2009 18:38:14 6.7 C 6.53 g/m*3 6.7 C 0 km/h
2975 12-03-2009 18:50:13 6.7 C 6.61 g/m*3 6.7 C 0 km/h
Sensor: Nr:Datum:Temp:Abs-Feuchte:Windchill:Wind:
Aussen-T/F 2976 12-03-2009 19:02:13 6.7 C 6.69 g/m*3 6.7 C 0 km/h
2977 12-03-2009 19:14:13 6.7 C 6.76 g/m*3 6.7 C 0 km/h
2978 12-03-2009 19:26:13 6.9 C 6.93 g/m*3 6.9 C 0 km/h
2979 12-03-2009 19:38:13 6.9 C 7.01 g/m*3 6.9 C 0 km/h
2980 12-03-2009 19:50:13 7.1 C 7.02 g/m*3 7.1 C 0 km/h
2981 12-03-2009 20:02:13 7.2 C 7.14 g/m*3 7.2 C 0 km/h
2982 12-03-2009 20:14:13 7.1 C 7.1 g/m*3 7.1 C 0 km/h
2983 12-03-2009 20:26:13 7.2 C 7.14 g/m*3 7.2 C 0 km/h
2984 12-03-2009 20:38:12 7.1 C 7.1 g/m*3 7.1 C 0 km/h
2985 12-03-2009 20:50:13 7.2 C 7.14 g/m*3 7.2 C 0 km/h
2986 12-03-2009 21:02:13 7.1 C 7.1 g/m*3 7.1 C 0 km/h
2987 12-03-2009 21:14:12 7.1 C 7.1 g/m*3 7.1 C 0 km/h
2988 12-03-2009 21:26:12 7.1 C 7.1 g/m*3 7.1 C 0 km/h
2989 12-03-2009 21:38:12 7.2 C 7.14 g/m*3 7.2 C 0 km/h
2990 12-03-2009 21:50:12 7.2 C 7.14 g/m*3 7.2 C 0 km/h
2991 12-03-2009 22:03:12 7.2 C 7.06 g/m*3 7.2 C 0 km/h
2992 12-03-2009 22:15:12 7.2 C 7.06 g/m*3 7.2 C 0 km/h
2993 12-03-2009 22:27:12 7.3 C 7.11 g/m*3 7.3 C 0 km/h
2994 12-03-2009 22:39:12 7.4 C 7.08 g/m*3 7.4 C 0 km/h
2995 12-03-2009 22:51:12 7.4 C 7 g/m*3 7.4 C 0 km/h
2996 12-03-2009 23:03:12 7.5 C 7.04 g/m*3 7.5 C 0 km/h
2997 12-03-2009 23:15:12 7.6 C 7.01 g/m*3 7.6 C 0 km/h
2998 12-03-2009 23:27:12 7.7 C 6.97 g/m*3 7.7 C 0 km/h
2999 12-03-2009 23:39:12 7.7 C 6.97 g/m*3 7.7 C 0 km/h
3000 12-03-2009 23:51:12 7.8 C 7.02 g/m*3 7.8 C 0 km/h
Sensor: Nr:Datum:Temp:Abs-Feuchte:Windchill:Wind:
Aussen-T/F 3001 13-03-2009 00:03:12 7.8 C 6.94 g/m*3 7.8 C 0 km/h
3002 13-03-2009 00:15:12 7.8 C 7.02 g/m*3 7.8 C 0 km/h
3003 13-03-2009 00:27:12 7.8 C 7.02 g/m*3 7.8 C 0 km/h
3004 13-03-2009 00:39:12 7.8 C 7.02 g/m*3 7.8 C 0 km/h
3005 13-03-2009 00:51:12 7.7 C 7.05 g/m*3 7.7 C 0 km/h
3006 13-03-2009 01:03:12 7.7 C 7.05 g/m*3 7.7 C 0 km/h
3007 13-03-2009 01:15:12 7.7 C 7.14 g/m*3 7.7 C 0 km/h
3008 13-03-2009 01:27:12 7.6 C 7.09 g/m*3 7.6 C 0 km/h
3009 13-03-2009 01:39:12 7.6 C 7.09 g/m*3 7.6 C 0 km/h
3010 13-03-2009 01:51:12 7.5 C 7.12 g/m*3 7.5 C 0 km/h
3011 13-03-2009 02:03:13 7.5 C 7.12 g/m*3 7.5 C 0 km/h
3012 13-03-2009 02:15:13 7.5 C 7.2 g/m*3 7.5 C 0 km/h
3013 13-03-2009 02:27:13 7.5 C 7.2 g/m*3 7.5 C 0 km/h
3014 13-03-2009 02:39:13 7.4 C 7.16 g/m*3 7.4 C 0 km/h
3015 13-03-2009 02:51:13 7.4 C 7.24 g/m*3 7.4 C 0 km/h
3016 13-03-2009 03:03:13 7.3 C 7.19 g/m*3 7.3 C 0 km/h
3017 13-03-2009 03:15:13 7.5 C 7.28 g/m*3 7.5 C 0 km/h
3018 13-03-2009 03:27:13 7.5 C 7.12 g/m*3 7.5 C 0 km/h
3019 13-03-2009 03:39:13 7.4 C 7 g/m*3 7.4 C 0 km/h
3020 13-03-2009 03:51:13 7.3 C 6.87 g/m*3 7.3 C 0 km/h
3021 13-03-2009 04:03:13 7.3 C 6.79 g/m*3 7.3 C 0 km/h
3022 13-03-2009 04:15:13 7.3 C 6.87 g/m*3 7.3 C 0 km/h
3023 13-03-2009 04:27:13 7.3 C 6.87 g/m*3 7.3 C 0 km/h
3024 13-03-2009 04:39:13 7.1 C 6.79 g/m*3 7.1 C 0 km/h
3025 13-03-2009 04:51:13 7.2 C 6.75 g/m*3 7.2 C 0 km/h
Sensor: Nr:Datum:Temp:Abs-Feuchte:Windchill:Wind:
Aussen-T/F 3026 13-03-2009 05:03:13 7.3 C 6.72 g/m*3 7.3 C 0 km/h
3027 13-03-2009 05:15:13 6.9 C 6.47 g/m*3 6.9 C 0 km/h
3028 13-03-2009 05:27:13 6.6 C 6.42 g/m*3 6.6 C 0 km/h
3029 13-03-2009 05:39:13 6.3 C 6.29 g/m*3 6.3 C 0 km/h
3030 13-03-2009 05:51:14 6.1 C 6.28 g/m*3 6.1 C 0 km/h
3031 13-03-2009 06:03:14 5.9 C 6.27 g/m*3 5.9 C 0 km/h
3032 13-03-2009 06:15:14 5.7 C 6.19 g/m*3 5.7 C 0 km/h
3033 13-03-2009 06:27:14 5.6 C 6.22 g/m*3 5.6 C 0 km/h
3034 13-03-2009 06:39:14 5.5 C 6.18 g/m*3 5.5 C 0 km/h
3035 13-03-2009 06:51:14 5.4 C 6.14 g/m*3 5.4 C 0 km/h
3036 13-03-2009 07:03:12 5.4 C 6.14 g/m*3 5.4 C 0 km/h
3037 13-03-2009 07:15:12 5.4 C 6.21 g/m*3 5.4 C 0 km/h
3038 13-03-2009 07:27:12 5.4 C 6.21 g/m*3 5.4 C 0 km/h
3039 13-03-2009 07:39:12 5.4 C 6.21 g/m*3 5.4 C 0 km/h
3040 13-03-2009 07:51:12 5.5 C 6.25 g/m*3 5.5 C 0 km/h
3041 13-03-2009 08:03:11 5.7 C 6.33 g/m*3 5.7 C 0 km/h
3042 13-03-2009 08:15:12 5.9 C 6.49 g/m*3 5.9 C 0 km/h
3043 13-03-2009 08:27:12 5.9 C 6.49 g/m*3 5.9 C 0 km/h
3044 13-03-2009 08:39:11 5.9 C 6.49 g/m*3 5.9 C 0 km/h
3045 13-03-2009 08:51:11 5.9 C 6.42 g/m*3 5.9 C 0 km/h
3046 13-03-2009 09:03:11 5.9 C 6.42 g/m*3 5.9 C 0 km/h
3047 13-03-2009 09:15:11 6.4 C 6.63 g/m*3 6.4 C 0 km/h
3048 13-03-2009 09:27:11 7.3 C 7.11 g/m*3 7.3 C 0 km/h
3049 13-03-2009 09:39:11 7.4 C 6.84 g/m*3 7.4 C 0 km/h
3050 13-03-2009 09:51:10 8 C 6.78 g/m*3 8 C 0 km/h
Sensor: Nr:Datum:Temp:Abs-Feuchte:Windchill:Wind:
Aussen-T/F 3051 13-03-2009 10:03:11 8.6 C 6.7 g/m*3 8.6 C 0 km/h
3052 13-03-2009 10:15:10 8.8 C 6.35 g/m*3 8.8 C 0 km/h
3053 13-03-2009 10:27:10 9.3 C 5.84 g/m*3 9.3 C 0 km/h
3054 13-03-2009 10:39:10 9.5 C 5.73 g/m*3 9.5 C 0 km/h
3055 13-03-2009 10:51:10 9.7 C 5.53 g/m*3 9.7 C 0 km/h
3056 13-03-2009 11:03:10 10 C 5.54 g/m*3 10 C 0 km/h
3057 13-03-2009 11:15:10 10.3 C 5.36 g/m*3 10.3 C 0 km/h
3058 13-03-2009 11:27:10 10.2 C 5.23 g/m*3 10.2 C 0 km/h
3059 13-03-2009 11:39:09 10.7 C 5.5 g/m*3 10.7 C 0 km/h
3060 13-03-2009 11:51:10 11.7 C 5.12 g/m*3 11.7 C 0 km/h
3061 13-03-2009 12:03:09 11.6 C 4.89 g/m*3 11.6 C 0 km/h
3062 13-03-2009 12:15:09 11.9 C 4.77 g/m*3 11.9 C 0 km/h
3063 13-03-2009 12:27:10 11.3 C 4.49 g/m*3 11.3 C 0 km/h
3064 13-03-2009 12:39:09 10.9 C 4.28 g/m*3 10.9 C 0 km/h
3065 13-03-2009 12:51:09 11.7 C 4.81 g/m*3 11.7 C 0 km/h
3066 13-03-2009 13:03:08 11.9 C 4.24 g/m*3 11.9 C 0 km/h
3067 13-03-2009 13:15:09 11.8 C 4.32 g/m*3 11.8 C 0 km/h
3068 13-03-2009 13:27:09 12.1 C 3.75 g/m*3 12.1 C 0 km/h
3069 13-03-2009 13:39:09 12.5 C 3.85 g/m*3 12.5 C 0 km/h
3070 13-03-2009 13:51:08 14.1 C 3.88 g/m*3 14.1 C 0 km/h
3071 13-03-2009 14:03:09 13.9 C 3.72 g/m*3 13.9 C 0 km/h
3072 13-03-2009 14:15:08 13.1 C 3.65 g/m*3 13.1 C 0 km/h
3073 13-03-2009 14:27:08 13.2 C 3.44 g/m*3 13.2 C 0 km/h
3074 13-03-2009 14:39:08 13.4 C 3.49 g/m*3 13.4 C 0 km/h
3075 13-03-2009 14:51:07 13.6 C 3.65 g/m*3 13.6 C 0 km/h
Sensor: Nr:Datum:Temp:Abs-Feuchte:Windchill:Wind:
Aussen-T/F 3076 13-03-2009 15:03:08 14 C 3.5 g/m*3 14 C 0 km/h
3077 13-03-2009 15:15:08 13.7 C 3.32 g/m*3 13.7 C 0 km/h
3078 13-03-2009 15:27:08 13.9 C 3.48 g/m*3 13.9 C 0 km/h
3079 13-03-2009 15:39:07 14.1 C 3.52 g/m*3 14.1 C 0 km/h
3080 13-03-2009 15:51:08 13.6 C 3.3 g/m*3 13.6 C 0 km/h
3081 13-03-2009 16:03:07 13.8 C 3.46 g/m*3 13.8 C 0 km/h
3082 13-03-2009 16:15:07 13.5 C 3.28 g/m*3 13.5 C 0 km/h
3083 13-03-2009 16:27:07 13.3 C 3.35 g/m*3 13.3 C 0 km/h
3084 13-03-2009 16:39:07 13.1 C 3.42 g/m*3 13.1 C 0 km/h
3085 13-03-2009 16:51:07 13.2 C 3.56 g/m*3 13.2 C 0 km/h
3086 13-03-2009 17:03:06 13 C 3.4 g/m*3 13 C 0 km/h
3087 13-03-2009 17:15:07 12.9 C 3.38 g/m*3 12.9 C 0 km/h
3088 13-03-2009 17:27:07 12.8 C 3.81 g/m*3 12.8 C 0 km/h
3089 13-03-2009 17:39:06 12.6 C 3.98 g/m*3 12.6 C 0 km/h
3090 13-03-2009 17:51:06 12.4 C 4.48 g/m*3 12.4 C 0 km/h
3091 13-03-2009 18:03:06 11.7 C 4.39 g/m*3 11.7 C 0 km/h
3092 13-03-2009 18:15:06 11.1 C 4.33 g/m*3 11.1 C 0 km/h
3093 13-03-2009 18:27:06 10.4 C 4.24 g/m*3 10.4 C 0 km/h
3094 13-03-2009 18:39:05 9.8 C 4.27 g/m*3 9.8 C 0 km/h
3095 13-03-2009 18:51:06 9.2 C 4.29 g/m*3 9.2 C 0 km/h
3096 13-03-2009 19:03:06 9 C 4.23 g/m*3 9 C 0 km/h
3097 13-03-2009 19:15:05 8.6 C 4.47 g/m*3 8.6 C 0 km/h
3098 13-03-2009 19:27:05 8.3 C 4.55 g/m*3 8.3 C 0 km/h
3099 13-03-2009 19:39:05 8.1 C 4.49 g/m*3 8.1 C 0 km/h
3100 13-03-2009 19:51:05 8 C 4.46 g/m*3 8 C 0 km/h
Sensor: Nr:Datum:Temp:Abs-Feuchte:Windchill:Wind:
Aussen-T/F 3101 13-03-2009 20:03:05 7.8 C 4.65 g/m*3 7.8 C 0 km/h
3102 13-03-2009 20:15:04 7.6 C 4.75 g/m*3 7.6 C 0 km/h
3103 13-03-2009 20:27:04 7.4 C 4.77 g/m*3 7.4 C 0 km/h
3104 13-03-2009 20:39:05 7.2 C 4.79 g/m*3 7.2 C 0 km/h
3105 13-03-2009 20:51:04 6.9 C 4.85 g/m*3 6.9 C 0 km/h
3106 13-03-2009 21:03:04 6.6 C 4.83 g/m*3 6.6 C 0 km/h
3107 13-03-2009 21:15:04 6.5 C 4.8 g/m*3 6.5 C 0 km/h
3108 13-03-2009 21:27:04 6.3 C 4.74 g/m*3 6.3 C 0 km/h
3109 13-03-2009 21:39:04 6.1 C 4.75 g/m*3 6.1 C 0 km/h
3110 13-03-2009 21:51:04 5.9 C 4.83 g/m*3 5.9 C 0 km/h
3111 13-03-2009 22:03:04 5.8 C 4.8 g/m*3 5.8 C 0 km/h
3112 13-03-2009 22:15:03 5.8 C 4.8 g/m*3 5.8 C 0 km/h
3113 13-03-2009 22:27:03 5.6 C 4.74 g/m*3 5.6 C 0 km/h
3114 13-03-2009 22:39:04 5.6 C 4.81 g/m*3 5.6 C 0 km/h
3115 13-03-2009 22:52:05 5.4 C 4.81 g/m*3 5.4 C 0 km/h
3116 13-03-2009 23:04:05 5.3 C 4.85 g/m*3 5.3 C 0 km/h
3117 13-03-2009 23:16:05 5.2 C 4.82 g/m*3 5.2 C 0 km/h
3118 13-03-2009 23:28:05 5 C 4.76 g/m*3 5 C 0 km/h
3119 13-03-2009 23:40:05 4.9 C 4.86 g/m*3 4.9 C 0 km/h
3120 13-03-2009 23:52:05 4.8 C 4.83 g/m*3 4.8 C 0 km/h
3121 14-03-2009 00:04:05 4.6 C 4.83 g/m*3 4.6 C 0 km/h
3122 14-03-2009 00:16:05 4.5 C 4.8 g/m*3 4.5 C 0 km/h
3123 14-03-2009 00:28:05 4.5 C 4.86 g/m*3 4.5 C 0 km/h
3124 14-03-2009 00:40:06 4.4 C 4.83 g/m*3 4.4 C 0 km/h
3125 14-03-2009 00:52:06 4.2 C 4.9 g/m*3 4.2 C 0 km/h
Sensor: Nr:Datum:Temp:Abs-Feuchte:Windchill:Wind:
Aussen-T/F 3126 14-03-2009 01:04:06 4.1 C 4.86 g/m*3 4.1 C 0 km/h
3127 14-03-2009 01:16:06 4 C 4.83 g/m*3 4 C 0 km/h
3128 14-03-2009 01:28:06 4 C 4.83 g/m*3 4 C 0 km/h
3129 14-03-2009 01:40:06 3.7 C 4.86 g/m*3 3.7 C 0 km/h
3130 14-03-2009 01:52:06 3.9 C 4.93 g/m*3 3.9 C 0 km/h
3131 14-03-2009 02:04:06 3.8 C 4.89 g/m*3 3.8 C 0 km/h
3132 14-03-2009 02:16:06 3.7 C 4.86 g/m*3 3.7 C 0 km/h
3133 14-03-2009 02:28:06 3.5 C 4.86 g/m*3 3.5 C 0 km/h
3134 14-03-2009 02:40:06 3.4 C 4.83 g/m*3 3.4 C 0 km/h
3135 14-03-2009 02:52:06 3.6 C 4.95 g/m*3 3.6 C 0 km/h
3136 14-03-2009 03:04:06 3.6 C 4.95 g/m*3 3.6 C 0 km/h
3137 14-03-2009 03:16:06 3.2 C 4.82 g/m*3 3.2 C 0 km/h
3138 14-03-2009 03:28:06 3.3 C 4.85 g/m*3 3.3 C 0 km/h
3139 14-03-2009 03:40:06 3.4 C 4.95 g/m*3 3.4 C 0 km/h
3140 14-03-2009 03:52:06 3.4 C 4.95 g/m*3 3.4 C 0 km/h
3141 14-03-2009 04:04:06 3.4 C 4.95 g/m*3 3.4 C 0 km/h
3142 14-03-2009 04:16:06 3.3 C 4.91 g/m*3 3.3 C 0 km/h
3143 14-03-2009 04:28:06 3 C 4.76 g/m*3 3 C 0 km/h
3144 14-03-2009 04:40:07 3 C 4.82 g/m*3 3 C 0 km/h
3145 14-03-2009 04:52:07 2.7 C 4.78 g/m*3 2.7 C 0 km/h
3146 14-03-2009 05:04:07 2.6 C 4.75 g/m*3 2.6 C 0 km/h
3147 14-03-2009 05:16:07 2.6 C 4.8 g/m*3 2.6 C 0 km/h
3148 14-03-2009 05:28:07 2.6 C 4.8 g/m*3 2.6 C 0 km/h
3149 14-03-2009 05:40:07 2.8 C 4.93 g/m*3 2.8 C 0 km/h
3150 14-03-2009 05:52:07 3 C 4.99 g/m*3 3 C 0 km/h
Sensor: Nr:Datum:Temp:Abs-Feuchte:Windchill:Wind:
Aussen-T/F 3151 14-03-2009 06:04:07 3.2 C 5.06 g/m*3 3.2 C 0 km/h
3152 14-03-2009 06:16:07 3.3 C 5.1 g/m*3 3.3 C 0 km/h
3153 14-03-2009 06:28:07 3.3 C 5.1 g/m*3 3.3 C 0 km/h
3154 14-03-2009 06:40:07 3.5 C 5.16 g/m*3 3.5 C 0 km/h
3155 14-03-2009 06:52:07 3.7 C 5.23 g/m*3 3.7 C 0 km/h
3156 14-03-2009 07:04:07 3.8 C 5.21 g/m*3 3.8 C 0 km/h
3157 14-03-2009 07:16:07 3.8 C 5.14 g/m*3 3.8 C 0 km/h
3158 14-03-2009 07:28:07 3.8 C 5.14 g/m*3 3.8 C 0 km/h
3159 14-03-2009 07:40:07 4.1 C 5.18 g/m*3 4.1 C 0 km/h
3160 14-03-2009 07:52:07 4.2 C 5.15 g/m*3 4.2 C 0 km/h
3161 14-03-2009 08:04:07 4.4 C 5.16 g/m*3 4.4 C 0 km/h
3162 14-03-2009 08:16:04 4.6 C 5.23 g/m*3 4.6 C 0 km/h
3163 14-03-2009 08:28:04 4.8 C 5.3 g/m*3 4.8 C 0 km/h
3164 14-03-2009 08:40:05 5.4 C 5.37 g/m*3 5.4 C 0 km/h
3165 14-03-2009 08:52:05 5.6 C 5.3 g/m*3 5.6 C 0 km/h
3166 14-03-2009 09:04:04 5.9 C 5.34 g/m*3 5.9 C 0 km/h
3167 14-03-2009 09:16:04 6.2 C 5.29 g/m*3 6.2 C 0 km/h
3168 14-03-2009 09:28:04 6.3 C 5.18 g/m*3 6.3 C 0 km/h
3169 14-03-2009 09:40:04 6.8 C 5.35 g/m*3 6.8 C 0 km/h
3170 14-03-2009 09:52:04 7.1 C 5.15 g/m*3 7.1 C 0 km/h
3171 14-03-2009 10:04:04 7.4 C 5.17 g/m*3 7.4 C 0 km/h
3172 14-03-2009 10:16:03 7.9 C 5.26 g/m*3 7.9 C 0 km/h
3173 14-03-2009 10:28:03 8.5 C 5.21 g/m*3 8.5 C 0 km/h
3174 14-03-2009 10:40:04 9.4 C 5.25 g/m*3 9.4 C 0 km/h
3175 14-03-2009 10:52:03 9.8 C 5.29 g/m*3 9.8 C 0 km/h
Sensor: Nr:Datum:Temp:Abs-Feuchte:Windchill:Wind:
Aussen-T/F 3176 14-03-2009 11:04:03 10.4 C 5.3 g/m*3 10.4 C 0 km/h
3177 14-03-2009 11:16:03 10.9 C 5.27 g/m*3 10.9 C 0 km/h
3178 14-03-2009 11:28:03 11.3 C 5.3 g/m*3 11.3 C 0 km/h
3179 14-03-2009 11:40:03 11.6 C 5.2 g/m*3 11.6 C 0 km/h
3180 14-03-2009 11:52:02 12.1 C 5.15 g/m*3 12.1 C 0 km/h
3181 14-03-2009 12:04:03 12.5 C 4.95 g/m*3 12.5 C 0 km/h
3182 14-03-2009 12:16:03 12.4 C 4.7 g/m*3 12.4 C 0 km/h
3183 14-03-2009 12:28:03 13 C 4.88 g/m*3 13 C 0 km/h
3184 14-03-2009 12:40:02 13.4 C 4.77 g/m*3 13.4 C 0 km/h
3185 14-03-2009 12:52:03 13.7 C 4.74 g/m*3 13.7 C 0 km/h
3186 14-03-2009 13:04:02 13.6 C 4.71 g/m*3 13.6 C 0 km/h
3187 14-03-2009 13:16:02 13.8 C 4.77 g/m*3 13.8 C 0 km/h
3188 14-03-2009 13:28:02 14.1 C 4.73 g/m*3 14.1 C 0 km/h
3189 14-03-2009 13:40:02 14.5 C 4.73 g/m*3 14.5 C 0 km/h
3190 14-03-2009 13:52:02 14.7 C 4.66 g/m*3 14.7 C 0 km/h
3191 14-03-2009 14:04:01 15.4 C 4.6 g/m*3 15.4 C 0 km/h
3192 14-03-2009 14:16:01 15.8 C 4.58 g/m*3 15.8 C 0 km/h
3193 14-03-2009 14:28:01 15.9 C 4.47 g/m*3 15.9 C 0 km/h
3194 14-03-2009 14:40:01 15.9 C 4.47 g/m*3 15.9 C 0 km/h
3195 14-03-2009 14:52:01 16.9 C 4.31 g/m*3 16.9 C 0 km/h
3196 14-03-2009 15:04:01 17.5 C 4.47 g/m*3 17.5 C 0 km/h
3197 14-03-2009 15:16:01 17 C 4.49 g/m*3 17 C 0 km/h
3198 14-03-2009 15:28:01 16.1 C 4.8 g/m*3 16.1 C 0 km/h
3199 14-03-2009 15:40:01 15.7 C 4.95 g/m*3 15.7 C 0 km/h
3200 14-03-2009 15:52:00 16.8 C 5 g/m*3 16.8 C 0 km/h
Sensor: Nr:Datum:Temp:Abs-Feuchte:Windchill:Wind:
Aussen-T/F 3201 14-03-2009 16:04:01 17.2 C 4.83 g/m*3 17.2 C 0 km/h
3202 14-03-2009 16:16:00 16.2 C 4.83 g/m*3 16.2 C 0 km/h
3203 14-03-2009 16:28:00 15.6 C 5.05 g/m*3 15.6 C 0 km/h
3204 14-03-2009 16:40:00 15.7 C 5.22 g/m*3 15.7 C 0 km/h
3205 14-03-2009 16:52:00 15.4 C 5.12 g/m*3 15.4 C 0 km/h
3206 14-03-2009 17:04:00 15.4 C 5.12 g/m*3 15.4 C 0 km/h
3207 14-03-2009 17:16:00 15.4 C 5.26 g/m*3 15.4 C 0 km/h
3208 14-03-2009 17:28:00 15.2 C 5.32 g/m*3 15.2 C 0 km/h
3209 14-03-2009 17:39:59 15 C 5.26 g/m*3 15 C 0 km/h
3210 14-03-2009 17:52:00 14.7 C 5.41 g/m*3 14.7 C 0 km/h
3211 14-03-2009 18:04:59 14.5 C 5.35 g/m*3 14.5 C 0 km/h
3212 14-03-2009 18:16:59 14.4 C 5.44 g/m*3 14.4 C 0 km/h
3213 14-03-2009 18:28:59 14.2 C 5.49 g/m*3 14.2 C 0 km/h
3214 14-03-2009 18:40:59 14.1 C 5.58 g/m*3 14.1 C 0 km/h
3215 14-03-2009 18:52:59 13.8 C 6.08 g/m*3 13.8 C 0 km/h
3216 14-03-2009 19:04:58 12.3 C 7.28 g/m*3 12.3 C 0 km/h
3217 14-03-2009 19:16:59 11.5 C 7.95 g/m*3 11.5 C 0 km/h
3218 14-03-2009 19:28:59 11.1 C 8.16 g/m*3 11.1 C 0 km/h
3219 14-03-2009 19:40:59 11.4 C 8.52 g/m*3 11.4 C 0 km/h
3220 14-03-2009 19:52:58 10.7 C 8.15 g/m*3 10.7 C 0 km/h
3221 14-03-2009 20:04:59 10.4 C 8 g/m*3 10.4 C 0 km/h
3222 14-03-2009 20:16:58 10.4 C 8.1 g/m*3 10.4 C 0 km/h
3223 14-03-2009 20:28:58 10.3 C 8.04 g/m*3 10.3 C 0 km/h
3224 14-03-2009 20:40:59 10.2 C 8.09 g/m*3 10.2 C 0 km/h
3225 14-03-2009 20:52:57 10 C 7.8 g/m*3 10 C 0 km/h
Sensor: Nr:Datum:Temp:Abs-Feuchte:Windchill:Wind:
Aussen-T/F 3226 14-03-2009 21:04:57 9.6 C 6.78 g/m*3 9.6 C 0 km/h
3227 14-03-2009 21:16:58 9.6 C 6.78 g/m*3 9.6 C 0 km/h
3228 14-03-2009 21:28:57 9.4 C 6.87 g/m*3 9.4 C 0 km/h
3229 14-03-2009 21:40:57 9.3 C 6.92 g/m*3 9.3 C 0 km/h
3230 14-03-2009 21:52:57 9.1 C 6.92 g/m*3 9.1 C 0 km/h
3231 14-03-2009 22:04:57 9 C 6.96 g/m*3 9 C 0 km/h
3232 14-03-2009 22:17:58 9 C 6.88 g/m*3 9 C 0 km/h
3233 14-03-2009 22:29:58 9.1 C 6.74 g/m*3 9.1 C 0 km/h
3234 14-03-2009 22:41:58 9.2 C 6.7 g/m*3 9.2 C 0 km/h
3235 14-03-2009 22:53:58 9.2 C 6.61 g/m*3 9.2 C 0 km/h
3236 14-03-2009 23:05:58 9.2 C 6.61 g/m*3 9.2 C 0 km/h
3237 14-03-2009 23:17:58 9.2 C 6.52 g/m*3 9.2 C 0 km/h
3238 14-03-2009 23:29:58 9.2 C 5.98 g/m*3 9.2 C 0 km/h
3239 14-03-2009 23:41:58 9.1 C 5.86 g/m*3 9.1 C 0 km/h
3240 14-03-2009 23:53:58 9.1 C 5.68 g/m*3 9.1 C 0 km/h
3241 15-03-2009 00:05:58 9.1 C 5.59 g/m*3 9.1 C 0 km/h
3242 15-03-2009 00:17:58 9.1 C 5.5 g/m*3 9.1 C 0 km/h
3243 15-03-2009 00:29:58 9 C 5.47 g/m*3 9 C 0 km/h
3244 15-03-2009 00:41:58 9.1 C 5.41 g/m*3 9.1 C 0 km/h
3245 15-03-2009 00:53:58 9 C 5.38 g/m*3 9 C 0 km/h
3246 15-03-2009 01:05:58 9 C 5.38 g/m*3 9 C 0 km/h
3247 15-03-2009 01:17:58 9 C 5.29 g/m*3 9 C 0 km/h
3248 15-03-2009 01:29:58 8.8 C 5.48 g/m*3 8.8 C 0 km/h
3249 15-03-2009 01:41:58 8.8 C 5.4 g/m*3 8.8 C 0 km/h